<?xml version='1.0' encoding='UTF-8'?><gpx version="1.1" creator="JPX - https://github.com/jenetics/jpx" xmlns="http://www.topografix.com/GPX/1/1"><trk><trkseg><trkpt lat="45.6343023" lon="11.4154284"><ele>153.0</ele><time>2026-04-09T15:48:23.461Z</time></trkpt><trkpt lat="45.6342654" lon="11.4155519"><ele>153.0</ele><time>2026-04-09T15:48:27.559Z</time></trkpt><trkpt lat="45.6342614" lon="11.4156591"><ele>153.0</ele><time>2026-04-09T15:48:29.559Z</time></trkpt><trkpt lat="45.6343256" lon="11.4158029"><ele>153.0</ele><time>2026-04-09T15:48:30.558Z</time></trkpt><trkpt lat="45.6343203" lon="11.4159406"><ele>153.0</ele><time>2026-04-09T15:48:33.558Z</time></trkpt><trkpt lat="45.6342848" lon="11.4160262"><ele>153.0</ele><time>2026-04-09T15:48:34.559Z</time></trkpt><trkpt lat="45.6342632" lon="11.4161133"><ele>153.0</ele><time>2026-04-09T15:48:35.558Z</time></trkpt><trkpt lat="45.6342431" lon="11.4162216"><ele>153.0</ele><time>2026-04-09T15:48:36.559Z</time></trkpt><trkpt lat="45.6342321" lon="11.4163416"><ele>153.0</ele><time>2026-04-09T15:48:37.559Z</time></trkpt><trkpt lat="45.6342689" lon="11.4165173"><ele>153.0</ele><time>2026-04-09T15:48:38.559Z</time></trkpt><trkpt lat="45.6342854" lon="11.4167113"><ele>151.20000000000002</ele><time>2026-04-09T15:48:39.559Z</time></trkpt><trkpt lat="45.634272" lon="11.4168578"><ele>149.4</ele><time>2026-04-09T15:48:40.558Z</time></trkpt><trkpt lat="45.6342764" lon="11.416977"><ele>147.60000000000002</ele><time>2026-04-09T15:48:41.558Z</time></trkpt><trkpt lat="45.6342674" lon="11.4171113"><ele>145.8</ele><time>2026-04-09T15:48:42.559Z</time></trkpt><trkpt lat="45.6343054" lon="11.4173074"><ele>144.0</ele><time>2026-04-09T15:48:44.559Z</time></trkpt><trkpt lat="45.634395" lon="11.4173544"><ele>143.0</ele><time>2026-04-09T15:48:45.559Z</time></trkpt><trkpt lat="45.6344786" lon="11.4174186"><ele>142.0</ele><time>2026-04-09T15:48:46.558Z</time></trkpt><trkpt lat="45.6345724" lon="11.4174148"><ele>141.0</ele><time>2026-04-09T15:48:47.559Z</time></trkpt><trkpt lat="45.634654" lon="11.4174408"><ele>140.0</ele><time>2026-04-09T15:48:48.558Z</time></trkpt><trkpt lat="45.634734" lon="11.417454"><ele>139.0</ele><time>2026-04-09T15:48:49.559Z</time></trkpt><trkpt lat="45.6348077" lon="11.4174633"><ele>138.0</ele><time>2026-04-09T15:48:50.559Z</time></trkpt><trkpt lat="45.6348118" lon="11.4175804"><ele>138.0</ele><time>2026-04-09T15:48:51.557Z</time></trkpt><trkpt lat="45.6347964" lon="11.4176919"><ele>138.0</ele><time>2026-04-09T15:48:54.558Z</time></trkpt><trkpt lat="45.6347618" lon="11.4177779"><ele>138.0</ele><time>2026-04-09T15:48:55.559Z</time></trkpt><trkpt lat="45.6347345" lon="11.4178855"><ele>138.0</ele><time>2026-04-09T15:48:56.558Z</time></trkpt><trkpt lat="45.6346911" lon="11.4179884"><ele>138.0</ele><time>2026-04-09T15:48:57.558Z</time></trkpt><trkpt lat="45.6346502" lon="11.4181101"><ele>138.0</ele><time>2026-04-09T15:48:58.558Z</time></trkpt><trkpt lat="45.6346077" lon="11.4182457"><ele>136.0</ele><time>2026-04-09T15:48:59.559Z</time></trkpt><trkpt lat="45.6345654" lon="11.418385"><ele>134.0</ele><time>2026-04-09T15:49:00.558Z</time></trkpt><trkpt lat="45.6345442" lon="11.418558"><ele>132.0</ele><time>2026-04-09T15:49:01.559Z</time></trkpt><trkpt lat="45.6344425" lon="11.418607"><ele>130.0</ele><time>2026-04-09T15:49:02.559Z</time></trkpt><trkpt lat="45.634388" lon="11.4187089"><ele>128.0</ele><time>2026-04-09T15:49:03.559Z</time></trkpt><trkpt lat="45.6343272" lon="11.4187623"><ele>126.4</ele><time>2026-04-09T15:49:04.559Z</time></trkpt><trkpt lat="45.6342694" lon="11.4188599"><ele>124.80000000000001</ele><time>2026-04-09T15:49:05.559Z</time></trkpt><trkpt lat="45.6341925" lon="11.4189591"><ele>123.2</ele><time>2026-04-09T15:49:06.558Z</time></trkpt><trkpt lat="45.6341788" lon="11.4191515"><ele>121.6</ele><time>2026-04-09T15:49:08.558Z</time></trkpt><trkpt lat="45.6341909" lon="11.4193124"><ele>120.0</ele><time>2026-04-09T15:49:09.558Z</time></trkpt><trkpt lat="45.6342185" lon="11.4194901"><ele>118.0</ele><time>2026-04-09T15:49:10.558Z</time></trkpt><trkpt lat="45.6342393" lon="11.4196874"><ele>116.0</ele><time>2026-04-09T15:49:11.558Z</time></trkpt><trkpt lat="45.6342814" lon="11.4198424"><ele>114.0</ele><time>2026-04-09T15:49:12.558Z</time></trkpt><trkpt lat="45.6343465" lon="11.4200357"><ele>112.0</ele><time>2026-04-09T15:49:13.559Z</time></trkpt><trkpt lat="45.6343908" lon="11.4202126"><ele>112.0</ele><time>2026-04-09T15:49:14.559Z</time></trkpt><trkpt lat="45.634436" lon="11.4203903"><ele>112.0</ele><time>2026-04-09T15:49:15.56Z</time></trkpt><trkpt lat="45.6344796" lon="11.4205636"><ele>112.0</ele><time>2026-04-09T15:49:16.56Z</time></trkpt><trkpt lat="45.6345269" lon="11.4207473"><ele>112.0</ele><time>2026-04-09T15:49:17.559Z</time></trkpt><trkpt lat="45.6345525" lon="11.4209228"><ele>109.75</ele><time>2026-04-09T15:49:18.559Z</time></trkpt><trkpt lat="45.6345972" lon="11.4211049"><ele>107.5</ele><time>2026-04-09T15:49:19.559Z</time></trkpt><trkpt lat="45.6346363" lon="11.4212779"><ele>105.25</ele><time>2026-04-09T15:49:20.559Z</time></trkpt><trkpt lat="45.6346873" lon="11.4214544"><ele>103.0</ele><time>2026-04-09T15:49:21.559Z</time></trkpt><trkpt lat="45.6347365" lon="11.4216319"><ele>101.5</ele><time>2026-04-09T15:49:22.559Z</time></trkpt><trkpt lat="45.6347738" lon="11.4218017"><ele>100.0</ele><time>2026-04-09T15:49:23.559Z</time></trkpt><trkpt lat="45.6348113" lon="11.4219677"><ele>98.5</ele><time>2026-04-09T15:49:24.558Z</time></trkpt><trkpt lat="45.6348537" lon="11.4221329"><ele>97.0</ele><time>2026-04-09T15:49:25.559Z</time></trkpt><trkpt lat="45.6348836" lon="11.4222832"><ele>95.75</ele><time>2026-04-09T15:49:26.559Z</time></trkpt><trkpt lat="45.6349201" lon="11.4224437"><ele>94.5</ele><time>2026-04-09T15:49:27.558Z</time></trkpt><trkpt lat="45.6349756" lon="11.4225945"><ele>93.25</ele><time>2026-04-09T15:49:28.558Z</time></trkpt><trkpt lat="45.6350361" lon="11.422796"><ele>92.0</ele><time>2026-04-09T15:49:29.558Z</time></trkpt><trkpt lat="45.6350752" lon="11.422936"><ele>91.66666666666667</ele><time>2026-04-09T15:49:30.559Z</time></trkpt><trkpt lat="45.635117" lon="11.4230696"><ele>91.33333333333334</ele><time>2026-04-09T15:49:31.559Z</time></trkpt><trkpt lat="45.6350988" lon="11.4231702"><ele>91.0</ele><time>2026-04-09T15:49:34.559Z</time></trkpt><trkpt lat="45.6351009" lon="11.4232974"><ele>90.66666666666667</ele><time>2026-04-09T15:49:36.559Z</time></trkpt><trkpt lat="45.6350375" lon="11.4232835"><ele>90.33333333333333</ele><time>2026-04-09T15:49:37.559Z</time></trkpt><trkpt lat="45.6349379" lon="11.4233025"><ele>90.0</ele><time>2026-04-09T15:49:39.558Z</time></trkpt><trkpt lat="45.6348452" lon="11.4233497"><ele>90.0</ele><time>2026-04-09T15:49:41.558Z</time></trkpt><trkpt lat="45.6347745" lon="11.4233768"><ele>90.0</ele><time>2026-04-09T15:49:42.559Z</time></trkpt><trkpt lat="45.6346555" lon="11.423433"><ele>90.0</ele><time>2026-04-09T15:49:44.559Z</time></trkpt><trkpt lat="45.6345957" lon="11.4234629"><ele>90.0</ele><time>2026-04-09T15:49:45.559Z</time></trkpt><trkpt lat="45.6345314" lon="11.4234918"><ele>90.0</ele><time>2026-04-09T15:49:46.559Z</time></trkpt><trkpt lat="45.6344261" lon="11.4235613"><ele>90.0</ele><time>2026-04-09T15:49:48.559Z</time></trkpt><trkpt lat="45.6343665" lon="11.4236043"><ele>90.0</ele><time>2026-04-09T15:49:49.559Z</time></trkpt><trkpt lat="45.6343078" lon="11.4236425"><ele>90.0</ele><time>2026-04-09T15:49:50.558Z</time></trkpt><trkpt lat="45.6342389" lon="11.4236756"><ele>90.0</ele><time>2026-04-09T15:49:51.559Z</time></trkpt><trkpt lat="45.6341221" lon="11.4237437"><ele>90.0</ele><time>2026-04-09T15:49:53.558Z</time></trkpt><trkpt lat="45.634065" lon="11.4237871"><ele>90.0</ele><time>2026-04-09T15:49:54.559Z</time></trkpt><trkpt lat="45.6340025" lon="11.4238157"><ele>90.0</ele><time>2026-04-09T15:49:55.559Z</time></trkpt><trkpt lat="45.6339381" lon="11.4238544"><ele>90.0</ele><time>2026-04-09T15:49:56.559Z</time></trkpt><trkpt lat="45.6338801" lon="11.4238913"><ele>90.0</ele><time>2026-04-09T15:49:57.558Z</time></trkpt><trkpt lat="45.6338195" lon="11.4239191"><ele>90.0</ele><time>2026-04-09T15:49:58.558Z</time></trkpt><trkpt lat="45.6337583" lon="11.4239619"><ele>90.0</ele><time>2026-04-09T15:49:59.559Z</time></trkpt><trkpt lat="45.633664" lon="11.4240404"><ele>90.0</ele><time>2026-04-09T15:50:01.559Z</time></trkpt><trkpt lat="45.6335701" lon="11.4241247"><ele>90.0</ele><time>2026-04-09T15:50:03.558Z</time></trkpt><trkpt lat="45.6334564" lon="11.4242109"><ele>90.0</ele><time>2026-04-09T15:50:05.558Z</time></trkpt><trkpt lat="45.6333953" lon="11.4242429"><ele>90.0</ele><time>2026-04-09T15:50:06.558Z</time></trkpt><trkpt lat="45.6333198" lon="11.4242595"><ele>90.0</ele><time>2026-04-09T15:50:07.559Z</time></trkpt><trkpt lat="45.6332548" lon="11.424301"><ele>90.0</ele><time>2026-04-09T15:50:08.559Z</time></trkpt><trkpt lat="45.6332002" lon="11.4243532"><ele>90.0</ele><time>2026-04-09T15:50:09.558Z</time></trkpt><trkpt lat="45.633149" lon="11.4244505"><ele>90.0</ele><time>2026-04-09T15:50:10.559Z</time></trkpt><trkpt lat="45.6331287" lon="11.424569"><ele>90.0</ele><time>2026-04-09T15:50:11.559Z</time></trkpt><trkpt lat="45.6331567" lon="11.4247436"><ele>89.8</ele><time>2026-04-09T15:50:13.558Z</time></trkpt><trkpt lat="45.6331947" lon="11.4249035"><ele>89.6</ele><time>2026-04-09T15:50:15.558Z</time></trkpt><trkpt lat="45.633188" lon="11.425008"><ele>89.4</ele><time>2026-04-09T15:50:16.559Z</time></trkpt><trkpt lat="45.633171" lon="11.4250965"><ele>89.2</ele><time>2026-04-09T15:50:17.559Z</time></trkpt><trkpt lat="45.6330926" lon="11.4251457"><ele>89.0</ele><time>2026-04-09T15:50:18.559Z</time></trkpt><trkpt lat="45.6329846" lon="11.4251888"><ele>89.0</ele><time>2026-04-09T15:50:20.559Z</time></trkpt><trkpt lat="45.6329318" lon="11.4253457"><ele>89.0</ele><time>2026-04-09T15:50:22.559Z</time></trkpt><trkpt lat="45.6329416" lon="11.4254807"><ele>89.0</ele><time>2026-04-09T15:50:23.558Z</time></trkpt><trkpt lat="45.632945" lon="11.4255896"><ele>89.0</ele><time>2026-04-09T15:50:24.558Z</time></trkpt><trkpt lat="45.63294" lon="11.4256948"><ele>89.0</ele><time>2026-04-09T15:50:25.558Z</time></trkpt><trkpt lat="45.6329237" lon="11.4257857"><ele>89.0</ele><time>2026-04-09T15:50:26.559Z</time></trkpt><trkpt lat="45.6329281" lon="11.4259031"><ele>88.66666666666667</ele><time>2026-04-09T15:50:27.56Z</time></trkpt><trkpt lat="45.632944" lon="11.4259963"><ele>88.33333333333334</ele><time>2026-04-09T15:50:28.559Z</time></trkpt><trkpt lat="45.6329392" lon="11.4261026"><ele>88.0</ele><time>2026-04-09T15:50:29.559Z</time></trkpt><trkpt lat="45.6329381" lon="11.4262104"><ele>87.66666666666667</ele><time>2026-04-09T15:50:30.559Z</time></trkpt><trkpt lat="45.6329496" lon="11.4263262"><ele>87.33333333333333</ele><time>2026-04-09T15:50:31.559Z</time></trkpt><trkpt lat="45.6329649" lon="11.4264475"><ele>87.0</ele><time>2026-04-09T15:50:32.559Z</time></trkpt><trkpt lat="45.6329719" lon="11.4266348"><ele>86.66666666666667</ele><time>2026-04-09T15:50:34.559Z</time></trkpt><trkpt lat="45.6329678" lon="11.4267414"><ele>86.33333333333333</ele><time>2026-04-09T15:50:35.559Z</time></trkpt><trkpt lat="45.6329483" lon="11.4268575"><ele>86.0</ele><time>2026-04-09T15:50:36.559Z</time></trkpt><trkpt lat="45.6329437" lon="11.4269687"><ele>85.66666666666666</ele><time>2026-04-09T15:50:37.558Z</time></trkpt><trkpt lat="45.6329553" lon="11.4270832"><ele>85.33333333333333</ele><time>2026-04-09T15:50:38.558Z</time></trkpt><trkpt lat="45.6329646" lon="11.4272012"><ele>85.0</ele><time>2026-04-09T15:50:39.559Z</time></trkpt><trkpt lat="45.6329705" lon="11.4273031"><ele>84.66666666666666</ele><time>2026-04-09T15:50:40.559Z</time></trkpt><trkpt lat="45.6329561" lon="11.4274903"><ele>84.33333333333333</ele><time>2026-04-09T15:50:42.559Z</time></trkpt><trkpt lat="45.6329726" lon="11.4275809"><ele>84.0</ele><time>2026-04-09T15:50:43.559Z</time></trkpt><trkpt lat="45.632977" lon="11.4276711"><ele>83.66666666666667</ele><time>2026-04-09T15:50:44.559Z</time></trkpt><trkpt lat="45.6329803" lon="11.4277746"><ele>83.33333333333334</ele><time>2026-04-09T15:50:45.559Z</time></trkpt><trkpt lat="45.6330085" lon="11.4278965"><ele>83.0</ele><time>2026-04-09T15:50:46.559Z</time></trkpt><trkpt lat="45.6330207" lon="11.4280805"><ele>82.83333333333334</ele><time>2026-04-09T15:50:48.559Z</time></trkpt><trkpt lat="45.6330268" lon="11.4281776"><ele>82.66666666666667</ele><time>2026-04-09T15:50:49.558Z</time></trkpt><trkpt lat="45.6330415" lon="11.4282825"><ele>82.5</ele><time>2026-04-09T15:50:50.559Z</time></trkpt><trkpt lat="45.6330553" lon="11.4283714"><ele>82.33333333333333</ele><time>2026-04-09T15:50:51.559Z</time></trkpt><trkpt lat="45.6330691" lon="11.4285428"><ele>82.16666666666666</ele><time>2026-04-09T15:50:53.559Z</time></trkpt><trkpt lat="45.6330798" lon="11.428662"><ele>82.0</ele><time>2026-04-09T15:50:54.559Z</time></trkpt><trkpt lat="45.6330831" lon="11.428754"><ele>82.19999999999999</ele><time>2026-04-09T15:50:55.559Z</time></trkpt><trkpt lat="45.6330987" lon="11.4288596"><ele>82.4</ele><time>2026-04-09T15:50:56.559Z</time></trkpt><trkpt lat="45.6331169" lon="11.4289682"><ele>82.6</ele><time>2026-04-09T15:50:57.559Z</time></trkpt><trkpt lat="45.6331394" lon="11.4290676"><ele>82.80000000000001</ele><time>2026-04-09T15:50:58.559Z</time></trkpt><trkpt lat="45.633182" lon="11.4292424"><ele>83.0</ele><time>2026-04-09T15:51:00.559Z</time></trkpt><trkpt lat="45.6332173" lon="11.4294246"><ele>83.0</ele><time>2026-04-09T15:51:02.559Z</time></trkpt><trkpt lat="45.6332328" lon="11.4295179"><ele>83.0</ele><time>2026-04-09T15:51:03.559Z</time></trkpt><trkpt lat="45.6332714" lon="11.4296853"><ele>83.0</ele><time>2026-04-09T15:51:05.559Z</time></trkpt><trkpt lat="45.6332859" lon="11.429798"><ele>83.0</ele><time>2026-04-09T15:51:06.559Z</time></trkpt><trkpt lat="45.6333518" lon="11.4299551"><ele>83.0</ele><time>2026-04-09T15:51:08.56Z</time></trkpt><trkpt lat="45.6333773" lon="11.430042"><ele>83.0</ele><time>2026-04-09T15:51:09.559Z</time></trkpt><trkpt lat="45.6334063" lon="11.4301258"><ele>83.0</ele><time>2026-04-09T15:51:10.559Z</time></trkpt><trkpt lat="45.6334451" lon="11.4302078"><ele>83.0</ele><time>2026-04-09T15:51:11.558Z</time></trkpt><trkpt lat="45.6334719" lon="11.4302894"><ele>83.0</ele><time>2026-04-09T15:51:12.559Z</time></trkpt><trkpt lat="45.6335075" lon="11.4303771"><ele>83.0</ele><time>2026-04-09T15:51:13.559Z</time></trkpt><trkpt lat="45.6335544" lon="11.4304669"><ele>83.0</ele><time>2026-04-09T15:51:14.558Z</time></trkpt><trkpt lat="45.6335866" lon="11.4305489"><ele>83.0</ele><time>2026-04-09T15:51:15.559Z</time></trkpt><trkpt lat="45.6336414" lon="11.4307186"><ele>83.0</ele><time>2026-04-09T15:51:17.559Z</time></trkpt><trkpt lat="45.6336644" lon="11.4308038"><ele>83.0</ele><time>2026-04-09T15:51:18.558Z</time></trkpt><trkpt lat="45.6336904" lon="11.4308968"><ele>83.0</ele><time>2026-04-09T15:51:19.558Z</time></trkpt><trkpt lat="45.6337157" lon="11.4309914"><ele>83.0</ele><time>2026-04-09T15:51:20.559Z</time></trkpt><trkpt lat="45.6337401" lon="11.4310807"><ele>83.0</ele><time>2026-04-09T15:51:21.559Z</time></trkpt><trkpt lat="45.6337702" lon="11.4311721"><ele>83.0</ele><time>2026-04-09T15:51:22.559Z</time></trkpt><trkpt lat="45.6337818" lon="11.4312657"><ele>83.0</ele><time>2026-04-09T15:51:23.559Z</time></trkpt><trkpt lat="45.6337999" lon="11.4313564"><ele>83.2</ele><time>2026-04-09T15:51:24.559Z</time></trkpt><trkpt lat="45.6338147" lon="11.4314463"><ele>83.4</ele><time>2026-04-09T15:51:25.559Z</time></trkpt><trkpt lat="45.6337763" lon="11.4316174"><ele>83.60000000000001</ele><time>2026-04-09T15:51:27.559Z</time></trkpt><trkpt lat="45.6337691" lon="11.4317094"><ele>83.80000000000001</ele><time>2026-04-09T15:51:28.559Z</time></trkpt><trkpt lat="45.6338256" lon="11.4318823"><ele>84.0</ele><time>2026-04-09T15:51:30.558Z</time></trkpt><trkpt lat="45.6339049" lon="11.4320293"><ele>84.0</ele><time>2026-04-09T15:51:32.558Z</time></trkpt><trkpt lat="45.6339394" lon="11.4321047"><ele>84.0</ele><time>2026-04-09T15:51:33.559Z</time></trkpt><trkpt lat="45.6339746" lon="11.4321916"><ele>84.0</ele><time>2026-04-09T15:51:34.559Z</time></trkpt><trkpt lat="45.6339944" lon="11.4322787"><ele>84.0</ele><time>2026-04-09T15:51:35.558Z</time></trkpt><trkpt lat="45.6340226" lon="11.432367"><ele>84.0</ele><time>2026-04-09T15:51:36.558Z</time></trkpt><trkpt lat="45.6340368" lon="11.4324561"><ele>84.0</ele><time>2026-04-09T15:51:37.559Z</time></trkpt><trkpt lat="45.6340474" lon="11.4325497"><ele>84.0</ele><time>2026-04-09T15:51:38.559Z</time></trkpt><trkpt lat="45.6340595" lon="11.4326468"><ele>84.2</ele><time>2026-04-09T15:51:39.559Z</time></trkpt><trkpt lat="45.6341004" lon="11.4328152"><ele>84.4</ele><time>2026-04-09T15:51:41.558Z</time></trkpt><trkpt lat="45.6341089" lon="11.4329072"><ele>84.6</ele><time>2026-04-09T15:51:42.559Z</time></trkpt><trkpt lat="45.6340775" lon="11.433073"><ele>84.8</ele><time>2026-04-09T15:51:44.559Z</time></trkpt><trkpt lat="45.633986" lon="11.433211"><ele>85.0</ele><time>2026-04-09T15:51:46.56Z</time></trkpt><trkpt lat="45.6338864" lon="11.4331928"><ele>84.6</ele><time>2026-04-09T15:51:47.559Z</time></trkpt><trkpt lat="45.6338178" lon="11.4332365"><ele>84.2</ele><time>2026-04-09T15:51:48.559Z</time></trkpt><trkpt lat="45.6337056" lon="11.4333111"><ele>83.80000000000001</ele><time>2026-04-09T15:51:50.559Z</time></trkpt><trkpt lat="45.6335847" lon="11.4334067"><ele>83.4</ele><time>2026-04-09T15:51:52.558Z</time></trkpt><trkpt lat="45.6335065" lon="11.4334944"><ele>83.0</ele><time>2026-04-09T15:51:54.558Z</time></trkpt><trkpt lat="45.633379" lon="11.4335788"><ele>82.80000000000001</ele><time>2026-04-09T15:51:56.559Z</time></trkpt><trkpt lat="45.6333305" lon="11.433656"><ele>82.6</ele><time>2026-04-09T15:51:57.559Z</time></trkpt><trkpt lat="45.6332697" lon="11.4336883"><ele>82.4</ele><time>2026-04-09T15:51:58.558Z</time></trkpt><trkpt lat="45.6331643" lon="11.433758"><ele>82.19999999999999</ele><time>2026-04-09T15:52:00.558Z</time></trkpt><trkpt lat="45.6330662" lon="11.4338604"><ele>82.0</ele><time>2026-04-09T15:52:02.559Z</time></trkpt><trkpt lat="45.6328941" lon="11.4339817"><ele>82.0</ele><time>2026-04-09T15:52:05.559Z</time></trkpt><trkpt lat="45.6328397" lon="11.4340467"><ele>82.0</ele><time>2026-04-09T15:52:06.559Z</time></trkpt><trkpt lat="45.6327809" lon="11.4340926"><ele>82.0</ele><time>2026-04-09T15:52:07.558Z</time></trkpt><trkpt lat="45.6327041" lon="11.4341335"><ele>82.0</ele><time>2026-04-09T15:52:08.559Z</time></trkpt><trkpt lat="45.632646" lon="11.4341777"><ele>82.0</ele><time>2026-04-09T15:52:09.559Z</time></trkpt><trkpt lat="45.6325558" lon="11.4342928"><ele>82.0</ele><time>2026-04-09T15:52:11.559Z</time></trkpt><trkpt lat="45.6324757" lon="11.4344047"><ele>82.0</ele><time>2026-04-09T15:52:13.559Z</time></trkpt><trkpt lat="45.6324106" lon="11.4345226"><ele>82.0</ele><time>2026-04-09T15:52:15.559Z</time></trkpt><trkpt lat="45.632288" lon="11.4346134"><ele>82.0</ele><time>2026-04-09T15:52:17.558Z</time></trkpt><trkpt lat="45.6322007" lon="11.4346986"><ele>82.0</ele><time>2026-04-09T15:52:19.559Z</time></trkpt><trkpt lat="45.632163" lon="11.4347758"><ele>82.0</ele><time>2026-04-09T15:52:20.558Z</time></trkpt><trkpt lat="45.6320981" lon="11.4348164"><ele>82.0</ele><time>2026-04-09T15:52:21.559Z</time></trkpt><trkpt lat="45.6320341" lon="11.434872"><ele>82.0</ele><time>2026-04-09T15:52:22.558Z</time></trkpt><trkpt lat="45.6319781" lon="11.4349295"><ele>82.0</ele><time>2026-04-09T15:52:23.558Z</time></trkpt><trkpt lat="45.6319247" lon="11.434984"><ele>82.0</ele><time>2026-04-09T15:52:24.559Z</time></trkpt><trkpt lat="45.6318678" lon="11.4350277"><ele>82.0</ele><time>2026-04-09T15:52:25.559Z</time></trkpt><trkpt lat="45.6317673" lon="11.4351192"><ele>82.0</ele><time>2026-04-09T15:52:27.559Z</time></trkpt><trkpt lat="45.6316778" lon="11.4351787"><ele>82.0</ele><time>2026-04-09T15:52:29.559Z</time></trkpt><trkpt lat="45.6316178" lon="11.4352214"><ele>82.0</ele><time>2026-04-09T15:52:30.558Z</time></trkpt><trkpt lat="45.6315588" lon="11.4352592"><ele>82.0</ele><time>2026-04-09T15:52:31.558Z</time></trkpt><trkpt lat="45.6314759" lon="11.4353412"><ele>82.0</ele><time>2026-04-09T15:52:33.558Z</time></trkpt><trkpt lat="45.631385" lon="11.4354435"><ele>82.0</ele><time>2026-04-09T15:52:35.559Z</time></trkpt><trkpt lat="45.6314123" lon="11.4355305"><ele>82.0</ele><time>2026-04-09T15:52:36.559Z</time></trkpt><trkpt lat="45.6314052" lon="11.4356319"><ele>81.71428571428571</ele><time>2026-04-09T15:52:37.559Z</time></trkpt><trkpt lat="45.6314095" lon="11.4357364"><ele>81.42857142857143</ele><time>2026-04-09T15:52:38.559Z</time></trkpt><trkpt lat="45.6314001" lon="11.4358447"><ele>81.14285714285714</ele><time>2026-04-09T15:52:39.559Z</time></trkpt><trkpt lat="45.6314103" lon="11.4359483"><ele>80.85714285714286</ele><time>2026-04-09T15:52:40.559Z</time></trkpt><trkpt lat="45.6314125" lon="11.436049"><ele>80.57142857142857</ele><time>2026-04-09T15:52:41.559Z</time></trkpt><trkpt lat="45.6314117" lon="11.4361471"><ele>80.28571428571428</ele><time>2026-04-09T15:52:42.559Z</time></trkpt><trkpt lat="45.6314191" lon="11.4362546"><ele>80.0</ele><time>2026-04-09T15:52:43.559Z</time></trkpt><trkpt lat="45.631418" lon="11.4363575"><ele>80.0</ele><time>2026-04-09T15:52:44.558Z</time></trkpt><trkpt lat="45.6314203" lon="11.4364698"><ele>80.0</ele><time>2026-04-09T15:52:45.559Z</time></trkpt><trkpt lat="45.6314192" lon="11.4365706"><ele>80.0</ele><time>2026-04-09T15:52:46.559Z</time></trkpt><trkpt lat="45.6314151" lon="11.4366888"><ele>80.0</ele><time>2026-04-09T15:52:47.559Z</time></trkpt><trkpt lat="45.6314034" lon="11.4367796"><ele>80.0</ele><time>2026-04-09T15:52:48.559Z</time></trkpt><trkpt lat="45.6313805" lon="11.4368862"><ele>80.0</ele><time>2026-04-09T15:52:49.558Z</time></trkpt><trkpt lat="45.6313522" lon="11.4370543"><ele>79.83333333333334</ele><time>2026-04-09T15:52:51.558Z</time></trkpt><trkpt lat="45.6313239" lon="11.4371603"><ele>79.66666666666667</ele><time>2026-04-09T15:52:52.558Z</time></trkpt><trkpt lat="45.6312995" lon="11.4372538"><ele>79.5</ele><time>2026-04-09T15:52:53.558Z</time></trkpt><trkpt lat="45.6312822" lon="11.4373616"><ele>79.33333333333333</ele><time>2026-04-09T15:52:54.558Z</time></trkpt><trkpt lat="45.6312721" lon="11.4374536"><ele>79.16666666666666</ele><time>2026-04-09T15:52:55.559Z</time></trkpt><trkpt lat="45.6312087" lon="11.4376042"><ele>79.0</ele><time>2026-04-09T15:52:57.559Z</time></trkpt><trkpt lat="45.6311986" lon="11.4376966"><ele>79.0</ele><time>2026-04-09T15:52:58.559Z</time></trkpt><trkpt lat="45.6311866" lon="11.4377862"><ele>79.0</ele><time>2026-04-09T15:52:59.559Z</time></trkpt><trkpt lat="45.6311408" lon="11.4379431"><ele>79.0</ele><time>2026-04-09T15:53:01.558Z</time></trkpt><trkpt lat="45.631095" lon="11.4380155"><ele>79.0</ele><time>2026-04-09T15:53:02.558Z</time></trkpt><trkpt lat="45.6310546" lon="11.438099"><ele>79.0</ele><time>2026-04-09T15:53:03.559Z</time></trkpt><trkpt lat="45.6310036" lon="11.4381829"><ele>79.0</ele><time>2026-04-09T15:53:04.559Z</time></trkpt><trkpt lat="45.6309503" lon="11.4382752"><ele>79.0</ele><time>2026-04-09T15:53:05.559Z</time></trkpt><trkpt lat="45.6309281" lon="11.4383647"><ele>79.0</ele><time>2026-04-09T15:53:06.559Z</time></trkpt><trkpt lat="45.6308947" lon="11.4384451"><ele>79.0</ele><time>2026-04-09T15:53:07.558Z</time></trkpt><trkpt lat="45.630841" lon="11.43859"><ele>79.0</ele><time>2026-04-09T15:53:09.559Z</time></trkpt><trkpt lat="45.6307505" lon="11.4385691"><ele>79.0</ele><time>2026-04-09T15:53:10.558Z</time></trkpt><trkpt lat="45.6306378" lon="11.4386372"><ele>79.0</ele><time>2026-04-09T15:53:12.559Z</time></trkpt><trkpt lat="45.6305762" lon="11.4386647"><ele>79.0</ele><time>2026-04-09T15:53:13.559Z</time></trkpt><trkpt lat="45.6304311" lon="11.4386858"><ele>79.0</ele><time>2026-04-09T15:53:15.559Z</time></trkpt><trkpt lat="45.6303112" lon="11.438726"><ele>79.0</ele><time>2026-04-09T15:53:17.559Z</time></trkpt><trkpt lat="45.6302461" lon="11.4387434"><ele>79.0</ele><time>2026-04-09T15:53:18.559Z</time></trkpt><trkpt lat="45.6301756" lon="11.438749"><ele>79.00000000000001</ele><time>2026-04-09T15:53:19.558Z</time></trkpt><trkpt lat="45.6301127" lon="11.4387779"><ele>79.0</ele><time>2026-04-09T15:53:20.559Z</time></trkpt><trkpt lat="45.6300464" lon="11.4388101"><ele>79.0</ele><time>2026-04-09T15:53:21.559Z</time></trkpt><trkpt lat="45.629985" lon="11.4388343"><ele>79.0</ele><time>2026-04-09T15:53:22.558Z</time></trkpt><trkpt lat="45.6299215" lon="11.438859"><ele>79.0</ele><time>2026-04-09T15:53:23.559Z</time></trkpt><trkpt lat="45.6298866" lon="11.4389417"><ele>79.00000000000001</ele><time>2026-04-09T15:53:24.559Z</time></trkpt><trkpt lat="45.6298156" lon="11.4390217"><ele>79.0</ele><time>2026-04-09T15:53:26.559Z</time></trkpt><trkpt lat="45.6296833" lon="11.4391154"><ele>79.0</ele><time>2026-04-09T15:53:28.558Z</time></trkpt><trkpt lat="45.6296147" lon="11.4391508"><ele>79.0</ele><time>2026-04-09T15:53:29.558Z</time></trkpt><trkpt lat="45.6295537" lon="11.4391923"><ele>79.0</ele><time>2026-04-09T15:53:30.559Z</time></trkpt><trkpt lat="45.6294827" lon="11.4392137"><ele>79.0</ele><time>2026-04-09T15:53:31.559Z</time></trkpt><trkpt lat="45.6294201" lon="11.4392284"><ele>79.0</ele><time>2026-04-09T15:53:32.559Z</time></trkpt><trkpt lat="45.6293535" lon="11.4392453"><ele>79.0</ele><time>2026-04-09T15:53:33.559Z</time></trkpt><trkpt lat="45.6292427" lon="11.439258"><ele>79.0</ele><time>2026-04-09T15:53:35.558Z</time></trkpt><trkpt lat="45.6291177" lon="11.4392718"><ele>79.0</ele><time>2026-04-09T15:53:37.559Z</time></trkpt><trkpt lat="45.629054" lon="11.4393111"><ele>79.0</ele><time>2026-04-09T15:53:38.558Z</time></trkpt><trkpt lat="45.6289932" lon="11.4393383"><ele>79.0</ele><time>2026-04-09T15:53:39.559Z</time></trkpt><trkpt lat="45.628978" lon="11.4394678"><ele>79.0</ele><time>2026-04-09T15:53:40.558Z</time></trkpt><trkpt lat="45.6289547" lon="11.439566"><ele>79.0</ele><time>2026-04-09T15:53:41.559Z</time></trkpt><trkpt lat="45.6289225" lon="11.439653"><ele>78.75</ele><time>2026-04-09T15:53:42.559Z</time></trkpt><trkpt lat="45.6288858" lon="11.4398199"><ele>78.5</ele><time>2026-04-09T15:53:44.558Z</time></trkpt><trkpt lat="45.6288646" lon="11.4399173"><ele>78.25</ele><time>2026-04-09T15:53:45.558Z</time></trkpt><trkpt lat="45.6288611" lon="11.440092"><ele>78.0</ele><time>2026-04-09T15:53:47.559Z</time></trkpt><trkpt lat="45.6288618" lon="11.4403044"><ele>78.0</ele><time>2026-04-09T15:53:49.558Z</time></trkpt><trkpt lat="45.6288895" lon="11.4403929"><ele>78.0</ele><time>2026-04-09T15:53:50.559Z</time></trkpt><trkpt lat="45.6288831" lon="11.4404829"><ele>78.0</ele><time>2026-04-09T15:53:51.559Z</time></trkpt><trkpt lat="45.6289153" lon="11.4406401"><ele>78.0</ele><time>2026-04-09T15:53:53.558Z</time></trkpt><trkpt lat="45.6289358" lon="11.4407429"><ele>78.0</ele><time>2026-04-09T15:53:54.558Z</time></trkpt><trkpt lat="45.6289501" lon="11.4408574"><ele>78.0</ele><time>2026-04-09T15:53:55.559Z</time></trkpt><trkpt lat="45.6289563" lon="11.4410072"><ele>78.2</ele><time>2026-04-09T15:53:57.559Z</time></trkpt><trkpt lat="45.6289539" lon="11.4411875"><ele>78.4</ele><time>2026-04-09T15:53:59.559Z</time></trkpt><trkpt lat="45.6289825" lon="11.4413055"><ele>78.60000000000001</ele><time>2026-04-09T15:54:01.558Z</time></trkpt><trkpt lat="45.6290025" lon="11.441412"><ele>78.8</ele><time>2026-04-09T15:54:04.559Z</time></trkpt><trkpt lat="45.6289563" lon="11.4415095"><ele>79.0</ele><time>2026-04-09T15:54:07.56Z</time></trkpt><trkpt lat="45.628854" lon="11.4415694"><ele>79.0</ele><time>2026-04-09T15:54:09.559Z</time></trkpt><trkpt lat="45.628772" lon="11.4416163"><ele>79.0</ele><time>2026-04-09T15:54:11.558Z</time></trkpt><trkpt lat="45.6287081" lon="11.4416508"><ele>79.0</ele><time>2026-04-09T15:54:13.559Z</time></trkpt><trkpt lat="45.6286583" lon="11.4417331"><ele>79.0</ele><time>2026-04-09T15:54:14.559Z</time></trkpt><trkpt lat="45.6286031" lon="11.4418369"><ele>79.0</ele><time>2026-04-09T15:54:15.558Z</time></trkpt><trkpt lat="45.6285472" lon="11.4419448"><ele>79.0</ele><time>2026-04-09T15:54:16.558Z</time></trkpt><trkpt lat="45.6284938" lon="11.4420518"><ele>78.8</ele><time>2026-04-09T15:54:17.559Z</time></trkpt><trkpt lat="45.6284407" lon="11.4421465"><ele>78.60000000000001</ele><time>2026-04-09T15:54:18.558Z</time></trkpt><trkpt lat="45.6283885" lon="11.4422386"><ele>78.4</ele><time>2026-04-09T15:54:19.559Z</time></trkpt><trkpt lat="45.6283092" lon="11.4424058"><ele>78.2</ele><time>2026-04-09T15:54:20.558Z</time></trkpt><trkpt lat="45.6282159" lon="11.4425067"><ele>78.0</ele><time>2026-04-09T15:54:21.559Z</time></trkpt><trkpt lat="45.6281641" lon="11.4425843"><ele>78.0</ele><time>2026-04-09T15:54:22.559Z</time></trkpt><trkpt lat="45.6281151" lon="11.4426727"><ele>78.0</ele><time>2026-04-09T15:54:23.559Z</time></trkpt><trkpt lat="45.6280504" lon="11.4427676"><ele>78.0</ele><time>2026-04-09T15:54:24.559Z</time></trkpt><trkpt lat="45.6280006" lon="11.4428514"><ele>78.0</ele><time>2026-04-09T15:54:25.559Z</time></trkpt><trkpt lat="45.6279745" lon="11.4429383"><ele>78.0</ele><time>2026-04-09T15:54:26.559Z</time></trkpt><trkpt lat="45.6279428" lon="11.44303"><ele>78.0</ele><time>2026-04-09T15:54:27.559Z</time></trkpt><trkpt lat="45.6279085" lon="11.4432095"><ele>77.66666666666667</ele><time>2026-04-09T15:54:29.558Z</time></trkpt><trkpt lat="45.6279013" lon="11.4433113"><ele>77.33333333333333</ele><time>2026-04-09T15:54:30.559Z</time></trkpt><trkpt lat="45.6278715" lon="11.4434161"><ele>77.0</ele><time>2026-04-09T15:54:31.558Z</time></trkpt><trkpt lat="45.6278565" lon="11.4435133"><ele>76.66666666666666</ele><time>2026-04-09T15:54:32.558Z</time></trkpt><trkpt lat="45.6278251" lon="11.4436196"><ele>76.33333333333333</ele><time>2026-04-09T15:54:33.559Z</time></trkpt><trkpt lat="45.6277864" lon="11.4437106"><ele>76.0</ele><time>2026-04-09T15:54:34.558Z</time></trkpt><trkpt lat="45.6277942" lon="11.4438266"><ele>79.0</ele><time>2026-04-09T15:54:35.559Z</time></trkpt><trkpt lat="45.6277801" lon="11.443921"><ele>82.0</ele><time>2026-04-09T15:54:36.559Z</time></trkpt><trkpt lat="45.6277695" lon="11.4440203"><ele>85.0</ele><time>2026-04-09T15:54:37.559Z</time></trkpt><trkpt lat="45.6277855" lon="11.4441392"><ele>88.0</ele><time>2026-04-09T15:54:38.559Z</time></trkpt><trkpt lat="45.6277744" lon="11.4443178"><ele>91.0</ele><time>2026-04-09T15:54:40.559Z</time></trkpt><trkpt lat="45.6277681" lon="11.4444315"><ele>94.0</ele><time>2026-04-09T15:54:41.559Z</time></trkpt><trkpt lat="45.6277719" lon="11.4445428"><ele>92.57142857142857</ele><time>2026-04-09T15:54:42.558Z</time></trkpt><trkpt lat="45.6277814" lon="11.4446366"><ele>91.14285714285714</ele><time>2026-04-09T15:54:43.558Z</time></trkpt><trkpt lat="45.6277678" lon="11.4447718"><ele>89.71428571428572</ele><time>2026-04-09T15:54:45.558Z</time></trkpt><trkpt lat="45.6277389" lon="11.4448762"><ele>88.28571428571428</ele><time>2026-04-09T15:54:47.559Z</time></trkpt><trkpt lat="45.6277029" lon="11.4449724"><ele>86.85714285714286</ele><time>2026-04-09T15:54:49.559Z</time></trkpt><trkpt lat="45.6276764" lon="11.4450579"><ele>85.42857142857143</ele><time>2026-04-09T15:54:51.559Z</time></trkpt><trkpt lat="45.6276433" lon="11.4451377"><ele>84.0</ele><time>2026-04-09T15:54:54.558Z</time></trkpt><trkpt lat="45.6276056" lon="11.4452267"><ele>84.0</ele><time>2026-04-09T15:54:56.559Z</time></trkpt><trkpt lat="45.6275968" lon="11.4453732"><ele>84.0</ele><time>2026-04-09T15:55:07.559Z</time></trkpt><trkpt lat="45.6276586" lon="11.4455987"><ele>84.0</ele><time>2026-04-09T15:55:09.56Z</time></trkpt><trkpt lat="45.6277041" lon="11.4456926"><ele>84.0</ele><time>2026-04-09T15:55:10.559Z</time></trkpt><trkpt lat="45.6277503" lon="11.4457854"><ele>84.0</ele><time>2026-04-09T15:55:11.559Z</time></trkpt><trkpt lat="45.6277938" lon="11.4458512"><ele>82.25</ele><time>2026-04-09T15:55:12.559Z</time></trkpt><trkpt lat="45.6278497" lon="11.4460117"><ele>80.5</ele><time>2026-04-09T15:55:14.56Z</time></trkpt><trkpt lat="45.6279126" lon="11.4461947"><ele>78.75</ele><time>2026-04-09T15:55:16.558Z</time></trkpt><trkpt lat="45.6279385" lon="11.4462783"><ele>77.0</ele><time>2026-04-09T15:55:17.559Z</time></trkpt><trkpt lat="45.6279954" lon="11.446455"><ele>77.0</ele><time>2026-04-09T15:55:20.558Z</time></trkpt><trkpt lat="45.6280531" lon="11.4465919"><ele>77.0</ele><time>2026-04-09T15:55:22.559Z</time></trkpt><trkpt lat="45.6281255" lon="11.4467423"><ele>77.0</ele><time>2026-04-09T15:55:24.559Z</time></trkpt><trkpt lat="45.6281615" lon="11.4468335"><ele>77.0</ele><time>2026-04-09T15:55:25.56Z</time></trkpt><trkpt lat="45.6282105" lon="11.4469658"><ele>77.0</ele><time>2026-04-09T15:55:27.559Z</time></trkpt><trkpt lat="45.6282436" lon="11.4470809"><ele>77.0</ele><time>2026-04-09T15:55:29.558Z</time></trkpt><trkpt lat="45.6282869" lon="11.4471766"><ele>77.0</ele><time>2026-04-09T15:55:30.559Z</time></trkpt><trkpt lat="45.6283372" lon="11.4472539"><ele>77.0</ele><time>2026-04-09T15:55:31.559Z</time></trkpt><trkpt lat="45.6284055" lon="11.4473774"><ele>77.0</ele><time>2026-04-09T15:55:33.559Z</time></trkpt><trkpt lat="45.6284321" lon="11.447478"><ele>77.0</ele><time>2026-04-09T15:55:35.559Z</time></trkpt><trkpt lat="45.6284998" lon="11.4476484"><ele>77.0</ele><time>2026-04-09T15:55:38.559Z</time></trkpt><trkpt lat="45.6285315" lon="11.4477324"><ele>77.0</ele><time>2026-04-09T15:55:39.559Z</time></trkpt><trkpt lat="45.6285633" lon="11.4478103"><ele>77.0</ele><time>2026-04-09T15:55:40.559Z</time></trkpt><trkpt lat="45.6286261" lon="11.4479762"><ele>77.0</ele><time>2026-04-09T15:55:42.559Z</time></trkpt><trkpt lat="45.6286624" lon="11.4480611"><ele>77.0</ele><time>2026-04-09T15:55:43.558Z</time></trkpt><trkpt lat="45.6287022" lon="11.4481407"><ele>77.0</ele><time>2026-04-09T15:55:44.559Z</time></trkpt><trkpt lat="45.6287461" lon="11.4482163"><ele>76.66666666666667</ele><time>2026-04-09T15:55:45.559Z</time></trkpt><trkpt lat="45.6287867" lon="11.4482891"><ele>76.33333333333334</ele><time>2026-04-09T15:55:46.558Z</time></trkpt><trkpt lat="45.6288814" lon="11.4484"><ele>76.0</ele><time>2026-04-09T15:55:47.559Z</time></trkpt><trkpt lat="45.6289646" lon="11.4484829"><ele>75.66666666666667</ele><time>2026-04-09T15:55:48.558Z</time></trkpt><trkpt lat="45.629021" lon="11.4485438"><ele>75.33333333333333</ele><time>2026-04-09T15:55:49.558Z</time></trkpt><trkpt lat="45.6290823" lon="11.4485773"><ele>75.0</ele><time>2026-04-09T15:55:50.558Z</time></trkpt><trkpt lat="45.6291386" lon="11.4486442"><ele>75.0</ele><time>2026-04-09T15:55:51.559Z</time></trkpt><trkpt lat="45.6292096" lon="11.448788"><ele>75.0</ele><time>2026-04-09T15:55:53.559Z</time></trkpt><trkpt lat="45.629255" lon="11.4488752"><ele>75.0</ele><time>2026-04-09T15:55:54.559Z</time></trkpt><trkpt lat="45.6293206" lon="11.448975"><ele>75.0</ele><time>2026-04-09T15:55:57.558Z</time></trkpt><trkpt lat="45.6293391" lon="11.449099"><ele>75.0</ele><time>2026-04-09T15:55:59.559Z</time></trkpt><trkpt lat="45.6293738" lon="11.4491845"><ele>75.16666666666667</ele><time>2026-04-09T15:56:01.559Z</time></trkpt><trkpt lat="45.6294129" lon="11.4493298"><ele>75.33333333333333</ele><time>2026-04-09T15:56:04.559Z</time></trkpt><trkpt lat="45.6293713" lon="11.4494222"><ele>75.5</ele><time>2026-04-09T15:56:06.559Z</time></trkpt><trkpt lat="45.6293558" lon="11.4495197"><ele>75.66666666666666</ele><time>2026-04-09T15:56:07.558Z</time></trkpt><trkpt lat="45.6293873" lon="11.449632"><ele>75.83333333333333</ele><time>2026-04-09T15:56:08.558Z</time></trkpt><trkpt lat="45.6294137" lon="11.4497638"><ele>76.0</ele><time>2026-04-09T15:56:09.56Z</time></trkpt><trkpt lat="45.6294314" lon="11.4498542"><ele>76.0</ele><time>2026-04-09T15:56:10.558Z</time></trkpt><trkpt lat="45.6294504" lon="11.4499502"><ele>76.0</ele><time>2026-04-09T15:56:11.559Z</time></trkpt><trkpt lat="45.6294653" lon="11.45004"><ele>76.0</ele><time>2026-04-09T15:56:12.559Z</time></trkpt><trkpt lat="45.6294911" lon="11.4501963"><ele>76.0</ele><time>2026-04-09T15:56:14.558Z</time></trkpt><trkpt lat="45.6295242" lon="11.4503483"><ele>76.0</ele><time>2026-04-09T15:56:16.559Z</time></trkpt><trkpt lat="45.6295439" lon="11.4504341"><ele>76.0</ele><time>2026-04-09T15:56:17.559Z</time></trkpt><trkpt lat="45.6295851" lon="11.4505989"><ele>76.0</ele><time>2026-04-09T15:56:19.558Z</time></trkpt><trkpt lat="45.6296363" lon="11.4507601"><ele>76.0</ele><time>2026-04-09T15:56:21.558Z</time></trkpt><trkpt lat="45.6296625" lon="11.450844"><ele>76.0</ele><time>2026-04-09T15:56:22.559Z</time></trkpt><trkpt lat="45.6296895" lon="11.4509261"><ele>76.0</ele><time>2026-04-09T15:56:23.559Z</time></trkpt><trkpt lat="45.6297184" lon="11.4510123"><ele>76.0</ele><time>2026-04-09T15:56:24.558Z</time></trkpt><trkpt lat="45.6297472" lon="11.4511001"><ele>76.0</ele><time>2026-04-09T15:56:25.558Z</time></trkpt><trkpt lat="45.6298092" lon="11.4512067"><ele>76.0</ele><time>2026-04-09T15:56:26.559Z</time></trkpt><trkpt lat="45.6298564" lon="11.4513253"><ele>76.0</ele><time>2026-04-09T15:56:27.558Z</time></trkpt><trkpt lat="45.6299163" lon="11.4514949"><ele>76.0</ele><time>2026-04-09T15:56:29.559Z</time></trkpt><trkpt lat="45.629979" lon="11.4515787"><ele>76.0</ele><time>2026-04-09T15:56:30.558Z</time></trkpt><trkpt lat="45.6300448" lon="11.4517342"><ele>76.0</ele><time>2026-04-09T15:56:32.558Z</time></trkpt><trkpt lat="45.6301017" lon="11.4518908"><ele>76.0</ele><time>2026-04-09T15:56:34.559Z</time></trkpt><trkpt lat="45.6301417" lon="11.4519739"><ele>76.0</ele><time>2026-04-09T15:56:35.558Z</time></trkpt><trkpt lat="45.6301886" lon="11.4521359"><ele>76.0</ele><time>2026-04-09T15:56:37.559Z</time></trkpt><trkpt lat="45.6302134" lon="11.4522198"><ele>76.0</ele><time>2026-04-09T15:56:38.559Z</time></trkpt><trkpt lat="45.6302194" lon="11.4523137"><ele>76.0</ele><time>2026-04-09T15:56:39.559Z</time></trkpt><trkpt lat="45.6302262" lon="11.4524053"><ele>76.0</ele><time>2026-04-09T15:56:40.559Z</time></trkpt><trkpt lat="45.6302867" lon="11.4525482"><ele>76.0</ele><time>2026-04-09T15:56:42.559Z</time></trkpt><trkpt lat="45.6303608" lon="11.4526855"><ele>76.0</ele><time>2026-04-09T15:56:44.559Z</time></trkpt><trkpt lat="45.6304178" lon="11.4528034"><ele>76.0</ele><time>2026-04-09T15:56:46.558Z</time></trkpt><trkpt lat="45.6303832" lon="11.452886"><ele>76.0</ele><time>2026-04-09T15:56:47.558Z</time></trkpt><trkpt lat="45.6304553" lon="11.453017"><ele>76.0</ele><time>2026-04-09T15:56:49.559Z</time></trkpt><trkpt lat="45.6305137" lon="11.4531977"><ele>76.0</ele><time>2026-04-09T15:56:51.559Z</time></trkpt><trkpt lat="45.6305523" lon="11.4532916"><ele>76.0</ele><time>2026-04-09T15:56:52.559Z</time></trkpt><trkpt lat="45.6306122" lon="11.4534267"><ele>76.0</ele><time>2026-04-09T15:56:54.558Z</time></trkpt><trkpt lat="45.630681" lon="11.4535726"><ele>76.0</ele><time>2026-04-09T15:56:56.559Z</time></trkpt><trkpt lat="45.630716" lon="11.4536604"><ele>76.0</ele><time>2026-04-09T15:56:57.559Z</time></trkpt><trkpt lat="45.630743" lon="11.4537447"><ele>76.0</ele><time>2026-04-09T15:56:58.558Z</time></trkpt><trkpt lat="45.6307543" lon="11.4538503"><ele>75.83333333333333</ele><time>2026-04-09T15:56:59.559Z</time></trkpt><trkpt lat="45.6307857" lon="11.4539429"><ele>75.66666666666666</ele><time>2026-04-09T15:57:00.558Z</time></trkpt><trkpt lat="45.6308258" lon="11.4540267"><ele>75.5</ele><time>2026-04-09T15:57:01.559Z</time></trkpt><trkpt lat="45.6308477" lon="11.4541309"><ele>75.33333333333333</ele><time>2026-04-09T15:57:02.558Z</time></trkpt><trkpt lat="45.6308784" lon="11.4542297"><ele>75.16666666666667</ele><time>2026-04-09T15:57:03.558Z</time></trkpt><trkpt lat="45.6309286" lon="11.4543572"><ele>75.0</ele><time>2026-04-09T15:57:05.559Z</time></trkpt><trkpt lat="45.6309937" lon="11.4544916"><ele>75.0</ele><time>2026-04-09T15:57:07.559Z</time></trkpt><trkpt lat="45.6310505" lon="11.4546298"><ele>75.0</ele><time>2026-04-09T15:57:09.558Z</time></trkpt><trkpt lat="45.6311104" lon="11.4547776"><ele>75.0</ele><time>2026-04-09T15:57:11.558Z</time></trkpt><trkpt lat="45.6311639" lon="11.4549267"><ele>75.0</ele><time>2026-04-09T15:57:13.558Z</time></trkpt><trkpt lat="45.6311962" lon="11.455018"><ele>75.0</ele><time>2026-04-09T15:57:14.559Z</time></trkpt><trkpt lat="45.6312359" lon="11.455089"><ele>75.0</ele><time>2026-04-09T15:57:15.559Z</time></trkpt><trkpt lat="45.631251" lon="11.45523"><ele>75.0</ele><time>2026-04-09T15:57:17.559Z</time></trkpt><trkpt lat="45.6312802" lon="11.4553166"><ele>75.0</ele><time>2026-04-09T15:57:18.559Z</time></trkpt><trkpt lat="45.6313189" lon="11.4554193"><ele>75.0</ele><time>2026-04-09T15:57:19.558Z</time></trkpt><trkpt lat="45.6313482" lon="11.4555084"><ele>75.0</ele><time>2026-04-09T15:57:20.559Z</time></trkpt><trkpt lat="45.6314141" lon="11.4556703"><ele>75.0</ele><time>2026-04-09T15:57:22.559Z</time></trkpt><trkpt lat="45.6314591" lon="11.4558373"><ele>75.2</ele><time>2026-04-09T15:57:24.559Z</time></trkpt><trkpt lat="45.6314802" lon="11.4559234"><ele>75.4</ele><time>2026-04-09T15:57:25.559Z</time></trkpt><trkpt lat="45.6315359" lon="11.4560925"><ele>75.6</ele><time>2026-04-09T15:57:27.56Z</time></trkpt><trkpt lat="45.6315685" lon="11.4561994"><ele>75.8</ele><time>2026-04-09T15:57:28.558Z</time></trkpt><trkpt lat="45.6316136" lon="11.45636"><ele>76.0</ele><time>2026-04-09T15:57:30.559Z</time></trkpt><trkpt lat="45.6316415" lon="11.4565178"><ele>76.0</ele><time>2026-04-09T15:57:32.559Z</time></trkpt><trkpt lat="45.6316829" lon="11.4565928"><ele>76.0</ele><time>2026-04-09T15:57:33.559Z</time></trkpt><trkpt lat="45.6317102" lon="11.4566895"><ele>76.0</ele><time>2026-04-09T15:57:34.559Z</time></trkpt><trkpt lat="45.6317419" lon="11.4568749"><ele>76.0</ele><time>2026-04-09T15:57:36.558Z</time></trkpt><trkpt lat="45.6317698" lon="11.4569659"><ele>76.0</ele><time>2026-04-09T15:57:37.559Z</time></trkpt><trkpt lat="45.6317932" lon="11.4570548"><ele>76.0</ele><time>2026-04-09T15:57:38.559Z</time></trkpt><trkpt lat="45.6318157" lon="11.4571486"><ele>75.83333333333333</ele><time>2026-04-09T15:57:39.559Z</time></trkpt><trkpt lat="45.6318427" lon="11.4572451"><ele>75.66666666666666</ele><time>2026-04-09T15:57:40.559Z</time></trkpt><trkpt lat="45.631863" lon="11.4573397"><ele>75.5</ele><time>2026-04-09T15:57:41.559Z</time></trkpt><trkpt lat="45.6318983" lon="11.4574795"><ele>75.33333333333333</ele><time>2026-04-09T15:57:43.559Z</time></trkpt><trkpt lat="45.6319209" lon="11.4575688"><ele>75.16666666666667</ele><time>2026-04-09T15:57:44.559Z</time></trkpt><trkpt lat="45.6319398" lon="11.4577375"><ele>75.0</ele><time>2026-04-09T15:57:46.558Z</time></trkpt><trkpt lat="45.6319626" lon="11.4578377"><ele>75.0</ele><time>2026-04-09T15:57:47.558Z</time></trkpt><trkpt lat="45.6319999" lon="11.4579112"><ele>75.0</ele><time>2026-04-09T15:57:48.559Z</time></trkpt><trkpt lat="45.6320298" lon="11.4580034"><ele>75.0</ele><time>2026-04-09T15:57:49.559Z</time></trkpt><trkpt lat="45.6320631" lon="11.4580803"><ele>75.0</ele><time>2026-04-09T15:57:50.559Z</time></trkpt><trkpt lat="45.6321242" lon="11.4581927"><ele>75.0</ele><time>2026-04-09T15:57:52.559Z</time></trkpt><trkpt lat="45.6321371" lon="11.4583122"><ele>75.0</ele><time>2026-04-09T15:57:53.559Z</time></trkpt><trkpt lat="45.6321873" lon="11.4584216"><ele>75.0</ele><time>2026-04-09T15:57:54.559Z</time></trkpt><trkpt lat="45.6322117" lon="11.4585319"><ele>75.0</ele><time>2026-04-09T15:57:55.559Z</time></trkpt><trkpt lat="45.632235" lon="11.4586248"><ele>75.0</ele><time>2026-04-09T15:57:56.558Z</time></trkpt><trkpt lat="45.6322392" lon="11.4588046"><ele>75.0</ele><time>2026-04-09T15:57:58.558Z</time></trkpt><trkpt lat="45.6322965" lon="11.4588715"><ele>75.0</ele><time>2026-04-09T15:57:59.559Z</time></trkpt><trkpt lat="45.6323505" lon="11.4590152"><ele>74.83333333333333</ele><time>2026-04-09T15:58:01.558Z</time></trkpt><trkpt lat="45.6323886" lon="11.459092"><ele>74.66666666666667</ele><time>2026-04-09T15:58:02.558Z</time></trkpt><trkpt lat="45.6324245" lon="11.4591728"><ele>74.5</ele><time>2026-04-09T15:58:03.558Z</time></trkpt><trkpt lat="45.6324632" lon="11.4593375"><ele>74.33333333333334</ele><time>2026-04-09T15:58:05.558Z</time></trkpt><trkpt lat="45.6325097" lon="11.4595023"><ele>74.16666666666667</ele><time>2026-04-09T15:58:07.559Z</time></trkpt><trkpt lat="45.632538" lon="11.4595941"><ele>74.0</ele><time>2026-04-09T15:58:08.559Z</time></trkpt><trkpt lat="45.6325863" lon="11.4597485"><ele>73.8</ele><time>2026-04-09T15:58:10.559Z</time></trkpt><trkpt lat="45.6326166" lon="11.4598407"><ele>73.60000000000001</ele><time>2026-04-09T15:58:11.558Z</time></trkpt><trkpt lat="45.6326862" lon="11.4600033"><ele>73.4</ele><time>2026-04-09T15:58:13.559Z</time></trkpt><trkpt lat="45.6327579" lon="11.4601547"><ele>73.2</ele><time>2026-04-09T15:58:15.559Z</time></trkpt><trkpt lat="45.6327745" lon="11.4602445"><ele>73.0</ele><time>2026-04-09T15:58:16.559Z</time></trkpt><trkpt lat="45.632814" lon="11.4604199"><ele>72.57142857142857</ele><time>2026-04-09T15:58:18.558Z</time></trkpt><trkpt lat="45.632845" lon="11.4605305"><ele>72.14285714285714</ele><time>2026-04-09T15:58:19.559Z</time></trkpt><trkpt lat="45.6328704" lon="11.460615"><ele>71.71428571428572</ele><time>2026-04-09T15:58:20.559Z</time></trkpt><trkpt lat="45.6328919" lon="11.4607018"><ele>71.28571428571428</ele><time>2026-04-09T15:58:21.558Z</time></trkpt><trkpt lat="45.632927" lon="11.4607858"><ele>70.85714285714286</ele><time>2026-04-09T15:58:22.559Z</time></trkpt><trkpt lat="45.6329428" lon="11.460884"><ele>70.42857142857143</ele><time>2026-04-09T15:58:23.559Z</time></trkpt><trkpt lat="45.6329732" lon="11.4609843"><ele>70.0</ele><time>2026-04-09T15:58:24.558Z</time></trkpt><trkpt lat="45.6330002" lon="11.4611581"><ele>70.33333333333333</ele><time>2026-04-09T15:58:26.558Z</time></trkpt><trkpt lat="45.6330212" lon="11.4613155"><ele>70.66666666666666</ele><time>2026-04-09T15:58:28.559Z</time></trkpt><trkpt lat="45.6330459" lon="11.4614423"><ele>71.0</ele><time>2026-04-09T15:58:30.559Z</time></trkpt><trkpt lat="45.6330731" lon="11.4615313"><ele>71.33333333333333</ele><time>2026-04-09T15:58:31.559Z</time></trkpt><trkpt lat="45.6330732" lon="11.4616272"><ele>71.66666666666667</ele><time>2026-04-09T15:58:32.559Z</time></trkpt><trkpt lat="45.6330405" lon="11.4617113"><ele>72.0</ele><time>2026-04-09T15:58:33.558Z</time></trkpt><trkpt lat="45.6330203" lon="11.4618808"><ele>72.0</ele><time>2026-04-09T15:58:35.558Z</time></trkpt><trkpt lat="45.6330082" lon="11.4620392"><ele>72.0</ele><time>2026-04-09T15:58:37.559Z</time></trkpt><trkpt lat="45.6330182" lon="11.462155"><ele>72.0</ele><time>2026-04-09T15:58:38.559Z</time></trkpt><trkpt lat="45.6330217" lon="11.4622562"><ele>72.0</ele><time>2026-04-09T15:58:39.559Z</time></trkpt><trkpt lat="45.6330142" lon="11.4623497"><ele>72.0</ele><time>2026-04-09T15:58:40.559Z</time></trkpt><trkpt lat="45.6330124" lon="11.4624446"><ele>72.0</ele><time>2026-04-09T15:58:41.559Z</time></trkpt><trkpt lat="45.6330083" lon="11.4625371"><ele>72.5</ele><time>2026-04-09T15:58:42.559Z</time></trkpt><trkpt lat="45.6329945" lon="11.4626337"><ele>73.0</ele><time>2026-04-09T15:58:43.558Z</time></trkpt><trkpt lat="45.6329832" lon="11.462728"><ele>73.5</ele><time>2026-04-09T15:58:44.559Z</time></trkpt><trkpt lat="45.6329739" lon="11.4628202"><ele>74.0</ele><time>2026-04-09T15:58:45.559Z</time></trkpt><trkpt lat="45.6329572" lon="11.4629161"><ele>74.5</ele><time>2026-04-09T15:58:46.559Z</time></trkpt><trkpt lat="45.6329368" lon="11.4630407"><ele>75.0</ele><time>2026-04-09T15:58:47.558Z</time></trkpt><trkpt lat="45.6329231" lon="11.4632225"><ele>75.0</ele><time>2026-04-09T15:58:49.559Z</time></trkpt><trkpt lat="45.6329171" lon="11.4633281"><ele>75.0</ele><time>2026-04-09T15:58:50.558Z</time></trkpt><trkpt lat="45.6329072" lon="11.4634203"><ele>75.0</ele><time>2026-04-09T15:58:51.558Z</time></trkpt><trkpt lat="45.6328806" lon="11.4636075"><ele>75.0</ele><time>2026-04-09T15:58:53.558Z</time></trkpt><trkpt lat="45.6328706" lon="11.4637794"><ele>75.0</ele><time>2026-04-09T15:58:55.559Z</time></trkpt><trkpt lat="45.6328638" lon="11.4638705"><ele>75.0</ele><time>2026-04-09T15:58:56.559Z</time></trkpt><trkpt lat="45.6328536" lon="11.4639638"><ele>75.0</ele><time>2026-04-09T15:58:57.558Z</time></trkpt><trkpt lat="45.6328539" lon="11.464059"><ele>75.0</ele><time>2026-04-09T15:58:58.559Z</time></trkpt><trkpt lat="45.6328573" lon="11.4641583"><ele>75.0</ele><time>2026-04-09T15:58:59.559Z</time></trkpt><trkpt lat="45.6328729" lon="11.4643541"><ele>75.0</ele><time>2026-04-09T15:59:01.559Z</time></trkpt><trkpt lat="45.6328842" lon="11.4644427"><ele>75.0</ele><time>2026-04-09T15:59:02.559Z</time></trkpt><trkpt lat="45.632897" lon="11.4645475"><ele>75.16666666666667</ele><time>2026-04-09T15:59:03.559Z</time></trkpt><trkpt lat="45.6329199" lon="11.4646527"><ele>75.33333333333333</ele><time>2026-04-09T15:59:04.559Z</time></trkpt><trkpt lat="45.6329568" lon="11.4648472"><ele>75.5</ele><time>2026-04-09T15:59:06.558Z</time></trkpt><trkpt lat="45.6329651" lon="11.4649366"><ele>75.66666666666666</ele><time>2026-04-09T15:59:07.558Z</time></trkpt><trkpt lat="45.6329744" lon="11.4650451"><ele>75.83333333333333</ele><time>2026-04-09T15:59:08.558Z</time></trkpt><trkpt lat="45.6329929" lon="11.465142"><ele>76.0</ele><time>2026-04-09T15:59:09.559Z</time></trkpt><trkpt lat="45.6330217" lon="11.465264"><ele>76.0</ele><time>2026-04-09T15:59:10.559Z</time></trkpt><trkpt lat="45.6330361" lon="11.465362"><ele>76.0</ele><time>2026-04-09T15:59:11.558Z</time></trkpt><trkpt lat="45.6330531" lon="11.4654522"><ele>76.0</ele><time>2026-04-09T15:59:12.559Z</time></trkpt><trkpt lat="45.6330805" lon="11.4655559"><ele>76.0</ele><time>2026-04-09T15:59:13.559Z</time></trkpt><trkpt lat="45.6330984" lon="11.4656468"><ele>76.0</ele><time>2026-04-09T15:59:14.558Z</time></trkpt><trkpt lat="45.633143" lon="11.465839"><ele>76.0</ele><time>2026-04-09T15:59:16.56Z</time></trkpt><trkpt lat="45.6331679" lon="11.4659388"><ele>75.83333333333333</ele><time>2026-04-09T15:59:17.559Z</time></trkpt><trkpt lat="45.6331939" lon="11.4660239"><ele>75.66666666666666</ele><time>2026-04-09T15:59:18.559Z</time></trkpt><trkpt lat="45.6332143" lon="11.4661104"><ele>75.5</ele><time>2026-04-09T15:59:19.558Z</time></trkpt><trkpt lat="45.6332436" lon="11.466201"><ele>75.33333333333333</ele><time>2026-04-09T15:59:20.559Z</time></trkpt><trkpt lat="45.633267" lon="11.4662941"><ele>75.16666666666667</ele><time>2026-04-09T15:59:21.559Z</time></trkpt><trkpt lat="45.6332859" lon="11.466429"><ele>75.0</ele><time>2026-04-09T15:59:22.559Z</time></trkpt><trkpt lat="45.6332965" lon="11.4666063"><ele>74.8</ele><time>2026-04-09T15:59:24.559Z</time></trkpt><trkpt lat="45.6333355" lon="11.4667699"><ele>74.6</ele><time>2026-04-09T15:59:26.559Z</time></trkpt><trkpt lat="45.6333606" lon="11.4668725"><ele>74.4</ele><time>2026-04-09T15:59:27.559Z</time></trkpt><trkpt lat="45.6333674" lon="11.4669664"><ele>74.2</ele><time>2026-04-09T15:59:28.559Z</time></trkpt><trkpt lat="45.6333755" lon="11.4670674"><ele>74.0</ele><time>2026-04-09T15:59:29.559Z</time></trkpt><trkpt lat="45.6333988" lon="11.4672362"><ele>74.0</ele><time>2026-04-09T15:59:31.558Z</time></trkpt><trkpt lat="45.6333922" lon="11.4673299"><ele>74.0</ele><time>2026-04-09T15:59:32.558Z</time></trkpt><trkpt lat="45.6333964" lon="11.467502"><ele>74.0</ele><time>2026-04-09T15:59:34.559Z</time></trkpt><trkpt lat="45.6334064" lon="11.467596"><ele>74.0</ele><time>2026-04-09T15:59:35.559Z</time></trkpt><trkpt lat="45.6333844" lon="11.4677817"><ele>74.0</ele><time>2026-04-09T15:59:37.559Z</time></trkpt><trkpt lat="45.6334022" lon="11.4679441"><ele>73.5</ele><time>2026-04-09T15:59:39.559Z</time></trkpt><trkpt lat="45.6334025" lon="11.4681033"><ele>73.0</ele><time>2026-04-09T15:59:41.559Z</time></trkpt><trkpt lat="45.6334178" lon="11.4681937"><ele>72.5</ele><time>2026-04-09T15:59:42.559Z</time></trkpt><trkpt lat="45.633411" lon="11.4682927"><ele>72.0</ele><time>2026-04-09T15:59:43.559Z</time></trkpt><trkpt lat="45.6334286" lon="11.4683894"><ele>71.5</ele><time>2026-04-09T15:59:44.559Z</time></trkpt><trkpt lat="45.6334382" lon="11.468578"><ele>71.0</ele><time>2026-04-09T15:59:46.559Z</time></trkpt><trkpt lat="45.6334389" lon="11.4686709"><ele>71.0</ele><time>2026-04-09T15:59:47.559Z</time></trkpt><trkpt lat="45.633442" lon="11.4687669"><ele>71.0</ele><time>2026-04-09T15:59:48.559Z</time></trkpt><trkpt lat="45.6334188" lon="11.4688658"><ele>71.0</ele><time>2026-04-09T15:59:49.558Z</time></trkpt><trkpt lat="45.6334304" lon="11.4689584"><ele>71.0</ele><time>2026-04-09T15:59:50.558Z</time></trkpt><trkpt lat="45.6334622" lon="11.4690617"><ele>71.0</ele><time>2026-04-09T15:59:51.558Z</time></trkpt><trkpt lat="45.6335225" lon="11.4691806"><ele>71.0</ele><time>2026-04-09T15:59:53.559Z</time></trkpt><trkpt lat="45.6335408" lon="11.4692798"><ele>71.0</ele><time>2026-04-09T15:59:54.559Z</time></trkpt><trkpt lat="45.6335765" lon="11.4693753"><ele>71.0</ele><time>2026-04-09T15:59:55.559Z</time></trkpt><trkpt lat="45.6336107" lon="11.4694509"><ele>71.0</ele><time>2026-04-09T15:59:56.559Z</time></trkpt><trkpt lat="45.6336612" lon="11.4696062"><ele>71.0</ele><time>2026-04-09T15:59:58.559Z</time></trkpt><trkpt lat="45.6336941" lon="11.4696981"><ele>71.0</ele><time>2026-04-09T15:59:59.56Z</time></trkpt><trkpt lat="45.6337236" lon="11.4697822"><ele>71.0</ele><time>2026-04-09T16:00:00.56Z</time></trkpt><trkpt lat="45.6337599" lon="11.4698657"><ele>71.0</ele><time>2026-04-09T16:00:01.559Z</time></trkpt><trkpt lat="45.6337911" lon="11.4699525"><ele>71.0</ele><time>2026-04-09T16:00:02.559Z</time></trkpt><trkpt lat="45.6338661" lon="11.4700968"><ele>71.0</ele><time>2026-04-09T16:00:04.558Z</time></trkpt><trkpt lat="45.6339316" lon="11.4702288"><ele>71.0</ele><time>2026-04-09T16:00:06.558Z</time></trkpt><trkpt lat="45.6339715" lon="11.4702995"><ele>71.0</ele><time>2026-04-09T16:00:07.559Z</time></trkpt><trkpt lat="45.6340624" lon="11.4704275"><ele>71.2</ele><time>2026-04-09T16:00:09.559Z</time></trkpt><trkpt lat="45.6341171" lon="11.4704952"><ele>71.39999999999999</ele><time>2026-04-09T16:00:10.559Z</time></trkpt><trkpt lat="45.6341992" lon="11.4706144"><ele>71.6</ele><time>2026-04-09T16:00:12.559Z</time></trkpt><trkpt lat="45.6342424" lon="11.4706835"><ele>71.8</ele><time>2026-04-09T16:00:13.559Z</time></trkpt><trkpt lat="45.6343097" lon="11.4707914"><ele>72.0</ele><time>2026-04-09T16:00:15.559Z</time></trkpt><trkpt lat="45.634381" lon="11.4708874"><ele>72.0</ele><time>2026-04-09T16:00:17.559Z</time></trkpt><trkpt lat="45.6344654" lon="11.4709907"><ele>72.0</ele><time>2026-04-09T16:00:19.558Z</time></trkpt><trkpt lat="45.6345485" lon="11.4710789"><ele>72.0</ele><time>2026-04-09T16:00:21.558Z</time></trkpt><trkpt lat="45.6346185" lon="11.4711855"><ele>72.0</ele><time>2026-04-09T16:00:23.559Z</time></trkpt><trkpt lat="45.6346823" lon="11.4712831"><ele>72.0</ele><time>2026-04-09T16:00:25.559Z</time></trkpt><trkpt lat="45.634747" lon="11.471397"><ele>71.5</ele><time>2026-04-09T16:00:27.559Z</time></trkpt><trkpt lat="45.6347847" lon="11.4714795"><ele>71.0</ele><time>2026-04-09T16:00:28.559Z</time></trkpt><trkpt lat="45.6348502" lon="11.4716158"><ele>70.5</ele><time>2026-04-09T16:00:30.558Z</time></trkpt><trkpt lat="45.6348823" lon="11.471703"><ele>70.0</ele><time>2026-04-09T16:00:31.559Z</time></trkpt><trkpt lat="45.634941" lon="11.4718387"><ele>69.5</ele><time>2026-04-09T16:00:33.558Z</time></trkpt><trkpt lat="45.6349724" lon="11.4719172"><ele>69.0</ele><time>2026-04-09T16:00:34.559Z</time></trkpt><trkpt lat="45.6350038" lon="11.4719957"><ele>68.8</ele><time>2026-04-09T16:00:35.559Z</time></trkpt><trkpt lat="45.6350541" lon="11.4721414"><ele>68.60000000000001</ele><time>2026-04-09T16:00:37.559Z</time></trkpt><trkpt lat="45.6351084" lon="11.4722881"><ele>68.4</ele><time>2026-04-09T16:00:39.558Z</time></trkpt><trkpt lat="45.6351635" lon="11.4724252"><ele>68.2</ele><time>2026-04-09T16:00:41.559Z</time></trkpt><trkpt lat="45.6352088" lon="11.4725014"><ele>68.0</ele><time>2026-04-09T16:00:42.559Z</time></trkpt><trkpt lat="45.6352675" lon="11.4726599"><ele>68.0</ele><time>2026-04-09T16:00:44.558Z</time></trkpt><trkpt lat="45.6353183" lon="11.4727964"><ele>68.0</ele><time>2026-04-09T16:00:46.558Z</time></trkpt><trkpt lat="45.6353833" lon="11.4729347"><ele>68.0</ele><time>2026-04-09T16:00:48.559Z</time></trkpt><trkpt lat="45.6354319" lon="11.4730644"><ele>68.0</ele><time>2026-04-09T16:00:50.559Z</time></trkpt><trkpt lat="45.635504" lon="11.4731062"><ele>68.0</ele><time>2026-04-09T16:00:51.559Z</time></trkpt><trkpt lat="45.6356141" lon="11.473228"><ele>68.0</ele><time>2026-04-09T16:00:53.558Z</time></trkpt><trkpt lat="45.6357112" lon="11.4733502"><ele>68.0</ele><time>2026-04-09T16:00:55.559Z</time></trkpt><trkpt lat="45.6357479" lon="11.4735349"><ele>68.0</ele><time>2026-04-09T16:00:57.558Z</time></trkpt><trkpt lat="45.6357097" lon="11.4736557"><ele>68.0</ele><time>2026-04-09T16:00:59.559Z</time></trkpt><trkpt lat="45.6357407" lon="11.4738642"><ele>68.16666666666667</ele><time>2026-04-09T16:01:02.559Z</time></trkpt><trkpt lat="45.635791" lon="11.4739888"><ele>68.33333333333334</ele><time>2026-04-09T16:01:04.559Z</time></trkpt><trkpt lat="45.6358154" lon="11.4740767"><ele>68.5</ele><time>2026-04-09T16:01:05.559Z</time></trkpt><trkpt lat="45.6358515" lon="11.4741706"><ele>68.66666666666667</ele><time>2026-04-09T16:01:06.559Z</time></trkpt><trkpt lat="45.6358931" lon="11.4743336"><ele>68.83333333333333</ele><time>2026-04-09T16:01:08.558Z</time></trkpt><trkpt lat="45.6359184" lon="11.4744228"><ele>69.0</ele><time>2026-04-09T16:01:09.559Z</time></trkpt><trkpt lat="45.6359585" lon="11.474568"><ele>69.4</ele><time>2026-04-09T16:01:11.558Z</time></trkpt><trkpt lat="45.6360181" lon="11.4747153"><ele>69.80000000000001</ele><time>2026-04-09T16:01:13.559Z</time></trkpt><trkpt lat="45.6360505" lon="11.4747968"><ele>70.19999999999999</ele><time>2026-04-09T16:01:14.558Z</time></trkpt><trkpt lat="45.636107" lon="11.4749145"><ele>70.6</ele><time>2026-04-09T16:01:16.559Z</time></trkpt><trkpt lat="45.6361717" lon="11.4750478"><ele>71.0</ele><time>2026-04-09T16:01:18.559Z</time></trkpt><trkpt lat="45.6362406" lon="11.4752101"><ele>71.0</ele><time>2026-04-09T16:01:20.559Z</time></trkpt><trkpt lat="45.6362883" lon="11.4753096"><ele>71.0</ele><time>2026-04-09T16:01:21.559Z</time></trkpt><trkpt lat="45.6363025" lon="11.4754133"><ele>71.0</ele><time>2026-04-09T16:01:22.558Z</time></trkpt><trkpt lat="45.6363712" lon="11.4755679"><ele>71.0</ele><time>2026-04-09T16:01:24.559Z</time></trkpt><trkpt lat="45.6364104" lon="11.4756635"><ele>71.0</ele><time>2026-04-09T16:01:25.559Z</time></trkpt><trkpt lat="45.6364681" lon="11.4758166"><ele>71.2</ele><time>2026-04-09T16:01:27.558Z</time></trkpt><trkpt lat="45.6365121" lon="11.4759455"><ele>71.39999999999999</ele><time>2026-04-09T16:01:29.559Z</time></trkpt><trkpt lat="45.6365735" lon="11.4760626"><ele>71.6</ele><time>2026-04-09T16:01:31.558Z</time></trkpt><trkpt lat="45.6366103" lon="11.4761468"><ele>71.8</ele><time>2026-04-09T16:01:32.559Z</time></trkpt><trkpt lat="45.636635" lon="11.4762321"><ele>72.0</ele><time>2026-04-09T16:01:33.559Z</time></trkpt><trkpt lat="45.6366813" lon="11.4763811"><ele>72.0</ele><time>2026-04-09T16:01:35.559Z</time></trkpt><trkpt lat="45.636725" lon="11.4765125"><ele>72.0</ele><time>2026-04-09T16:01:37.558Z</time></trkpt><trkpt lat="45.6367811" lon="11.4766648"><ele>72.0</ele><time>2026-04-09T16:01:39.559Z</time></trkpt><trkpt lat="45.6368116" lon="11.4767442"><ele>72.0</ele><time>2026-04-09T16:01:40.558Z</time></trkpt><trkpt lat="45.6368448" lon="11.4768383"><ele>72.0</ele><time>2026-04-09T16:01:41.558Z</time></trkpt><trkpt lat="45.6368945" lon="11.4769896"><ele>72.0</ele><time>2026-04-09T16:01:43.559Z</time></trkpt><trkpt lat="45.6369297" lon="11.4771295"><ele>72.0</ele><time>2026-04-09T16:01:45.559Z</time></trkpt><trkpt lat="45.6369637" lon="11.4772083"><ele>72.0</ele><time>2026-04-09T16:01:46.559Z</time></trkpt><trkpt lat="45.6369976" lon="11.4773655"><ele>72.0</ele><time>2026-04-09T16:01:48.558Z</time></trkpt><trkpt lat="45.6370554" lon="11.4775141"><ele>72.0</ele><time>2026-04-09T16:01:50.559Z</time></trkpt><trkpt lat="45.6370827" lon="11.4775983"><ele>72.0</ele><time>2026-04-09T16:01:51.559Z</time></trkpt><trkpt lat="45.6371374" lon="11.4777472"><ele>72.0</ele><time>2026-04-09T16:01:53.559Z</time></trkpt><trkpt lat="45.6371714" lon="11.4778989"><ele>72.0</ele><time>2026-04-09T16:01:55.56Z</time></trkpt><trkpt lat="45.6372139" lon="11.4779748"><ele>72.0</ele><time>2026-04-09T16:01:56.558Z</time></trkpt><trkpt lat="45.6372436" lon="11.4780559"><ele>72.0</ele><time>2026-04-09T16:01:57.559Z</time></trkpt><trkpt lat="45.6372794" lon="11.4781354"><ele>72.0</ele><time>2026-04-09T16:01:58.558Z</time></trkpt><trkpt lat="45.6373404" lon="11.4782873"><ele>71.5</ele><time>2026-04-09T16:02:00.559Z</time></trkpt><trkpt lat="45.6373932" lon="11.4783805"><ele>71.0</ele><time>2026-04-09T16:02:01.559Z</time></trkpt><trkpt lat="45.6374395" lon="11.4784958"><ele>70.5</ele><time>2026-04-09T16:02:02.56Z</time></trkpt><trkpt lat="45.6374823" lon="11.4785868"><ele>70.0</ele><time>2026-04-09T16:02:03.558Z</time></trkpt><trkpt lat="45.6375167" lon="11.4786935"><ele>69.5</ele><time>2026-04-09T16:02:05.559Z</time></trkpt><trkpt lat="45.6375566" lon="11.4788356"><ele>69.0</ele><time>2026-04-09T16:02:07.56Z</time></trkpt><trkpt lat="45.6376382" lon="11.4789738"><ele>68.8</ele><time>2026-04-09T16:02:09.559Z</time></trkpt><trkpt lat="45.6377346" lon="11.4790176"><ele>68.60000000000001</ele><time>2026-04-09T16:02:11.559Z</time></trkpt><trkpt lat="45.6377395" lon="11.4791208"><ele>68.4</ele><time>2026-04-09T16:02:13.559Z</time></trkpt><trkpt lat="45.637673" lon="11.4792282"><ele>68.2</ele><time>2026-04-09T16:02:15.559Z</time></trkpt><trkpt lat="45.637751" lon="11.4793913"><ele>68.0</ele><time>2026-04-09T16:02:17.559Z</time></trkpt><trkpt lat="45.6378024" lon="11.4795411"><ele>68.4</ele><time>2026-04-09T16:02:19.559Z</time></trkpt><trkpt lat="45.6378451" lon="11.4796724"><ele>68.8</ele><time>2026-04-09T16:02:21.559Z</time></trkpt><trkpt lat="45.6378964" lon="11.479822"><ele>69.2</ele><time>2026-04-09T16:02:23.559Z</time></trkpt><trkpt lat="45.6379444" lon="11.479939"><ele>69.6</ele><time>2026-04-09T16:02:25.559Z</time></trkpt><trkpt lat="45.6379304" lon="11.4800681"><ele>70.0</ele><time>2026-04-09T16:02:29.558Z</time></trkpt><trkpt lat="45.637911" lon="11.4801594"><ele>70.0</ele><time>2026-04-09T16:02:31.558Z</time></trkpt><trkpt lat="45.637948" lon="11.4802825"><ele>70.0</ele><time>2026-04-09T16:02:33.559Z</time></trkpt><trkpt lat="45.6380298" lon="11.480435"><ele>70.0</ele><time>2026-04-09T16:02:35.56Z</time></trkpt><trkpt lat="45.6380884" lon="11.4805862"><ele>70.0</ele><time>2026-04-09T16:02:37.559Z</time></trkpt><trkpt lat="45.6381469" lon="11.4807338"><ele>69.83333333333333</ele><time>2026-04-09T16:02:39.559Z</time></trkpt><trkpt lat="45.6381931" lon="11.4808193"><ele>69.66666666666666</ele><time>2026-04-09T16:02:40.56Z</time></trkpt><trkpt lat="45.6382253" lon="11.4809015"><ele>69.5</ele><time>2026-04-09T16:02:41.559Z</time></trkpt><trkpt lat="45.6382798" lon="11.4810355"><ele>69.33333333333333</ele><time>2026-04-09T16:02:43.558Z</time></trkpt><trkpt lat="45.6383206" lon="11.481112"><ele>69.16666666666667</ele><time>2026-04-09T16:02:44.558Z</time></trkpt><trkpt lat="45.6384002" lon="11.481254"><ele>69.0</ele><time>2026-04-09T16:02:46.559Z</time></trkpt><trkpt lat="45.6384441" lon="11.4813306"><ele>69.33333333333333</ele><time>2026-04-09T16:02:47.558Z</time></trkpt><trkpt lat="45.6384902" lon="11.4814021"><ele>69.66666666666667</ele><time>2026-04-09T16:02:48.557Z</time></trkpt><trkpt lat="45.6385494" lon="11.4815162"><ele>70.0</ele><time>2026-04-09T16:02:50.558Z</time></trkpt><trkpt lat="45.6386342" lon="11.4816124"><ele>70.33333333333334</ele><time>2026-04-09T16:02:52.559Z</time></trkpt><trkpt lat="45.6386847" lon="11.4816714"><ele>70.66666666666667</ele><time>2026-04-09T16:02:53.558Z</time></trkpt><trkpt lat="45.6387294" lon="11.4817393"><ele>71.0</ele><time>2026-04-09T16:02:54.558Z</time></trkpt><trkpt lat="45.6388263" lon="11.4818458"><ele>71.0</ele><time>2026-04-09T16:02:56.559Z</time></trkpt><trkpt lat="45.6388904" lon="11.481966"><ele>71.0</ele><time>2026-04-09T16:02:58.56Z</time></trkpt><trkpt lat="45.6389407" lon="11.4820237"><ele>71.0</ele><time>2026-04-09T16:02:59.558Z</time></trkpt><trkpt lat="45.6390429" lon="11.4821384"><ele>71.0</ele><time>2026-04-09T16:03:01.559Z</time></trkpt><trkpt lat="45.6390858" lon="11.4822109"><ele>71.0</ele><time>2026-04-09T16:03:02.558Z</time></trkpt><trkpt lat="45.639137" lon="11.4822728"><ele>71.0</ele><time>2026-04-09T16:03:03.559Z</time></trkpt><trkpt lat="45.639182" lon="11.4823404"><ele>70.75</ele><time>2026-04-09T16:03:04.559Z</time></trkpt><trkpt lat="45.6392528" lon="11.4824525"><ele>70.5</ele><time>2026-04-09T16:03:06.559Z</time></trkpt><trkpt lat="45.6393415" lon="11.4825573"><ele>70.25</ele><time>2026-04-09T16:03:08.558Z</time></trkpt><trkpt lat="45.6394251" lon="11.4826686"><ele>70.0</ele><time>2026-04-09T16:03:10.559Z</time></trkpt><trkpt lat="45.6395021" lon="11.4827903"><ele>70.0</ele><time>2026-04-09T16:03:12.558Z</time></trkpt><trkpt lat="45.6395848" lon="11.4828877"><ele>70.0</ele><time>2026-04-09T16:03:14.557Z</time></trkpt><trkpt lat="45.6396503" lon="11.482972"><ele>70.0</ele><time>2026-04-09T16:03:16.559Z</time></trkpt><trkpt lat="45.6397053" lon="11.4830516"><ele>70.0</ele><time>2026-04-09T16:03:18.558Z</time></trkpt><trkpt lat="45.6397811" lon="11.4831512"><ele>70.0</ele><time>2026-04-09T16:03:20.559Z</time></trkpt><trkpt lat="45.6398547" lon="11.4830606"><ele>70.0</ele><time>2026-04-09T16:03:22.558Z</time></trkpt><trkpt lat="45.6398551" lon="11.4829313"><ele>70.0</ele><time>2026-04-09T16:03:25.557Z</time></trkpt><trkpt lat="45.6398809" lon="11.482834"><ele>70.0</ele><time>2026-04-09T16:03:27.559Z</time></trkpt><trkpt lat="45.6399076" lon="11.4827278"><ele>70.0</ele><time>2026-04-09T16:03:30.557Z</time></trkpt><trkpt lat="45.6398811" lon="11.4826211"><ele>70.0</ele><time>2026-04-09T16:03:33.557Z</time></trkpt><trkpt lat="45.6398575" lon="11.4825304"><ele>70.0</ele><time>2026-04-09T16:03:35.558Z</time></trkpt><trkpt lat="45.6398302" lon="11.482418"><ele>70.0</ele><time>2026-04-09T16:03:38.557Z</time></trkpt><trkpt lat="45.6398253" lon="11.4822856"><ele>70.0</ele><time>2026-04-09T16:03:41.559Z</time></trkpt><trkpt lat="45.639821" lon="11.4821569"><ele>70.0</ele><time>2026-04-09T16:03:44.557Z</time></trkpt><trkpt lat="45.6398189" lon="11.4820587"><ele>70.0</ele><time>2026-04-09T16:03:46.558Z</time></trkpt><trkpt lat="45.6398121" lon="11.4819476"><ele>70.0</ele><time>2026-04-09T16:03:48.558Z</time></trkpt><trkpt lat="45.6397981" lon="11.4818553"><ele>70.0</ele><time>2026-04-09T16:03:50.558Z</time></trkpt><trkpt lat="45.6397836" lon="11.4817617"><ele>69.8</ele><time>2026-04-09T16:03:52.557Z</time></trkpt><trkpt lat="45.6397716" lon="11.4816341"><ele>69.6</ele><time>2026-04-09T16:03:54.558Z</time></trkpt><trkpt lat="45.6397576" lon="11.4814888"><ele>69.4</ele><time>2026-04-09T16:03:56.558Z</time></trkpt><trkpt lat="45.639742" lon="11.4813418"><ele>69.2</ele><time>2026-04-09T16:03:58.558Z</time></trkpt><trkpt lat="45.6397279" lon="11.481176"><ele>69.0</ele><time>2026-04-09T16:04:00.558Z</time></trkpt><trkpt lat="45.6397121" lon="11.4810129"><ele>69.0</ele><time>2026-04-09T16:04:02.557Z</time></trkpt><trkpt lat="45.6396822" lon="11.4808686"><ele>69.0</ele><time>2026-04-09T16:04:04.558Z</time></trkpt><trkpt lat="45.6396493" lon="11.4807174"><ele>69.0</ele><time>2026-04-09T16:04:06.558Z</time></trkpt><trkpt lat="45.6396097" lon="11.4805567"><ele>69.0</ele><time>2026-04-09T16:04:08.558Z</time></trkpt><trkpt lat="45.6395723" lon="11.4803966"><ele>69.4</ele><time>2026-04-09T16:04:10.557Z</time></trkpt><trkpt lat="45.6395289" lon="11.4802553"><ele>69.80000000000001</ele><time>2026-04-09T16:04:12.558Z</time></trkpt><trkpt lat="45.6394881" lon="11.4801289"><ele>70.19999999999999</ele><time>2026-04-09T16:04:14.558Z</time></trkpt><trkpt lat="45.6394599" lon="11.479961"><ele>70.6</ele><time>2026-04-09T16:04:16.557Z</time></trkpt><trkpt lat="45.6394451" lon="11.4798712"><ele>71.0</ele><time>2026-04-09T16:04:17.558Z</time></trkpt><trkpt lat="45.6394241" lon="11.4797786"><ele>71.0</ele><time>2026-04-09T16:04:18.557Z</time></trkpt><trkpt lat="45.6393784" lon="11.47962"><ele>71.0</ele><time>2026-04-09T16:04:20.558Z</time></trkpt><trkpt lat="45.6393129" lon="11.4794179"><ele>71.0</ele><time>2026-04-09T16:04:23.558Z</time></trkpt><trkpt lat="45.6392821" lon="11.4792834"><ele>71.0</ele><time>2026-04-09T16:04:25.558Z</time></trkpt><trkpt lat="45.639261" lon="11.4791584"><ele>71.0</ele><time>2026-04-09T16:04:27.558Z</time></trkpt><trkpt lat="45.6392404" lon="11.479011"><ele>71.0</ele><time>2026-04-09T16:04:29.558Z</time></trkpt><trkpt lat="45.6392125" lon="11.4788328"><ele>71.0</ele><time>2026-04-09T16:04:31.557Z</time></trkpt><trkpt lat="45.6391795" lon="11.4786775"><ele>71.0</ele><time>2026-04-09T16:04:33.557Z</time></trkpt><trkpt lat="45.6391481" lon="11.4785396"><ele>71.0</ele><time>2026-04-09T16:04:35.557Z</time></trkpt><trkpt lat="45.6391198" lon="11.4784488"><ele>71.0</ele><time>2026-04-09T16:04:36.558Z</time></trkpt><trkpt lat="45.6390973" lon="11.4783645"><ele>71.0</ele><time>2026-04-09T16:04:37.558Z</time></trkpt><trkpt lat="45.6390787" lon="11.4782779"><ele>71.0</ele><time>2026-04-09T16:04:38.558Z</time></trkpt><trkpt lat="45.6390596" lon="11.478192"><ele>71.0</ele><time>2026-04-09T16:04:39.557Z</time></trkpt><trkpt lat="45.6390353" lon="11.4780452"><ele>71.0</ele><time>2026-04-09T16:04:41.558Z</time></trkpt><trkpt lat="45.6390032" lon="11.477909"><ele>71.0</ele><time>2026-04-09T16:04:43.558Z</time></trkpt><trkpt lat="45.6389858" lon="11.4778118"><ele>71.0</ele><time>2026-04-09T16:04:45.558Z</time></trkpt><trkpt lat="45.6390133" lon="11.4776967"><ele>71.0</ele><time>2026-04-09T16:04:48.558Z</time></trkpt><trkpt lat="45.6390711" lon="11.477615"><ele>71.0</ele><time>2026-04-09T16:04:51.558Z</time></trkpt><trkpt lat="45.6391292" lon="11.4775575"><ele>71.0</ele><time>2026-04-09T16:04:53.558Z</time></trkpt><trkpt lat="45.6391908" lon="11.4774802"><ele>71.0</ele><time>2026-04-09T16:04:55.557Z</time></trkpt><trkpt lat="45.6392572" lon="11.4773666"><ele>71.0</ele><time>2026-04-09T16:04:57.558Z</time></trkpt><trkpt lat="45.6393121" lon="11.4772509"><ele>71.0</ele><time>2026-04-09T16:04:59.558Z</time></trkpt><trkpt lat="45.6393778" lon="11.4771253"><ele>71.0</ele><time>2026-04-09T16:05:01.557Z</time></trkpt><trkpt lat="45.6394383" lon="11.4770054"><ele>71.0</ele><time>2026-04-09T16:05:03.557Z</time></trkpt><trkpt lat="45.6394913" lon="11.4769067"><ele>71.0</ele><time>2026-04-09T16:05:05.557Z</time></trkpt><trkpt lat="45.6395575" lon="11.4768272"><ele>71.0</ele><time>2026-04-09T16:05:08.558Z</time></trkpt><trkpt lat="45.6396418" lon="11.4767782"><ele>71.5</ele><time>2026-04-09T16:05:11.558Z</time></trkpt><trkpt lat="45.6397051" lon="11.4767446"><ele>72.0</ele><time>2026-04-09T16:05:13.558Z</time></trkpt><trkpt lat="45.63986" lon="11.4764329"><ele>72.5</ele><time>2026-04-09T16:05:15.558Z</time></trkpt><trkpt lat="45.6399442" lon="11.4763333"><ele>73.0</ele><time>2026-04-09T16:05:17.558Z</time></trkpt><trkpt lat="45.6400273" lon="11.4762354"><ele>73.0</ele><time>2026-04-09T16:05:19.558Z</time></trkpt><trkpt lat="45.6401127" lon="11.4761195"><ele>73.0</ele><time>2026-04-09T16:05:21.558Z</time></trkpt><trkpt lat="45.640182" lon="11.4760282"><ele>73.0</ele><time>2026-04-09T16:05:23.557Z</time></trkpt><trkpt lat="45.6402508" lon="11.4759374"><ele>73.0</ele><time>2026-04-09T16:05:25.558Z</time></trkpt><trkpt lat="45.6402964" lon="11.4758716"><ele>73.0</ele><time>2026-04-09T16:05:26.558Z</time></trkpt><trkpt lat="45.6403427" lon="11.4757925"><ele>73.0</ele><time>2026-04-09T16:05:27.558Z</time></trkpt><trkpt lat="45.6404236" lon="11.4756694"><ele>73.0</ele><time>2026-04-09T16:05:29.558Z</time></trkpt><trkpt lat="45.6405124" lon="11.4755783"><ele>73.0</ele><time>2026-04-09T16:05:31.558Z</time></trkpt><trkpt lat="45.6405669" lon="11.4755236"><ele>73.0</ele><time>2026-04-09T16:05:32.557Z</time></trkpt><trkpt lat="45.6406284" lon="11.4754575"><ele>73.0</ele><time>2026-04-09T16:05:33.557Z</time></trkpt><trkpt lat="45.6406825" lon="11.4753919"><ele>73.0</ele><time>2026-04-09T16:05:34.557Z</time></trkpt><trkpt lat="45.64078" lon="11.4752801"><ele>73.0</ele><time>2026-04-09T16:05:36.558Z</time></trkpt><trkpt lat="45.6408561" lon="11.4751996"><ele>73.4</ele><time>2026-04-09T16:05:38.557Z</time></trkpt><trkpt lat="45.6409207" lon="11.4751424"><ele>73.8</ele><time>2026-04-09T16:05:40.558Z</time></trkpt><trkpt lat="45.6409883" lon="11.4750756"><ele>74.2</ele><time>2026-04-09T16:05:42.557Z</time></trkpt><trkpt lat="45.6410488" lon="11.4750123"><ele>74.6</ele><time>2026-04-09T16:05:44.559Z</time></trkpt><trkpt lat="45.6411194" lon="11.4749286"><ele>75.0</ele><time>2026-04-09T16:05:46.557Z</time></trkpt><trkpt lat="45.6412091" lon="11.4748008"><ele>75.16666666666667</ele><time>2026-04-09T16:05:48.558Z</time></trkpt><trkpt lat="45.6412577" lon="11.4747279"><ele>75.33333333333333</ele><time>2026-04-09T16:05:49.557Z</time></trkpt><trkpt lat="45.6413111" lon="11.4746464"><ele>75.5</ele><time>2026-04-09T16:05:50.557Z</time></trkpt><trkpt lat="45.6413616" lon="11.4745714"><ele>75.66666666666666</ele><time>2026-04-09T16:05:51.558Z</time></trkpt><trkpt lat="45.6414387" lon="11.4744648"><ele>75.83333333333333</ele><time>2026-04-09T16:05:53.557Z</time></trkpt><trkpt lat="45.6414967" lon="11.4744041"><ele>76.0</ele><time>2026-04-09T16:05:55.557Z</time></trkpt><trkpt lat="45.6415566" lon="11.4743716"><ele>76.0</ele><time>2026-04-09T16:05:57.558Z</time></trkpt><trkpt lat="45.6416444" lon="11.4743409"><ele>76.0</ele><time>2026-04-09T16:06:00.557Z</time></trkpt><trkpt lat="45.6417321" lon="11.474263"><ele>76.0</ele><time>2026-04-09T16:06:03.558Z</time></trkpt><trkpt lat="45.6417908" lon="11.474169"><ele>76.0</ele><time>2026-04-09T16:06:05.558Z</time></trkpt><trkpt lat="45.6418546" lon="11.4740707"><ele>76.0</ele><time>2026-04-09T16:06:07.558Z</time></trkpt><trkpt lat="45.6419732" lon="11.4738276"><ele>76.0</ele><time>2026-04-09T16:06:08.557Z</time></trkpt><trkpt lat="45.6420448" lon="11.4737138"><ele>76.0</ele><time>2026-04-09T16:06:10.558Z</time></trkpt><trkpt lat="45.6420939" lon="11.4736398"><ele>76.0</ele><time>2026-04-09T16:06:12.558Z</time></trkpt><trkpt lat="45.6421524" lon="11.4735714"><ele>76.0</ele><time>2026-04-09T16:06:14.558Z</time></trkpt><trkpt lat="45.6422242" lon="11.4734854"><ele>76.0</ele><time>2026-04-09T16:06:16.557Z</time></trkpt><trkpt lat="45.6422818" lon="11.4734083"><ele>76.0</ele><time>2026-04-09T16:06:18.558Z</time></trkpt><trkpt lat="45.642339" lon="11.4733169"><ele>76.0</ele><time>2026-04-09T16:06:20.558Z</time></trkpt><trkpt lat="45.6424053" lon="11.4731942"><ele>76.0</ele><time>2026-04-09T16:06:22.558Z</time></trkpt><trkpt lat="45.6425065" lon="11.4729194"><ele>76.0</ele><time>2026-04-09T16:06:23.558Z</time></trkpt><trkpt lat="45.6425585" lon="11.4728571"><ele>76.0</ele><time>2026-04-09T16:06:24.558Z</time></trkpt><trkpt lat="45.6426048" lon="11.4727869"><ele>76.0</ele><time>2026-04-09T16:06:25.558Z</time></trkpt><trkpt lat="45.6426704" lon="11.4726769"><ele>76.0</ele><time>2026-04-09T16:06:27.558Z</time></trkpt><trkpt lat="45.6427237" lon="11.4725871"><ele>76.0</ele><time>2026-04-09T16:06:29.558Z</time></trkpt><trkpt lat="45.642785" lon="11.4724848"><ele>76.0</ele><time>2026-04-09T16:06:31.558Z</time></trkpt><trkpt lat="45.6428581" lon="11.4723673"><ele>76.0</ele><time>2026-04-09T16:06:33.557Z</time></trkpt><trkpt lat="45.6429423" lon="11.4722353"><ele>76.0</ele><time>2026-04-09T16:06:35.559Z</time></trkpt><trkpt lat="45.6430113" lon="11.4721313"><ele>76.0</ele><time>2026-04-09T16:06:37.558Z</time></trkpt><trkpt lat="45.6430588" lon="11.4720582"><ele>76.0</ele><time>2026-04-09T16:06:39.558Z</time></trkpt><trkpt lat="45.6431283" lon="11.4719842"><ele>76.0</ele><time>2026-04-09T16:06:41.557Z</time></trkpt><trkpt lat="45.6432082" lon="11.4718816"><ele>76.0</ele><time>2026-04-09T16:06:43.558Z</time></trkpt><trkpt lat="45.6433222" lon="11.4716265"><ele>76.16666666666666</ele><time>2026-04-09T16:06:44.557Z</time></trkpt><trkpt lat="45.6433825" lon="11.4715228"><ele>76.33333333333333</ele><time>2026-04-09T16:06:47.558Z</time></trkpt><trkpt lat="45.6434276" lon="11.4714149"><ele>76.5</ele><time>2026-04-09T16:06:49.558Z</time></trkpt><trkpt lat="45.6434671" lon="11.47132"><ele>76.66666666666667</ele><time>2026-04-09T16:06:51.559Z</time></trkpt><trkpt lat="45.6435204" lon="11.4712673"><ele>76.83333333333334</ele><time>2026-04-09T16:06:53.558Z</time></trkpt><trkpt lat="45.643585" lon="11.4712439"><ele>77.0</ele><time>2026-04-09T16:06:55.558Z</time></trkpt><trkpt lat="45.6436434" lon="11.471151"><ele>77.0</ele><time>2026-04-09T16:06:57.558Z</time></trkpt><trkpt lat="45.6436772" lon="11.4710564"><ele>77.0</ele><time>2026-04-09T16:06:59.557Z</time></trkpt><trkpt lat="45.643729" lon="11.4709872"><ele>77.0</ele><time>2026-04-09T16:07:01.558Z</time></trkpt><trkpt lat="45.6437938" lon="11.4709034"><ele>77.0</ele><time>2026-04-09T16:07:04.558Z</time></trkpt><trkpt lat="45.6438453" lon="11.4708372"><ele>77.0</ele><time>2026-04-09T16:07:06.557Z</time></trkpt><trkpt lat="45.643899" lon="11.4707444"><ele>77.0</ele><time>2026-04-09T16:07:08.557Z</time></trkpt><trkpt lat="45.6439504" lon="11.470643"><ele>77.0</ele><time>2026-04-09T16:07:10.558Z</time></trkpt><trkpt lat="45.6440021" lon="11.4705621"><ele>77.0</ele><time>2026-04-09T16:07:12.558Z</time></trkpt><trkpt lat="45.6440696" lon="11.4704513"><ele>77.0</ele><time>2026-04-09T16:07:14.558Z</time></trkpt><trkpt lat="45.6441412" lon="11.4703069"><ele>77.0</ele><time>2026-04-09T16:07:16.557Z</time></trkpt><trkpt lat="45.6441801" lon="11.470233"><ele>77.0</ele><time>2026-04-09T16:07:17.557Z</time></trkpt><trkpt lat="45.6442251" lon="11.4701651"><ele>77.0</ele><time>2026-04-09T16:07:18.558Z</time></trkpt><trkpt lat="45.6442747" lon="11.4700984"><ele>77.0</ele><time>2026-04-09T16:07:19.559Z</time></trkpt><trkpt lat="45.6443617" lon="11.4699915"><ele>77.0</ele><time>2026-04-09T16:07:21.558Z</time></trkpt><trkpt lat="45.6444195" lon="11.4699339"><ele>77.0</ele><time>2026-04-09T16:07:23.557Z</time></trkpt><trkpt lat="45.6444912" lon="11.46989"><ele>77.0</ele><time>2026-04-09T16:07:26.557Z</time></trkpt><trkpt lat="45.6445636" lon="11.4697924"><ele>77.0</ele><time>2026-04-09T16:07:29.557Z</time></trkpt><trkpt lat="45.6446076" lon="11.469717"><ele>77.0</ele><time>2026-04-09T16:07:30.558Z</time></trkpt><trkpt lat="45.6446515" lon="11.4696386"><ele>77.33333333333334</ele><time>2026-04-09T16:07:31.558Z</time></trkpt><trkpt lat="45.6446992" lon="11.4695575"><ele>77.66666666666667</ele><time>2026-04-09T16:07:32.558Z</time></trkpt><trkpt lat="45.6447509" lon="11.4694764"><ele>78.0</ele><time>2026-04-09T16:07:33.557Z</time></trkpt><trkpt lat="45.6448" lon="11.4694"><ele>78.33333333333333</ele><time>2026-04-09T16:07:34.557Z</time></trkpt><trkpt lat="45.6448437" lon="11.4693337"><ele>78.66666666666666</ele><time>2026-04-09T16:07:35.557Z</time></trkpt><trkpt lat="45.6449138" lon="11.4692364"><ele>79.0</ele><time>2026-04-09T16:07:37.558Z</time></trkpt><trkpt lat="45.6449761" lon="11.4691635"><ele>79.0</ele><time>2026-04-09T16:07:39.557Z</time></trkpt><trkpt lat="45.6450519" lon="11.4690762"><ele>79.0</ele><time>2026-04-09T16:07:41.557Z</time></trkpt><trkpt lat="45.6451082" lon="11.4690197"><ele>79.0</ele><time>2026-04-09T16:07:43.558Z</time></trkpt><trkpt lat="45.6451825" lon="11.4689683"><ele>79.0</ele><time>2026-04-09T16:07:46.557Z</time></trkpt><trkpt lat="45.6452599" lon="11.4689246"><ele>79.0</ele><time>2026-04-09T16:07:49.558Z</time></trkpt><trkpt lat="45.6453308" lon="11.4688633"><ele>79.0</ele><time>2026-04-09T16:07:51.558Z</time></trkpt><trkpt lat="45.6454081" lon="11.4687476"><ele>79.2</ele><time>2026-04-09T16:07:53.557Z</time></trkpt><trkpt lat="45.6454743" lon="11.4686592"><ele>79.4</ele><time>2026-04-09T16:07:55.558Z</time></trkpt><trkpt lat="45.6455529" lon="11.4685827"><ele>79.6</ele><time>2026-04-09T16:07:57.558Z</time></trkpt><trkpt lat="45.6456297" lon="11.46847"><ele>79.8</ele><time>2026-04-09T16:07:59.558Z</time></trkpt><trkpt lat="45.6456883" lon="11.4683478"><ele>80.0</ele><time>2026-04-09T16:08:01.557Z</time></trkpt><trkpt lat="45.6458222" lon="11.4680137"><ele>80.16666666666667</ele><time>2026-04-09T16:08:03.558Z</time></trkpt><trkpt lat="45.6458713" lon="11.4679282"><ele>80.33333333333334</ele><time>2026-04-09T16:08:04.558Z</time></trkpt><trkpt lat="45.6459138" lon="11.4678472"><ele>80.5</ele><time>2026-04-09T16:08:05.559Z</time></trkpt><trkpt lat="45.6459697" lon="11.4677173"><ele>80.66666666666667</ele><time>2026-04-09T16:08:07.558Z</time></trkpt><trkpt lat="45.6460042" lon="11.467636"><ele>80.83333333333333</ele><time>2026-04-09T16:08:08.558Z</time></trkpt><trkpt lat="45.6460461" lon="11.4675484"><ele>81.0</ele><time>2026-04-09T16:08:09.557Z</time></trkpt><trkpt lat="45.6461096" lon="11.4674157"><ele>80.83333333333333</ele><time>2026-04-09T16:08:11.558Z</time></trkpt><trkpt lat="45.6461672" lon="11.4672916"><ele>80.66666666666667</ele><time>2026-04-09T16:08:13.558Z</time></trkpt><trkpt lat="45.6462023" lon="11.4672141"><ele>80.5</ele><time>2026-04-09T16:08:14.557Z</time></trkpt><trkpt lat="45.6462385" lon="11.4671292"><ele>80.33333333333334</ele><time>2026-04-09T16:08:15.558Z</time></trkpt><trkpt lat="45.6462794" lon="11.4670414"><ele>80.16666666666667</ele><time>2026-04-09T16:08:16.558Z</time></trkpt><trkpt lat="45.6463262" lon="11.4669484"><ele>80.0</ele><time>2026-04-09T16:08:17.558Z</time></trkpt><trkpt lat="45.6463758" lon="11.4668574"><ele>80.0</ele><time>2026-04-09T16:08:18.559Z</time></trkpt><trkpt lat="45.646421" lon="11.466772"><ele>80.0</ele><time>2026-04-09T16:08:19.558Z</time></trkpt><trkpt lat="45.6464669" lon="11.4666941"><ele>80.0</ele><time>2026-04-09T16:08:20.557Z</time></trkpt><trkpt lat="45.6465151" lon="11.466616"><ele>80.0</ele><time>2026-04-09T16:08:21.558Z</time></trkpt><trkpt lat="45.6465589" lon="11.4665472"><ele>80.0</ele><time>2026-04-09T16:08:22.558Z</time></trkpt><trkpt lat="45.6466082" lon="11.4664786"><ele>80.0</ele><time>2026-04-09T16:08:23.558Z</time></trkpt><trkpt lat="45.6466621" lon="11.4663938"><ele>80.0</ele><time>2026-04-09T16:08:24.558Z</time></trkpt><trkpt lat="45.6467149" lon="11.4662975"><ele>80.2</ele><time>2026-04-09T16:08:25.558Z</time></trkpt><trkpt lat="45.6467581" lon="11.4661959"><ele>80.4</ele><time>2026-04-09T16:08:26.557Z</time></trkpt><trkpt lat="45.6467951" lon="11.466094"><ele>80.6</ele><time>2026-04-09T16:08:27.558Z</time></trkpt><trkpt lat="45.6468272" lon="11.4659963"><ele>80.8</ele><time>2026-04-09T16:08:28.558Z</time></trkpt><trkpt lat="45.6468607" lon="11.4659018"><ele>81.0</ele><time>2026-04-09T16:08:29.558Z</time></trkpt><trkpt lat="45.6469506" lon="11.4656966"><ele>81.16666666666667</ele><time>2026-04-09T16:08:30.557Z</time></trkpt><trkpt lat="45.6469871" lon="11.4656108"><ele>81.33333333333333</ele><time>2026-04-09T16:08:31.558Z</time></trkpt><trkpt lat="45.6470326" lon="11.4655201"><ele>81.5</ele><time>2026-04-09T16:08:32.557Z</time></trkpt><trkpt lat="45.6470647" lon="11.4654308"><ele>81.66666666666666</ele><time>2026-04-09T16:08:33.558Z</time></trkpt><trkpt lat="45.6471208" lon="11.4652628"><ele>81.83333333333333</ele><time>2026-04-09T16:08:35.557Z</time></trkpt><trkpt lat="45.6471354" lon="11.4651721"><ele>82.0</ele><time>2026-04-09T16:08:36.558Z</time></trkpt><trkpt lat="45.6471949" lon="11.4650513"><ele>82.19999999999999</ele><time>2026-04-09T16:08:38.557Z</time></trkpt><trkpt lat="45.6472723" lon="11.4649232"><ele>82.4</ele><time>2026-04-09T16:08:40.557Z</time></trkpt><trkpt lat="45.6473171" lon="11.464804"><ele>82.6</ele><time>2026-04-09T16:08:42.557Z</time></trkpt><trkpt lat="45.647356" lon="11.4646938"><ele>82.80000000000001</ele><time>2026-04-09T16:08:44.558Z</time></trkpt><trkpt lat="45.6474037" lon="11.4645982"><ele>83.0</ele><time>2026-04-09T16:08:46.558Z</time></trkpt><trkpt lat="45.6474543" lon="11.4644905"><ele>83.0</ele><time>2026-04-09T16:08:48.558Z</time></trkpt><trkpt lat="45.6475214" lon="11.4643784"><ele>83.0</ele><time>2026-04-09T16:08:50.558Z</time></trkpt><trkpt lat="45.6475673" lon="11.4642484"><ele>83.0</ele><time>2026-04-09T16:08:52.559Z</time></trkpt><trkpt lat="45.647635" lon="11.4641297"><ele>83.0</ele><time>2026-04-09T16:08:54.558Z</time></trkpt><trkpt lat="45.6476894" lon="11.4640097"><ele>83.0</ele><time>2026-04-09T16:08:56.558Z</time></trkpt><trkpt lat="45.6477488" lon="11.463904"><ele>83.0</ele><time>2026-04-09T16:08:58.558Z</time></trkpt><trkpt lat="45.6477821" lon="11.4638002"><ele>83.0</ele><time>2026-04-09T16:09:00.557Z</time></trkpt><trkpt lat="45.6478335" lon="11.4636822"><ele>83.0</ele><time>2026-04-09T16:09:02.558Z</time></trkpt><trkpt lat="45.6478892" lon="11.4635531"><ele>83.0</ele><time>2026-04-09T16:09:04.557Z</time></trkpt><trkpt lat="45.6479319" lon="11.4634196"><ele>83.0</ele><time>2026-04-09T16:09:06.557Z</time></trkpt><trkpt lat="45.6479814" lon="11.4633053"><ele>83.2</ele><time>2026-04-09T16:09:08.557Z</time></trkpt><trkpt lat="45.6480369" lon="11.4631966"><ele>83.4</ele><time>2026-04-09T16:09:10.558Z</time></trkpt><trkpt lat="45.6480901" lon="11.4630582"><ele>83.60000000000001</ele><time>2026-04-09T16:09:12.558Z</time></trkpt><trkpt lat="45.6481396" lon="11.462917"><ele>83.80000000000001</ele><time>2026-04-09T16:09:14.558Z</time></trkpt><trkpt lat="45.6481702" lon="11.4628134"><ele>84.0</ele><time>2026-04-09T16:09:16.558Z</time></trkpt><trkpt lat="45.6482024" lon="11.4627238"><ele>84.0</ele><time>2026-04-09T16:09:17.557Z</time></trkpt><trkpt lat="45.6482591" lon="11.462615"><ele>84.0</ele><time>2026-04-09T16:09:19.558Z</time></trkpt><trkpt lat="45.6483107" lon="11.4624854"><ele>84.0</ele><time>2026-04-09T16:09:21.557Z</time></trkpt><trkpt lat="45.6483569" lon="11.4623384"><ele>84.0</ele><time>2026-04-09T16:09:23.558Z</time></trkpt><trkpt lat="45.6484142" lon="11.4622113"><ele>84.0</ele><time>2026-04-09T16:09:25.558Z</time></trkpt><trkpt lat="45.6484379" lon="11.4620914"><ele>84.16666666666667</ele><time>2026-04-09T16:09:27.558Z</time></trkpt><trkpt lat="45.648449" lon="11.4619414"><ele>84.33333333333333</ele><time>2026-04-09T16:09:29.557Z</time></trkpt><trkpt lat="45.6484802" lon="11.4618342"><ele>84.5</ele><time>2026-04-09T16:09:31.558Z</time></trkpt><trkpt lat="45.6484991" lon="11.4617182"><ele>84.66666666666666</ele><time>2026-04-09T16:09:33.558Z</time></trkpt><trkpt lat="45.6485111" lon="11.461595"><ele>84.83333333333333</ele><time>2026-04-09T16:09:35.558Z</time></trkpt><trkpt lat="45.6485304" lon="11.4614802"><ele>85.0</ele><time>2026-04-09T16:09:37.558Z</time></trkpt><trkpt lat="45.6485561" lon="11.4613409"><ele>85.0</ele><time>2026-04-09T16:09:39.558Z</time></trkpt><trkpt lat="45.6485738" lon="11.4612215"><ele>85.0</ele><time>2026-04-09T16:09:41.558Z</time></trkpt><trkpt lat="45.6486158" lon="11.4610809"><ele>85.0</ele><time>2026-04-09T16:09:43.557Z</time></trkpt><trkpt lat="45.6486182" lon="11.4609615"><ele>85.0</ele><time>2026-04-09T16:09:45.557Z</time></trkpt><trkpt lat="45.648634" lon="11.4608265"><ele>85.0</ele><time>2026-04-09T16:09:47.558Z</time></trkpt><trkpt lat="45.6486425" lon="11.4607041"><ele>85.0</ele><time>2026-04-09T16:09:49.558Z</time></trkpt><trkpt lat="45.6486425" lon="11.4606128"><ele>85.0</ele><time>2026-04-09T16:09:51.558Z</time></trkpt><trkpt lat="45.6486386" lon="11.4605079"><ele>85.0</ele><time>2026-04-09T16:09:54.558Z</time></trkpt><trkpt lat="45.6486469" lon="11.4604023"><ele>85.0</ele><time>2026-04-09T16:09:57.558Z</time></trkpt><trkpt lat="45.6486654" lon="11.4602916"><ele>85.0</ele><time>2026-04-09T16:09:59.557Z</time></trkpt><trkpt lat="45.6486884" lon="11.4601841"><ele>85.0</ele><time>2026-04-09T16:10:01.558Z</time></trkpt><trkpt lat="45.6487189" lon="11.460049"><ele>85.0</ele><time>2026-04-09T16:10:03.558Z</time></trkpt><trkpt lat="45.6487403" lon="11.4599288"><ele>85.0</ele><time>2026-04-09T16:10:05.558Z</time></trkpt><trkpt lat="45.6487613" lon="11.4598068"><ele>85.0</ele><time>2026-04-09T16:10:07.557Z</time></trkpt><trkpt lat="45.6487883" lon="11.4596942"><ele>85.0</ele><time>2026-04-09T16:10:09.558Z</time></trkpt><trkpt lat="45.6488191" lon="11.4595748"><ele>85.0</ele><time>2026-04-09T16:10:11.558Z</time></trkpt><trkpt lat="45.6488609" lon="11.4594715"><ele>85.0</ele><time>2026-04-09T16:10:13.558Z</time></trkpt><trkpt lat="45.6489013" lon="11.4593703"><ele>85.33333333333333</ele><time>2026-04-09T16:10:15.558Z</time></trkpt><trkpt lat="45.6489348" lon="11.4592465"><ele>85.66666666666666</ele><time>2026-04-09T16:10:17.557Z</time></trkpt><trkpt lat="45.648962" lon="11.4591313"><ele>86.0</ele><time>2026-04-09T16:10:19.557Z</time></trkpt><trkpt lat="45.6490018" lon="11.4590268"><ele>86.33333333333333</ele><time>2026-04-09T16:10:21.558Z</time></trkpt><trkpt lat="45.6490479" lon="11.4589323"><ele>86.66666666666667</ele><time>2026-04-09T16:10:23.558Z</time></trkpt><trkpt lat="45.6490971" lon="11.4588262"><ele>87.0</ele><time>2026-04-09T16:10:25.558Z</time></trkpt><trkpt lat="45.649142" lon="11.4587292"><ele>87.19999999999999</ele><time>2026-04-09T16:10:27.558Z</time></trkpt><trkpt lat="45.6491914" lon="11.4586241"><ele>87.4</ele><time>2026-04-09T16:10:29.558Z</time></trkpt><trkpt lat="45.6492349" lon="11.4585148"><ele>87.6</ele><time>2026-04-09T16:10:31.558Z</time></trkpt><trkpt lat="45.649271" lon="11.4583988"><ele>87.80000000000001</ele><time>2026-04-09T16:10:33.557Z</time></trkpt><trkpt lat="45.649271" lon="11.4582757"><ele>88.0</ele><time>2026-04-09T16:10:34.558Z</time></trkpt><trkpt lat="45.6492641" lon="11.4581164"><ele>88.0</ele><time>2026-04-09T16:10:36.558Z</time></trkpt><trkpt lat="45.6492631" lon="11.4579711"><ele>88.0</ele><time>2026-04-09T16:10:38.557Z</time></trkpt><trkpt lat="45.6493259" lon="11.4577494"><ele>88.0</ele><time>2026-04-09T16:10:40.557Z</time></trkpt><trkpt lat="45.6493612" lon="11.4576483"><ele>88.0</ele><time>2026-04-09T16:10:41.558Z</time></trkpt><trkpt lat="45.6494107" lon="11.4575456"><ele>88.0</ele><time>2026-04-09T16:10:42.557Z</time></trkpt><trkpt lat="45.6494708" lon="11.4575069"><ele>87.60000000000001</ele><time>2026-04-09T16:10:43.557Z</time></trkpt><trkpt lat="45.6496029" lon="11.4574754"><ele>87.2</ele><time>2026-04-09T16:10:44.558Z</time></trkpt><trkpt lat="45.6496899" lon="11.4574548"><ele>86.8</ele><time>2026-04-09T16:10:45.558Z</time></trkpt><trkpt lat="45.6497638" lon="11.4573948"><ele>86.4</ele><time>2026-04-09T16:10:47.558Z</time></trkpt><trkpt lat="45.649811" lon="11.4573094"><ele>86.0</ele><time>2026-04-09T16:10:50.557Z</time></trkpt><trkpt lat="45.6498659" lon="11.4572243"><ele>86.0</ele><time>2026-04-09T16:10:52.558Z</time></trkpt><trkpt lat="45.6499191" lon="11.4571336"><ele>86.0</ele><time>2026-04-09T16:10:54.558Z</time></trkpt><trkpt lat="45.64997" lon="11.4570371"><ele>86.0</ele><time>2026-04-09T16:10:56.558Z</time></trkpt><trkpt lat="45.6500163" lon="11.4569747"><ele>86.0</ele><time>2026-04-09T16:10:57.558Z</time></trkpt><trkpt lat="45.6500521" lon="11.4568925"><ele>86.0</ele><time>2026-04-09T16:10:59.558Z</time></trkpt><trkpt lat="45.6501154" lon="11.456789"><ele>86.0</ele><time>2026-04-09T16:11:01.557Z</time></trkpt><trkpt lat="45.6501783" lon="11.4566978"><ele>86.0</ele><time>2026-04-09T16:11:03.558Z</time></trkpt><trkpt lat="45.6502557" lon="11.4566"><ele>86.0</ele><time>2026-04-09T16:11:05.558Z</time></trkpt><trkpt lat="45.6503143" lon="11.4564984"><ele>86.0</ele><time>2026-04-09T16:11:07.558Z</time></trkpt><trkpt lat="45.6503747" lon="11.4563963"><ele>86.0</ele><time>2026-04-09T16:11:09.558Z</time></trkpt><trkpt lat="45.6504219" lon="11.4562707"><ele>86.0</ele><time>2026-04-09T16:11:11.559Z</time></trkpt><trkpt lat="45.6504743" lon="11.4561746"><ele>86.4</ele><time>2026-04-09T16:11:13.558Z</time></trkpt><trkpt lat="45.6505558" lon="11.4560639"><ele>86.8</ele><time>2026-04-09T16:11:15.558Z</time></trkpt><trkpt lat="45.6506289" lon="11.4559471"><ele>87.2</ele><time>2026-04-09T16:11:17.558Z</time></trkpt><trkpt lat="45.6506985" lon="11.4558668"><ele>87.60000000000001</ele><time>2026-04-09T16:11:19.558Z</time></trkpt><trkpt lat="45.6507456" lon="11.4557704"><ele>88.0</ele><time>2026-04-09T16:11:21.558Z</time></trkpt><trkpt lat="45.6508161" lon="11.4556584"><ele>88.0</ele><time>2026-04-09T16:11:23.557Z</time></trkpt><trkpt lat="45.6508794" lon="11.4555464"><ele>88.0</ele><time>2026-04-09T16:11:25.558Z</time></trkpt><trkpt lat="45.6509529" lon="11.4554257"><ele>88.0</ele><time>2026-04-09T16:11:27.557Z</time></trkpt><trkpt lat="45.6509983" lon="11.4553619"><ele>88.0</ele><time>2026-04-09T16:11:28.557Z</time></trkpt><trkpt lat="45.6510427" lon="11.4552607"><ele>88.0</ele><time>2026-04-09T16:11:30.558Z</time></trkpt><trkpt lat="45.6511058" lon="11.4551615"><ele>88.16666666666666</ele><time>2026-04-09T16:11:32.557Z</time></trkpt><trkpt lat="45.6511424" lon="11.455065"><ele>88.33333333333333</ele><time>2026-04-09T16:11:35.558Z</time></trkpt><trkpt lat="45.651188" lon="11.4549801"><ele>88.5</ele><time>2026-04-09T16:11:38.557Z</time></trkpt><trkpt lat="45.651235" lon="11.4549034"><ele>88.66666666666667</ele><time>2026-04-09T16:11:41.558Z</time></trkpt><trkpt lat="45.651282" lon="11.4548109"><ele>88.83333333333334</ele><time>2026-04-09T16:11:42.558Z</time></trkpt><trkpt lat="45.6513289" lon="11.4547212"><ele>89.0</ele><time>2026-04-09T16:11:44.557Z</time></trkpt><trkpt lat="45.6513821" lon="11.4546104"><ele>89.28571428571428</ele><time>2026-04-09T16:11:46.558Z</time></trkpt><trkpt lat="45.6514305" lon="11.454542"><ele>89.57142857142857</ele><time>2026-04-09T16:11:47.557Z</time></trkpt><trkpt lat="45.6514728" lon="11.454469"><ele>89.85714285714286</ele><time>2026-04-09T16:11:48.558Z</time></trkpt><trkpt lat="45.6515128" lon="11.4543956"><ele>90.14285714285714</ele><time>2026-04-09T16:11:49.558Z</time></trkpt><trkpt lat="45.6515598" lon="11.4543223"><ele>90.42857142857143</ele><time>2026-04-09T16:11:50.557Z</time></trkpt><trkpt lat="45.651612" lon="11.4542461"><ele>90.71428571428571</ele><time>2026-04-09T16:11:51.558Z</time></trkpt><trkpt lat="45.6516828" lon="11.4541403"><ele>91.0</ele><time>2026-04-09T16:11:53.558Z</time></trkpt><trkpt lat="45.6517586" lon="11.4540261"><ele>91.0</ele><time>2026-04-09T16:11:55.557Z</time></trkpt><trkpt lat="45.6518591" lon="11.4539407"><ele>91.0</ele><time>2026-04-09T16:11:57.558Z</time></trkpt><trkpt lat="45.6519427" lon="11.4538546"><ele>91.0</ele><time>2026-04-09T16:11:59.558Z</time></trkpt><trkpt lat="45.6519943" lon="11.4537968"><ele>91.0</ele><time>2026-04-09T16:12:00.558Z</time></trkpt><trkpt lat="45.6520968" lon="11.4537238"><ele>91.0</ele><time>2026-04-09T16:12:02.557Z</time></trkpt><trkpt lat="45.6521989" lon="11.453655"><ele>91.4</ele><time>2026-04-09T16:12:04.557Z</time></trkpt><trkpt lat="45.6522823" lon="11.4536035"><ele>91.8</ele><time>2026-04-09T16:12:06.558Z</time></trkpt><trkpt lat="45.6523768" lon="11.4535512"><ele>92.2</ele><time>2026-04-09T16:12:08.557Z</time></trkpt><trkpt lat="45.6524644" lon="11.4535326"><ele>92.60000000000001</ele><time>2026-04-09T16:12:10.557Z</time></trkpt><trkpt lat="45.6525301" lon="11.4535086"><ele>93.0</ele><time>2026-04-09T16:12:11.558Z</time></trkpt><trkpt lat="45.6526383" lon="11.4534545"><ele>93.0</ele><time>2026-04-09T16:12:13.558Z</time></trkpt><trkpt lat="45.6527634" lon="11.4534147"><ele>93.0</ele><time>2026-04-09T16:12:15.558Z</time></trkpt><trkpt lat="45.6528276" lon="11.4533918"><ele>93.0</ele><time>2026-04-09T16:12:16.558Z</time></trkpt><trkpt lat="45.6529369" lon="11.4533813"><ele>93.0</ele><time>2026-04-09T16:12:18.557Z</time></trkpt><trkpt lat="45.6530575" lon="11.4533397"><ele>93.0</ele><time>2026-04-09T16:12:20.558Z</time></trkpt><trkpt lat="45.6531605" lon="11.4532891"><ele>92.80000000000001</ele><time>2026-04-09T16:12:22.558Z</time></trkpt><trkpt lat="45.6532702" lon="11.4532529"><ele>92.6</ele><time>2026-04-09T16:12:24.558Z</time></trkpt><trkpt lat="45.6533328" lon="11.45324"><ele>92.4</ele><time>2026-04-09T16:12:25.558Z</time></trkpt><trkpt lat="45.65344" lon="11.4532121"><ele>92.19999999999999</ele><time>2026-04-09T16:12:27.558Z</time></trkpt><trkpt lat="45.6535604" lon="11.4531698"><ele>92.0</ele><time>2026-04-09T16:12:29.558Z</time></trkpt><trkpt lat="45.6536739" lon="11.4531488"><ele>92.0</ele><time>2026-04-09T16:12:31.557Z</time></trkpt><trkpt lat="45.6537752" lon="11.4531155"><ele>92.0</ele><time>2026-04-09T16:12:33.557Z</time></trkpt><trkpt lat="45.6538929" lon="11.4530777"><ele>92.0</ele><time>2026-04-09T16:12:35.558Z</time></trkpt><trkpt lat="45.6540104" lon="11.4530478"><ele>92.0</ele><time>2026-04-09T16:12:37.558Z</time></trkpt><trkpt lat="45.6541187" lon="11.4530176"><ele>92.0</ele><time>2026-04-09T16:12:39.558Z</time></trkpt><trkpt lat="45.6542236" lon="11.4530225"><ele>92.0</ele><time>2026-04-09T16:12:41.558Z</time></trkpt><trkpt lat="45.654333" lon="11.4530058"><ele>92.0</ele><time>2026-04-09T16:12:43.558Z</time></trkpt><trkpt lat="45.6544283" lon="11.4529867"><ele>92.0</ele><time>2026-04-09T16:12:45.558Z</time></trkpt><trkpt lat="45.6545383" lon="11.4528902"><ele>92.0</ele><time>2026-04-09T16:12:47.557Z</time></trkpt><trkpt lat="45.6545845" lon="11.452815"><ele>92.0</ele><time>2026-04-09T16:12:48.557Z</time></trkpt><trkpt lat="45.6546192" lon="11.4527202"><ele>92.0</ele><time>2026-04-09T16:12:49.557Z</time></trkpt><trkpt lat="45.6545415" lon="11.4526146"><ele>92.0</ele><time>2026-04-09T16:12:50.557Z</time></trkpt><trkpt lat="45.6545258" lon="11.4524458"><ele>92.0</ele><time>2026-04-09T16:12:52.557Z</time></trkpt><trkpt lat="45.6545441" lon="11.4523519"><ele>92.0</ele><time>2026-04-09T16:12:53.558Z</time></trkpt><trkpt lat="45.6545446" lon="11.4522475"><ele>92.0</ele><time>2026-04-09T16:12:54.558Z</time></trkpt><trkpt lat="45.6545342" lon="11.4521349"><ele>92.0</ele><time>2026-04-09T16:12:55.558Z</time></trkpt><trkpt lat="45.6545136" lon="11.4520307"><ele>92.0</ele><time>2026-04-09T16:12:56.558Z</time></trkpt><trkpt lat="45.6544976" lon="11.4519287"><ele>92.0</ele><time>2026-04-09T16:12:57.558Z</time></trkpt><trkpt lat="45.6544734" lon="11.4518265"><ele>92.0</ele><time>2026-04-09T16:12:58.558Z</time></trkpt><trkpt lat="45.6544436" lon="11.451737"><ele>92.0</ele><time>2026-04-09T16:12:59.557Z</time></trkpt><trkpt lat="45.6544169" lon="11.451643"><ele>92.0</ele><time>2026-04-09T16:13:00.558Z</time></trkpt><trkpt lat="45.6543939" lon="11.4515578"><ele>92.0</ele><time>2026-04-09T16:13:01.558Z</time></trkpt><trkpt lat="45.6543738" lon="11.4514633"><ele>91.8</ele><time>2026-04-09T16:13:02.557Z</time></trkpt><trkpt lat="45.6543451" lon="11.4513676"><ele>91.6</ele><time>2026-04-09T16:13:03.558Z</time></trkpt><trkpt lat="45.6543302" lon="11.4512763"><ele>91.39999999999999</ele><time>2026-04-09T16:13:04.557Z</time></trkpt><trkpt lat="45.6542996" lon="11.4511176"><ele>91.19999999999999</ele><time>2026-04-09T16:13:06.558Z</time></trkpt><trkpt lat="45.6542819" lon="11.4509607"><ele>91.0</ele><time>2026-04-09T16:13:08.558Z</time></trkpt><trkpt lat="45.6542488" lon="11.4508191"><ele>91.0</ele><time>2026-04-09T16:13:10.557Z</time></trkpt><trkpt lat="45.654215" lon="11.4506447"><ele>91.0</ele><time>2026-04-09T16:13:12.557Z</time></trkpt><trkpt lat="45.6541965" lon="11.4504854"><ele>91.0</ele><time>2026-04-09T16:13:14.558Z</time></trkpt><trkpt lat="45.6541553" lon="11.4503227"><ele>91.0</ele><time>2026-04-09T16:13:16.558Z</time></trkpt><trkpt lat="45.6541276" lon="11.4502401"><ele>91.0</ele><time>2026-04-09T16:13:17.558Z</time></trkpt><trkpt lat="45.6541169" lon="11.4501466"><ele>91.6</ele><time>2026-04-09T16:13:18.558Z</time></trkpt><trkpt lat="45.6540912" lon="11.449986"><ele>92.19999999999999</ele><time>2026-04-09T16:13:20.558Z</time></trkpt><trkpt lat="45.6540804" lon="11.4498946"><ele>92.80000000000001</ele><time>2026-04-09T16:13:21.558Z</time></trkpt><trkpt lat="45.6540383" lon="11.4497316"><ele>93.4</ele><time>2026-04-09T16:13:23.558Z</time></trkpt><trkpt lat="45.654035" lon="11.4496405"><ele>94.0</ele><time>2026-04-09T16:13:24.558Z</time></trkpt><trkpt lat="45.6540091" lon="11.44947"><ele>94.2</ele><time>2026-04-09T16:13:26.558Z</time></trkpt><trkpt lat="45.6540015" lon="11.4493744"><ele>94.4</ele><time>2026-04-09T16:13:27.557Z</time></trkpt><trkpt lat="45.6540127" lon="11.4492027"><ele>94.6</ele><time>2026-04-09T16:13:29.558Z</time></trkpt><trkpt lat="45.6540092" lon="11.4491098"><ele>94.8</ele><time>2026-04-09T16:13:30.558Z</time></trkpt><trkpt lat="45.6540037" lon="11.4489404"><ele>95.0</ele><time>2026-04-09T16:13:32.558Z</time></trkpt><trkpt lat="45.6539793" lon="11.4487342"><ele>95.0</ele><time>2026-04-09T16:13:34.558Z</time></trkpt><trkpt lat="45.6539439" lon="11.448574"><ele>95.0</ele><time>2026-04-09T16:13:36.558Z</time></trkpt><trkpt lat="45.6539411" lon="11.4483936"><ele>95.0</ele><time>2026-04-09T16:13:38.558Z</time></trkpt><trkpt lat="45.6539208" lon="11.4482045"><ele>95.0</ele><time>2026-04-09T16:13:40.558Z</time></trkpt><trkpt lat="45.6538693" lon="11.4480512"><ele>94.4</ele><time>2026-04-09T16:13:42.558Z</time></trkpt><trkpt lat="45.6538451" lon="11.4479457"><ele>93.8</ele><time>2026-04-09T16:13:43.558Z</time></trkpt><trkpt lat="45.6538324" lon="11.4477756"><ele>93.19999999999999</ele><time>2026-04-09T16:13:45.557Z</time></trkpt><trkpt lat="45.6538034" lon="11.4475913"><ele>92.6</ele><time>2026-04-09T16:13:47.558Z</time></trkpt><trkpt lat="45.6537911" lon="11.4475015"><ele>92.0</ele><time>2026-04-09T16:13:48.558Z</time></trkpt><trkpt lat="45.653781" lon="11.4473239"><ele>92.0</ele><time>2026-04-09T16:13:50.558Z</time></trkpt><trkpt lat="45.6537692" lon="11.4471786"><ele>92.0</ele><time>2026-04-09T16:13:52.558Z</time></trkpt><trkpt lat="45.6537699" lon="11.4470673"><ele>92.0</ele><time>2026-04-09T16:13:53.558Z</time></trkpt><trkpt lat="45.6537669" lon="11.4468987"><ele>92.0</ele><time>2026-04-09T16:13:55.558Z</time></trkpt><trkpt lat="45.6537742" lon="11.4467994"><ele>92.0</ele><time>2026-04-09T16:13:56.557Z</time></trkpt><trkpt lat="45.6537873" lon="11.4467075"><ele>92.0</ele><time>2026-04-09T16:13:57.558Z</time></trkpt><trkpt lat="45.6537979" lon="11.4465434"><ele>92.16666666666667</ele><time>2026-04-09T16:13:59.558Z</time></trkpt><trkpt lat="45.6538096" lon="11.4463679"><ele>92.33333333333334</ele><time>2026-04-09T16:14:01.558Z</time></trkpt><trkpt lat="45.6538403" lon="11.4462741"><ele>92.5</ele><time>2026-04-09T16:14:02.558Z</time></trkpt><trkpt lat="45.6538641" lon="11.4461214"><ele>92.66666666666667</ele><time>2026-04-09T16:14:04.557Z</time></trkpt><trkpt lat="45.6538681" lon="11.4460311"><ele>92.83333333333333</ele><time>2026-04-09T16:14:05.558Z</time></trkpt><trkpt lat="45.6538785" lon="11.4459395"><ele>93.0</ele><time>2026-04-09T16:14:06.558Z</time></trkpt><trkpt lat="45.653897" lon="11.4457743"><ele>93.2</ele><time>2026-04-09T16:14:08.557Z</time></trkpt><trkpt lat="45.6539196" lon="11.4456127"><ele>93.4</ele><time>2026-04-09T16:14:10.558Z</time></trkpt><trkpt lat="45.6539222" lon="11.4454557"><ele>93.60000000000001</ele><time>2026-04-09T16:14:12.557Z</time></trkpt><trkpt lat="45.65393" lon="11.4453638"><ele>93.80000000000001</ele><time>2026-04-09T16:14:13.557Z</time></trkpt><trkpt lat="45.6539409" lon="11.4452749"><ele>94.0</ele><time>2026-04-09T16:14:14.558Z</time></trkpt><trkpt lat="45.6539291" lon="11.4451188"><ele>94.0</ele><time>2026-04-09T16:14:16.558Z</time></trkpt><trkpt lat="45.653924" lon="11.444957"><ele>94.0</ele><time>2026-04-09T16:14:18.557Z</time></trkpt><trkpt lat="45.6539073" lon="11.4447951"><ele>94.0</ele><time>2026-04-09T16:14:20.557Z</time></trkpt><trkpt lat="45.6538969" lon="11.4446373"><ele>94.0</ele><time>2026-04-09T16:14:22.557Z</time></trkpt><trkpt lat="45.653882" lon="11.4444737"><ele>94.0</ele><time>2026-04-09T16:14:24.557Z</time></trkpt><trkpt lat="45.6538805" lon="11.4443834"><ele>94.0</ele><time>2026-04-09T16:14:25.558Z</time></trkpt><trkpt lat="45.6538798" lon="11.4442221"><ele>94.0</ele><time>2026-04-09T16:14:27.557Z</time></trkpt><trkpt lat="45.6538714" lon="11.4440627"><ele>94.0</ele><time>2026-04-09T16:14:29.557Z</time></trkpt><trkpt lat="45.6538676" lon="11.4438791"><ele>94.0</ele><time>2026-04-09T16:14:31.558Z</time></trkpt><trkpt lat="45.6538559" lon="11.4437109"><ele>93.80000000000001</ele><time>2026-04-09T16:14:33.559Z</time></trkpt><trkpt lat="45.6538482" lon="11.4435576"><ele>93.60000000000001</ele><time>2026-04-09T16:14:35.559Z</time></trkpt><trkpt lat="45.653846" lon="11.4433757"><ele>93.4</ele><time>2026-04-09T16:14:37.558Z</time></trkpt><trkpt lat="45.6538375" lon="11.4432854"><ele>93.2</ele><time>2026-04-09T16:14:38.558Z</time></trkpt><trkpt lat="45.6538372" lon="11.4431085"><ele>93.0</ele><time>2026-04-09T16:14:40.557Z</time></trkpt><trkpt lat="45.6538554" lon="11.442942"><ele>93.0</ele><time>2026-04-09T16:14:42.558Z</time></trkpt><trkpt lat="45.6538668" lon="11.4428442"><ele>93.0</ele><time>2026-04-09T16:14:43.558Z</time></trkpt><trkpt lat="45.6539112" lon="11.4426734"><ele>93.0</ele><time>2026-04-09T16:14:45.557Z</time></trkpt><trkpt lat="45.6539503" lon="11.4425097"><ele>93.0</ele><time>2026-04-09T16:14:47.558Z</time></trkpt><trkpt lat="45.6540126" lon="11.4423574"><ele>93.0</ele><time>2026-04-09T16:14:49.558Z</time></trkpt><trkpt lat="45.6540394" lon="11.442272"><ele>93.16666666666667</ele><time>2026-04-09T16:14:50.558Z</time></trkpt><trkpt lat="45.6540779" lon="11.4421195"><ele>93.33333333333333</ele><time>2026-04-09T16:14:52.558Z</time></trkpt><trkpt lat="45.6541244" lon="11.4420513"><ele>93.5</ele><time>2026-04-09T16:14:53.558Z</time></trkpt><trkpt lat="45.6541491" lon="11.4419658"><ele>93.66666666666666</ele><time>2026-04-09T16:14:54.558Z</time></trkpt><trkpt lat="45.654207" lon="11.4418088"><ele>93.83333333333333</ele><time>2026-04-09T16:14:56.558Z</time></trkpt><trkpt lat="45.6542426" lon="11.4417252"><ele>94.0</ele><time>2026-04-09T16:14:57.557Z</time></trkpt><trkpt lat="45.6542835" lon="11.4416467"><ele>94.0</ele><time>2026-04-09T16:14:58.558Z</time></trkpt><trkpt lat="45.6543181" lon="11.4415474"><ele>94.0</ele><time>2026-04-09T16:14:59.558Z</time></trkpt><trkpt lat="45.6543499" lon="11.4414647"><ele>94.0</ele><time>2026-04-09T16:15:00.558Z</time></trkpt><trkpt lat="45.6544006" lon="11.4413038"><ele>94.0</ele><time>2026-04-09T16:15:02.558Z</time></trkpt><trkpt lat="45.6544254" lon="11.4411378"><ele>94.0</ele><time>2026-04-09T16:15:04.557Z</time></trkpt><trkpt lat="45.6544526" lon="11.4409531"><ele>94.33333333333333</ele><time>2026-04-09T16:15:06.557Z</time></trkpt><trkpt lat="45.6544693" lon="11.4408613"><ele>94.66666666666666</ele><time>2026-04-09T16:15:07.558Z</time></trkpt><trkpt lat="45.6544865" lon="11.4407603"><ele>95.0</ele><time>2026-04-09T16:15:08.557Z</time></trkpt><trkpt lat="45.6545051" lon="11.4406658"><ele>95.33333333333333</ele><time>2026-04-09T16:15:09.557Z</time></trkpt><trkpt lat="45.6545445" lon="11.4404879"><ele>95.66666666666667</ele><time>2026-04-09T16:15:11.558Z</time></trkpt><trkpt lat="45.6545556" lon="11.440382"><ele>96.0</ele><time>2026-04-09T16:15:12.557Z</time></trkpt><trkpt lat="45.6545725" lon="11.4402886"><ele>96.0</ele><time>2026-04-09T16:15:13.557Z</time></trkpt><trkpt lat="45.654583" lon="11.440178"><ele>96.0</ele><time>2026-04-09T16:15:14.558Z</time></trkpt><trkpt lat="45.65461" lon="11.4400857"><ele>96.0</ele><time>2026-04-09T16:15:15.558Z</time></trkpt><trkpt lat="45.6546526" lon="11.4400115"><ele>96.0</ele><time>2026-04-09T16:15:16.558Z</time></trkpt><trkpt lat="45.6546904" lon="11.4399297"><ele>96.0</ele><time>2026-04-09T16:15:17.558Z</time></trkpt><trkpt lat="45.6547314" lon="11.4397799"><ele>96.0</ele><time>2026-04-09T16:15:19.558Z</time></trkpt><trkpt lat="45.6547612" lon="11.4396971"><ele>95.99999999999999</ele><time>2026-04-09T16:15:20.558Z</time></trkpt><trkpt lat="45.6547827" lon="11.4396091"><ele>96.0</ele><time>2026-04-09T16:15:21.557Z</time></trkpt><trkpt lat="45.6548135" lon="11.4395265"><ele>96.0</ele><time>2026-04-09T16:15:22.558Z</time></trkpt><trkpt lat="45.6548463" lon="11.4394406"><ele>96.0</ele><time>2026-04-09T16:15:23.557Z</time></trkpt><trkpt lat="45.6548767" lon="11.4393557"><ele>96.0</ele><time>2026-04-09T16:15:24.558Z</time></trkpt><trkpt lat="45.6549063" lon="11.4392649"><ele>95.99999999999999</ele><time>2026-04-09T16:15:25.558Z</time></trkpt><trkpt lat="45.6549388" lon="11.4391791"><ele>96.0</ele><time>2026-04-09T16:15:26.558Z</time></trkpt><trkpt lat="45.6549938" lon="11.4390169"><ele>96.0</ele><time>2026-04-09T16:15:28.558Z</time></trkpt><trkpt lat="45.6550337" lon="11.4388504"><ele>96.0</ele><time>2026-04-09T16:15:30.557Z</time></trkpt><trkpt lat="45.655056" lon="11.4387658"><ele>96.0</ele><time>2026-04-09T16:15:31.557Z</time></trkpt><trkpt lat="45.6550849" lon="11.4386074"><ele>96.0</ele><time>2026-04-09T16:15:33.557Z</time></trkpt><trkpt lat="45.655112" lon="11.4384305"><ele>96.0</ele><time>2026-04-09T16:15:35.559Z</time></trkpt><trkpt lat="45.6551195" lon="11.4382851"><ele>96.0</ele><time>2026-04-09T16:15:37.558Z</time></trkpt><trkpt lat="45.6551395" lon="11.4381167"><ele>96.0</ele><time>2026-04-09T16:15:39.559Z</time></trkpt><trkpt lat="45.6551523" lon="11.4379424"><ele>96.0</ele><time>2026-04-09T16:15:41.558Z</time></trkpt><trkpt lat="45.6551732" lon="11.4377881"><ele>96.0</ele><time>2026-04-09T16:15:43.558Z</time></trkpt><trkpt lat="45.6551839" lon="11.4376373"><ele>96.0</ele><time>2026-04-09T16:15:45.558Z</time></trkpt><trkpt lat="45.6551785" lon="11.4374726"><ele>96.0</ele><time>2026-04-09T16:15:47.557Z</time></trkpt><trkpt lat="45.6551764" lon="11.4373187"><ele>96.0</ele><time>2026-04-09T16:15:49.559Z</time></trkpt><trkpt lat="45.6551748" lon="11.4372183"><ele>96.0</ele><time>2026-04-09T16:15:50.558Z</time></trkpt><trkpt lat="45.6551848" lon="11.4371204"><ele>96.0</ele><time>2026-04-09T16:15:51.557Z</time></trkpt><trkpt lat="45.6551841" lon="11.4370289"><ele>96.0</ele><time>2026-04-09T16:15:52.558Z</time></trkpt><trkpt lat="45.655205" lon="11.4369409"><ele>96.0</ele><time>2026-04-09T16:15:53.558Z</time></trkpt><trkpt lat="45.6552339" lon="11.4368603"><ele>96.0</ele><time>2026-04-09T16:15:54.558Z</time></trkpt><trkpt lat="45.6552745" lon="11.4366993"><ele>96.0</ele><time>2026-04-09T16:15:56.558Z</time></trkpt><trkpt lat="45.6553137" lon="11.4366161"><ele>96.0</ele><time>2026-04-09T16:15:57.557Z</time></trkpt><trkpt lat="45.6553773" lon="11.4364829"><ele>96.0</ele><time>2026-04-09T16:15:59.558Z</time></trkpt><trkpt lat="45.6554433" lon="11.4363455"><ele>96.8</ele><time>2026-04-09T16:16:01.557Z</time></trkpt><trkpt lat="45.6555029" lon="11.4362138"><ele>97.6</ele><time>2026-04-09T16:16:03.558Z</time></trkpt><trkpt lat="45.6555614" lon="11.4360759"><ele>98.4</ele><time>2026-04-09T16:16:05.558Z</time></trkpt><trkpt lat="45.6555972" lon="11.4360007"><ele>99.2</ele><time>2026-04-09T16:16:06.557Z</time></trkpt><trkpt lat="45.6556398" lon="11.4359277"><ele>100.0</ele><time>2026-04-09T16:16:07.557Z</time></trkpt><trkpt lat="45.6557118" lon="11.4357839"><ele>100.0</ele><time>2026-04-09T16:16:09.558Z</time></trkpt><trkpt lat="45.6557824" lon="11.4356377"><ele>100.0</ele><time>2026-04-09T16:16:11.558Z</time></trkpt><trkpt lat="45.6558239" lon="11.4355656"><ele>100.0</ele><time>2026-04-09T16:16:12.558Z</time></trkpt><trkpt lat="45.6559134" lon="11.4354332"><ele>100.0</ele><time>2026-04-09T16:16:14.558Z</time></trkpt><trkpt lat="45.6559581" lon="11.4353433"><ele>100.0</ele><time>2026-04-09T16:16:15.558Z</time></trkpt><trkpt lat="45.6560261" lon="11.4352068"><ele>100.0</ele><time>2026-04-09T16:16:17.558Z</time></trkpt><trkpt lat="45.6560704" lon="11.4350664"><ele>100.0</ele><time>2026-04-09T16:16:19.558Z</time></trkpt><trkpt lat="45.6561315" lon="11.4349013"><ele>100.0</ele><time>2026-04-09T16:16:21.557Z</time></trkpt><trkpt lat="45.6561711" lon="11.4347507"><ele>100.0</ele><time>2026-04-09T16:16:23.557Z</time></trkpt><trkpt lat="45.6561974" lon="11.4345784"><ele>100.00000000000001</ele><time>2026-04-09T16:16:25.557Z</time></trkpt><trkpt lat="45.6562282" lon="11.4344161"><ele>100.0</ele><time>2026-04-09T16:16:27.557Z</time></trkpt><trkpt lat="45.6562823" lon="11.4342696"><ele>100.0</ele><time>2026-04-09T16:16:29.558Z</time></trkpt><trkpt lat="45.6562885" lon="11.4341778"><ele>100.0</ele><time>2026-04-09T16:16:30.558Z</time></trkpt><trkpt lat="45.6562863" lon="11.4340676"><ele>100.00000000000001</ele><time>2026-04-09T16:16:31.557Z</time></trkpt><trkpt lat="45.6563332" lon="11.433994"><ele>100.0</ele><time>2026-04-09T16:16:32.558Z</time></trkpt><trkpt lat="45.6563895" lon="11.4338409"><ele>100.0</ele><time>2026-04-09T16:16:34.558Z</time></trkpt><trkpt lat="45.6564343" lon="11.4336915"><ele>100.0</ele><time>2026-04-09T16:16:36.558Z</time></trkpt><trkpt lat="45.6564925" lon="11.4335342"><ele>100.0</ele><time>2026-04-09T16:16:38.558Z</time></trkpt><trkpt lat="45.6565484" lon="11.4333776"><ele>100.0</ele><time>2026-04-09T16:16:40.558Z</time></trkpt><trkpt lat="45.6565937" lon="11.4332274"><ele>100.0</ele><time>2026-04-09T16:16:42.557Z</time></trkpt><trkpt lat="45.6566299" lon="11.4330644"><ele>100.0</ele><time>2026-04-09T16:16:44.558Z</time></trkpt><trkpt lat="45.6566578" lon="11.4329141"><ele>100.0</ele><time>2026-04-09T16:16:46.558Z</time></trkpt><trkpt lat="45.6566805" lon="11.4328267"><ele>100.0</ele><time>2026-04-09T16:16:47.558Z</time></trkpt><trkpt lat="45.6566952" lon="11.4326554"><ele>100.0</ele><time>2026-04-09T16:16:49.558Z</time></trkpt><trkpt lat="45.6567187" lon="11.432491"><ele>100.2</ele><time>2026-04-09T16:16:51.558Z</time></trkpt><trkpt lat="45.6567652" lon="11.4323287"><ele>100.4</ele><time>2026-04-09T16:16:53.557Z</time></trkpt><trkpt lat="45.6568087" lon="11.4321783"><ele>100.6</ele><time>2026-04-09T16:16:55.558Z</time></trkpt><trkpt lat="45.6568286" lon="11.4320926"><ele>100.8</ele><time>2026-04-09T16:16:56.558Z</time></trkpt><trkpt lat="45.6568762" lon="11.4319518"><ele>101.0</ele><time>2026-04-09T16:16:58.558Z</time></trkpt><trkpt lat="45.6569182" lon="11.4318713"><ele>101.0</ele><time>2026-04-09T16:16:59.558Z</time></trkpt><trkpt lat="45.6569551" lon="11.4317495"><ele>101.0</ele><time>2026-04-09T16:17:01.557Z</time></trkpt><trkpt lat="45.6569404" lon="11.4316506"><ele>101.0</ele><time>2026-04-09T16:17:02.558Z</time></trkpt><trkpt lat="45.6569293" lon="11.431497"><ele>101.0</ele><time>2026-04-09T16:17:04.558Z</time></trkpt><trkpt lat="45.6569078" lon="11.4313296"><ele>101.0</ele><time>2026-04-09T16:17:06.559Z</time></trkpt><trkpt lat="45.6568868" lon="11.431153"><ele>101.0</ele><time>2026-04-09T16:17:08.558Z</time></trkpt><trkpt lat="45.6568562" lon="11.4310053"><ele>101.0</ele><time>2026-04-09T16:17:10.559Z</time></trkpt><trkpt lat="45.6568226" lon="11.430861"><ele>101.0</ele><time>2026-04-09T16:17:12.559Z</time></trkpt><trkpt lat="45.6567956" lon="11.4306918"><ele>101.0</ele><time>2026-04-09T16:17:14.558Z</time></trkpt><trkpt lat="45.6567897" lon="11.4306013"><ele>101.0</ele><time>2026-04-09T16:17:15.559Z</time></trkpt><trkpt lat="45.656776" lon="11.4305111"><ele>101.5</ele><time>2026-04-09T16:17:16.558Z</time></trkpt><trkpt lat="45.6567446" lon="11.43035"><ele>102.0</ele><time>2026-04-09T16:17:18.559Z</time></trkpt><trkpt lat="45.656717" lon="11.4301927"><ele>102.5</ele><time>2026-04-09T16:17:20.559Z</time></trkpt><trkpt lat="45.6566952" lon="11.430034"><ele>103.0</ele><time>2026-04-09T16:17:22.558Z</time></trkpt><trkpt lat="45.6566705" lon="11.4298712"><ele>103.00000000000001</ele><time>2026-04-09T16:17:24.559Z</time></trkpt><trkpt lat="45.6566466" lon="11.4296966"><ele>103.0</ele><time>2026-04-09T16:17:26.558Z</time></trkpt><trkpt lat="45.6566298" lon="11.4296049"><ele>103.0</ele><time>2026-04-09T16:17:27.558Z</time></trkpt><trkpt lat="45.6566101" lon="11.4295072"><ele>103.0</ele><time>2026-04-09T16:17:28.558Z</time></trkpt><trkpt lat="45.6565994" lon="11.4294178"><ele>103.00000000000001</ele><time>2026-04-09T16:17:29.557Z</time></trkpt><trkpt lat="45.656591" lon="11.4293148"><ele>103.0</ele><time>2026-04-09T16:17:30.558Z</time></trkpt><trkpt lat="45.656549" lon="11.429234"><ele>102.71428571428571</ele><time>2026-04-09T16:17:31.557Z</time></trkpt><trkpt lat="45.6565257" lon="11.4291383"><ele>102.42857142857143</ele><time>2026-04-09T16:17:32.558Z</time></trkpt><trkpt lat="45.65649" lon="11.4290496"><ele>102.14285714285714</ele><time>2026-04-09T16:17:33.557Z</time></trkpt><trkpt lat="45.6564728" lon="11.4289623"><ele>101.85714285714286</ele><time>2026-04-09T16:17:34.558Z</time></trkpt><trkpt lat="45.6564461" lon="11.42888"><ele>101.57142857142857</ele><time>2026-04-09T16:17:35.558Z</time></trkpt><trkpt lat="45.6564335" lon="11.4287904"><ele>101.28571428571428</ele><time>2026-04-09T16:17:36.559Z</time></trkpt><trkpt lat="45.6564157" lon="11.4286833"><ele>101.0</ele><time>2026-04-09T16:17:37.559Z</time></trkpt><trkpt lat="45.6563664" lon="11.4285218"><ele>101.0</ele><time>2026-04-09T16:17:39.558Z</time></trkpt><trkpt lat="45.656343" lon="11.4283579"><ele>101.0</ele><time>2026-04-09T16:17:41.557Z</time></trkpt><trkpt lat="45.6563195" lon="11.4282603"><ele>101.0</ele><time>2026-04-09T16:17:42.557Z</time></trkpt><trkpt lat="45.656286" lon="11.428098"><ele>101.0</ele><time>2026-04-09T16:17:44.558Z</time></trkpt><trkpt lat="45.6562622" lon="11.4279292"><ele>101.0</ele><time>2026-04-09T16:17:46.558Z</time></trkpt><trkpt lat="45.6562522" lon="11.4278384"><ele>101.25</ele><time>2026-04-09T16:17:47.557Z</time></trkpt><trkpt lat="45.6562606" lon="11.4276664"><ele>101.5</ele><time>2026-04-09T16:17:49.557Z</time></trkpt><trkpt lat="45.6562812" lon="11.4274987"><ele>101.75</ele><time>2026-04-09T16:17:51.559Z</time></trkpt><trkpt lat="45.6563076" lon="11.4273302"><ele>102.0</ele><time>2026-04-09T16:17:53.558Z</time></trkpt><trkpt lat="45.6563405" lon="11.4271631"><ele>102.39999999999999</ele><time>2026-04-09T16:17:55.557Z</time></trkpt><trkpt lat="45.6563669" lon="11.4269722"><ele>102.8</ele><time>2026-04-09T16:17:57.559Z</time></trkpt><trkpt lat="45.6563878" lon="11.4268053"><ele>103.2</ele><time>2026-04-09T16:17:59.557Z</time></trkpt><trkpt lat="45.6563889" lon="11.426712"><ele>103.6</ele><time>2026-04-09T16:18:00.558Z</time></trkpt><trkpt lat="45.6563744" lon="11.4265346"><ele>104.0</ele><time>2026-04-09T16:18:02.558Z</time></trkpt><trkpt lat="45.6563247" lon="11.4264113"><ele>103.99999999999999</ele><time>2026-04-09T16:18:04.557Z</time></trkpt><trkpt lat="45.656301" lon="11.4263209"><ele>104.0</ele><time>2026-04-09T16:18:05.558Z</time></trkpt><trkpt lat="45.6562682" lon="11.4262428"><ele>104.0</ele><time>2026-04-09T16:18:06.558Z</time></trkpt><trkpt lat="45.6562304" lon="11.4261617"><ele>104.0</ele><time>2026-04-09T16:18:07.558Z</time></trkpt><trkpt lat="45.6561853" lon="11.4260792"><ele>103.99999999999999</ele><time>2026-04-09T16:18:08.557Z</time></trkpt><trkpt lat="45.6561119" lon="11.4259289"><ele>104.0</ele><time>2026-04-09T16:18:10.557Z</time></trkpt><trkpt lat="45.6560791" lon="11.4258439"><ele>104.0</ele><time>2026-04-09T16:18:11.559Z</time></trkpt><trkpt lat="45.6560177" lon="11.4257032"><ele>104.0</ele><time>2026-04-09T16:18:13.558Z</time></trkpt><trkpt lat="45.6559583" lon="11.4255719"><ele>104.0</ele><time>2026-04-09T16:18:15.558Z</time></trkpt><trkpt lat="45.6558761" lon="11.4254397"><ele>104.0</ele><time>2026-04-09T16:18:17.559Z</time></trkpt><trkpt lat="45.6557985" lon="11.4252938"><ele>104.0</ele><time>2026-04-09T16:18:19.558Z</time></trkpt><trkpt lat="45.6558013" lon="11.4251423"><ele>104.0</ele><time>2026-04-09T16:18:21.558Z</time></trkpt><trkpt lat="45.655776" lon="11.4250527"><ele>104.0</ele><time>2026-04-09T16:18:22.557Z</time></trkpt><trkpt lat="45.6556993" lon="11.4248634"><ele>104.0</ele><time>2026-04-09T16:18:24.557Z</time></trkpt><trkpt lat="45.6556435" lon="11.4247362"><ele>104.0</ele><time>2026-04-09T16:18:26.558Z</time></trkpt><trkpt lat="45.6555905" lon="11.4246665"><ele>104.16666666666666</ele><time>2026-04-09T16:18:27.557Z</time></trkpt><trkpt lat="45.6555717" lon="11.4245405"><ele>104.33333333333333</ele><time>2026-04-09T16:18:29.558Z</time></trkpt><trkpt lat="45.6555488" lon="11.4243949"><ele>104.5</ele><time>2026-04-09T16:18:31.558Z</time></trkpt><trkpt lat="45.6555489" lon="11.4243029"><ele>104.66666666666666</ele><time>2026-04-09T16:18:32.558Z</time></trkpt><trkpt lat="45.6555465" lon="11.4242053"><ele>104.83333333333333</ele><time>2026-04-09T16:18:33.558Z</time></trkpt><trkpt lat="45.6555456" lon="11.4241084"><ele>105.0</ele><time>2026-04-09T16:18:34.557Z</time></trkpt><trkpt lat="45.6555396" lon="11.4239318"><ele>104.8</ele><time>2026-04-09T16:18:36.557Z</time></trkpt><trkpt lat="45.6555434" lon="11.4237823"><ele>104.6</ele><time>2026-04-09T16:18:38.557Z</time></trkpt><trkpt lat="45.6555358" lon="11.4236518"><ele>104.4</ele><time>2026-04-09T16:18:40.558Z</time></trkpt><trkpt lat="45.6554937" lon="11.4235395"><ele>104.2</ele><time>2026-04-09T16:18:42.557Z</time></trkpt><trkpt lat="45.6554234" lon="11.4234001"><ele>104.0</ele><time>2026-04-09T16:18:44.558Z</time></trkpt><trkpt lat="45.6553887" lon="11.4233205"><ele>104.0</ele><time>2026-04-09T16:18:45.558Z</time></trkpt><trkpt lat="45.6553605" lon="11.4232387"><ele>104.0</ele><time>2026-04-09T16:18:46.558Z</time></trkpt><trkpt lat="45.6553278" lon="11.4230748"><ele>104.0</ele><time>2026-04-09T16:18:48.557Z</time></trkpt><trkpt lat="45.6552908" lon="11.4229106"><ele>104.0</ele><time>2026-04-09T16:18:50.558Z</time></trkpt><trkpt lat="45.6552773" lon="11.4227392"><ele>104.0</ele><time>2026-04-09T16:18:52.557Z</time></trkpt><trkpt lat="45.6552679" lon="11.4226487"><ele>104.16666666666666</ele><time>2026-04-09T16:18:53.558Z</time></trkpt><trkpt lat="45.6552488" lon="11.4225508"><ele>104.33333333333333</ele><time>2026-04-09T16:18:54.557Z</time></trkpt><trkpt lat="45.6552224" lon="11.4224436"><ele>104.5</ele><time>2026-04-09T16:18:55.558Z</time></trkpt><trkpt lat="45.6551972" lon="11.4223443"><ele>104.66666666666666</ele><time>2026-04-09T16:18:56.557Z</time></trkpt><trkpt lat="45.6551748" lon="11.4222497"><ele>104.83333333333333</ele><time>2026-04-09T16:18:57.558Z</time></trkpt><trkpt lat="45.6551356" lon="11.4220973"><ele>105.0</ele><time>2026-04-09T16:18:58.557Z</time></trkpt><trkpt lat="45.6550942" lon="11.4219665"><ele>104.4</ele><time>2026-04-09T16:18:59.558Z</time></trkpt><trkpt lat="45.6550448" lon="11.4218703"><ele>103.8</ele><time>2026-04-09T16:19:00.557Z</time></trkpt><trkpt lat="45.6549958" lon="11.4217674"><ele>103.19999999999999</ele><time>2026-04-09T16:19:01.557Z</time></trkpt><trkpt lat="45.6549509" lon="11.4216594"><ele>102.6</ele><time>2026-04-09T16:19:02.557Z</time></trkpt><trkpt lat="45.6548915" lon="11.4214902"><ele>102.0</ele><time>2026-04-09T16:19:04.558Z</time></trkpt><trkpt lat="45.6548612" lon="11.4213991"><ele>101.5</ele><time>2026-04-09T16:19:05.558Z</time></trkpt><trkpt lat="45.6548432" lon="11.4213089"><ele>101.0</ele><time>2026-04-09T16:19:06.557Z</time></trkpt><trkpt lat="45.6547872" lon="11.4211496"><ele>100.5</ele><time>2026-04-09T16:19:08.558Z</time></trkpt><trkpt lat="45.6547534" lon="11.4209674"><ele>100.0</ele><time>2026-04-09T16:19:10.558Z</time></trkpt><trkpt lat="45.6547245" lon="11.4207749"><ele>100.00000000000001</ele><time>2026-04-09T16:19:12.558Z</time></trkpt><trkpt lat="45.6546691" lon="11.4207043"><ele>100.0</ele><time>2026-04-09T16:19:13.557Z</time></trkpt><trkpt lat="45.6546282" lon="11.4206105"><ele>100.0</ele><time>2026-04-09T16:19:14.558Z</time></trkpt><trkpt lat="45.6546138" lon="11.4205208"><ele>100.0</ele><time>2026-04-09T16:19:15.557Z</time></trkpt><trkpt lat="45.6545754" lon="11.420442"><ele>100.00000000000001</ele><time>2026-04-09T16:19:16.558Z</time></trkpt><trkpt lat="45.6545043" lon="11.4202885"><ele>100.0</ele><time>2026-04-09T16:19:18.557Z</time></trkpt><trkpt lat="45.6544632" lon="11.4202118"><ele>100.50000000000001</ele><time>2026-04-09T16:19:19.558Z</time></trkpt><trkpt lat="45.6544209" lon="11.4200784"><ele>101.0</ele><time>2026-04-09T16:19:21.557Z</time></trkpt><trkpt lat="45.6544472" lon="11.4199855"><ele>101.5</ele><time>2026-04-09T16:19:22.558Z</time></trkpt><trkpt lat="45.6544295" lon="11.4198986"><ele>102.0</ele><time>2026-04-09T16:19:23.558Z</time></trkpt><trkpt lat="45.6543923" lon="11.4197509"><ele>102.50000000000001</ele><time>2026-04-09T16:19:25.559Z</time></trkpt><trkpt lat="45.6543648" lon="11.4196571"><ele>103.0</ele><time>2026-04-09T16:19:26.558Z</time></trkpt><trkpt lat="45.6543469" lon="11.4194597"><ele>103.0</ele><time>2026-04-09T16:19:28.559Z</time></trkpt><trkpt lat="45.6543406" lon="11.4193684"><ele>103.0</ele><time>2026-04-09T16:19:29.558Z</time></trkpt><trkpt lat="45.6543003" lon="11.4192205"><ele>103.0</ele><time>2026-04-09T16:19:31.558Z</time></trkpt><trkpt lat="45.6542752" lon="11.4190765"><ele>103.0</ele><time>2026-04-09T16:19:33.558Z</time></trkpt><trkpt lat="45.654236" lon="11.4189391"><ele>103.0</ele><time>2026-04-09T16:19:35.557Z</time></trkpt><trkpt lat="45.6541932" lon="11.418799"><ele>103.16666666666667</ele><time>2026-04-09T16:19:37.558Z</time></trkpt><trkpt lat="45.654146" lon="11.4186811"><ele>103.33333333333334</ele><time>2026-04-09T16:19:39.558Z</time></trkpt><trkpt lat="45.6541174" lon="11.418564"><ele>103.5</ele><time>2026-04-09T16:19:41.557Z</time></trkpt><trkpt lat="45.6541093" lon="11.4184617"><ele>103.66666666666666</ele><time>2026-04-09T16:19:43.558Z</time></trkpt><trkpt lat="45.6541396" lon="11.4183602"><ele>103.83333333333333</ele><time>2026-04-09T16:19:50.557Z</time></trkpt><trkpt lat="45.6541081" lon="11.4182791"><ele>104.0</ele><time>2026-04-09T16:19:54.558Z</time></trkpt><trkpt lat="45.6540949" lon="11.4181647"><ele>104.0</ele><time>2026-04-09T16:19:58.557Z</time></trkpt><trkpt lat="45.6540112" lon="11.4181008"><ele>104.0</ele><time>2026-04-09T16:20:01.558Z</time></trkpt><trkpt lat="45.6538878" lon="11.4181855"><ele>104.0</ele><time>2026-04-09T16:20:03.559Z</time></trkpt><trkpt lat="45.6537944" lon="11.4182607"><ele>104.0</ele><time>2026-04-09T16:20:05.557Z</time></trkpt><trkpt lat="45.6537104" lon="11.4183202"><ele>104.0</ele><time>2026-04-09T16:20:07.558Z</time></trkpt><trkpt lat="45.6536012" lon="11.418413"><ele>103.66666666666666</ele><time>2026-04-09T16:20:09.558Z</time></trkpt><trkpt lat="45.6535436" lon="11.4184639"><ele>103.33333333333333</ele><time>2026-04-09T16:20:10.557Z</time></trkpt><trkpt lat="45.6534584" lon="11.4184733"><ele>103.0</ele><time>2026-04-09T16:20:11.558Z</time></trkpt><trkpt lat="45.6533925" lon="11.4184889"><ele>102.66666666666666</ele><time>2026-04-09T16:20:12.558Z</time></trkpt><trkpt lat="45.6533315" lon="11.4185182"><ele>102.33333333333333</ele><time>2026-04-09T16:20:13.558Z</time></trkpt><trkpt lat="45.6532675" lon="11.4185326"><ele>102.0</ele><time>2026-04-09T16:20:14.558Z</time></trkpt><trkpt lat="45.6531642" lon="11.4186252"><ele>102.0</ele><time>2026-04-09T16:20:16.558Z</time></trkpt><trkpt lat="45.6530637" lon="11.4187099"><ele>102.0</ele><time>2026-04-09T16:20:18.557Z</time></trkpt><trkpt lat="45.6529586" lon="11.4187952"><ele>102.0</ele><time>2026-04-09T16:20:20.558Z</time></trkpt><trkpt lat="45.6528507" lon="11.4187709"><ele>102.0</ele><time>2026-04-09T16:20:22.557Z</time></trkpt><trkpt lat="45.6527821" lon="11.4188632"><ele>102.0</ele><time>2026-04-09T16:20:24.558Z</time></trkpt><trkpt lat="45.6527123" lon="11.4189164"><ele>101.8</ele><time>2026-04-09T16:20:25.558Z</time></trkpt><trkpt lat="45.652618" lon="11.4190088"><ele>101.6</ele><time>2026-04-09T16:20:27.558Z</time></trkpt><trkpt lat="45.6524868" lon="11.4190481"><ele>101.39999999999999</ele><time>2026-04-09T16:20:29.558Z</time></trkpt><trkpt lat="45.6524202" lon="11.4190585"><ele>101.19999999999999</ele><time>2026-04-09T16:20:30.558Z</time></trkpt><trkpt lat="45.652334" lon="11.4191218"><ele>101.0</ele><time>2026-04-09T16:20:32.558Z</time></trkpt><trkpt lat="45.6522413" lon="11.4192041"><ele>101.0</ele><time>2026-04-09T16:20:34.558Z</time></trkpt><trkpt lat="45.652188" lon="11.4192524"><ele>101.0</ele><time>2026-04-09T16:20:35.558Z</time></trkpt><trkpt lat="45.6520943" lon="11.4193367"><ele>101.0</ele><time>2026-04-09T16:20:37.557Z</time></trkpt><trkpt lat="45.6520036" lon="11.41942"><ele>101.0</ele><time>2026-04-09T16:20:39.557Z</time></trkpt><trkpt lat="45.6519136" lon="11.4195361"><ele>101.0</ele><time>2026-04-09T16:20:41.557Z</time></trkpt><trkpt lat="45.6518374" lon="11.4196406"><ele>101.19999999999999</ele><time>2026-04-09T16:20:43.558Z</time></trkpt><trkpt lat="45.6517728" lon="11.4197128"><ele>101.39999999999999</ele><time>2026-04-09T16:20:45.557Z</time></trkpt><trkpt lat="45.6516953" lon="11.4198165"><ele>101.6</ele><time>2026-04-09T16:20:47.558Z</time></trkpt><trkpt lat="45.6515885" lon="11.4199196"><ele>101.8</ele><time>2026-04-09T16:20:49.558Z</time></trkpt><trkpt lat="45.6515233" lon="11.4199715"><ele>102.0</ele><time>2026-04-09T16:20:50.558Z</time></trkpt><trkpt lat="45.6514557" lon="11.4200292"><ele>102.0</ele><time>2026-04-09T16:20:51.558Z</time></trkpt><trkpt lat="45.6513849" lon="11.4200946"><ele>102.0</ele><time>2026-04-09T16:20:52.558Z</time></trkpt><trkpt lat="45.6513203" lon="11.4201582"><ele>102.0</ele><time>2026-04-09T16:20:53.558Z</time></trkpt><trkpt lat="45.6512622" lon="11.4202141"><ele>102.0</ele><time>2026-04-09T16:20:54.558Z</time></trkpt><trkpt lat="45.6511791" lon="11.4203379"><ele>102.0</ele><time>2026-04-09T16:20:55.558Z</time></trkpt><trkpt lat="45.6510846" lon="11.4204058"><ele>101.39999999999999</ele><time>2026-04-09T16:20:56.558Z</time></trkpt><trkpt lat="45.6510228" lon="11.42046"><ele>100.8</ele><time>2026-04-09T16:20:57.558Z</time></trkpt><trkpt lat="45.6509523" lon="11.4205199"><ele>100.2</ele><time>2026-04-09T16:20:58.558Z</time></trkpt><trkpt lat="45.6508278" lon="11.4206026"><ele>99.6</ele><time>2026-04-09T16:21:00.558Z</time></trkpt><trkpt lat="45.6507707" lon="11.420647"><ele>99.0</ele><time>2026-04-09T16:21:01.558Z</time></trkpt><trkpt lat="45.6506437" lon="11.4207709"><ele>99.0</ele><time>2026-04-09T16:21:03.558Z</time></trkpt><trkpt lat="45.6505864" lon="11.4208165"><ele>99.0</ele><time>2026-04-09T16:21:04.558Z</time></trkpt><trkpt lat="45.6505282" lon="11.4208637"><ele>99.0</ele><time>2026-04-09T16:21:05.558Z</time></trkpt><trkpt lat="45.650456" lon="11.4209726"><ele>99.0</ele><time>2026-04-09T16:21:07.558Z</time></trkpt><trkpt lat="45.6503879" lon="11.4210729"><ele>99.0</ele><time>2026-04-09T16:21:09.558Z</time></trkpt><trkpt lat="45.6503144" lon="11.4211479"><ele>99.0</ele><time>2026-04-09T16:21:10.558Z</time></trkpt><trkpt lat="45.6502169" lon="11.4212556"><ele>98.66666666666667</ele><time>2026-04-09T16:21:12.558Z</time></trkpt><trkpt lat="45.650146" lon="11.4212993"><ele>98.33333333333334</ele><time>2026-04-09T16:21:13.557Z</time></trkpt><trkpt lat="45.6500815" lon="11.4213508"><ele>98.0</ele><time>2026-04-09T16:21:14.558Z</time></trkpt><trkpt lat="45.6499931" lon="11.4214686"><ele>97.66666666666667</ele><time>2026-04-09T16:21:16.558Z</time></trkpt><trkpt lat="45.6499128" lon="11.4215084"><ele>97.33333333333334</ele><time>2026-04-09T16:21:17.557Z</time></trkpt><trkpt lat="45.6498401" lon="11.4215822"><ele>97.0</ele><time>2026-04-09T16:21:18.558Z</time></trkpt><trkpt lat="45.6497417" lon="11.4216432"><ele>97.0</ele><time>2026-04-09T16:21:20.559Z</time></trkpt><trkpt lat="45.6495355" lon="11.4216622"><ele>97.0</ele><time>2026-04-09T16:21:23.9Z</time></trkpt><trkpt lat="45.6495583" lon="11.4218036"><ele>97.0</ele><time>2026-04-09T16:21:24.9Z</time></trkpt><trkpt lat="45.6495765" lon="11.4219039"><ele>97.0</ele><time>2026-04-09T16:21:25.9Z</time></trkpt><trkpt lat="45.6495845" lon="11.4220135"><ele>97.33333333333334</ele><time>2026-04-09T16:21:26.9Z</time></trkpt><trkpt lat="45.6494817" lon="11.4221539"><ele>97.66666666666666</ele><time>2026-04-09T16:21:28.9Z</time></trkpt><trkpt lat="45.6494075" lon="11.4222038"><ele>98.0</ele><time>2026-04-09T16:21:29.899Z</time></trkpt><trkpt lat="45.6490774" lon="11.4223315"><ele>97.99999999999999</ele><time>2026-04-09T16:21:30.9Z</time></trkpt><trkpt lat="45.6490569" lon="11.4224676"><ele>98.0</ele><time>2026-04-09T16:21:33.558Z</time></trkpt><trkpt lat="45.648982" lon="11.4225287"><ele>98.0</ele><time>2026-04-09T16:21:34.558Z</time></trkpt><trkpt lat="45.6488969" lon="11.4225386"><ele>98.0</ele><time>2026-04-09T16:21:36.558Z</time></trkpt><trkpt lat="45.6488105" lon="11.422538"><ele>97.99999999999999</ele><time>2026-04-09T16:21:38.558Z</time></trkpt><trkpt lat="45.6487337" lon="11.4225455"><ele>98.0</ele><time>2026-04-09T16:21:39.557Z</time></trkpt><trkpt lat="45.6486221" lon="11.4225423"><ele>97.33333333333333</ele><time>2026-04-09T16:21:41.558Z</time></trkpt><trkpt lat="45.6485578" lon="11.422574"><ele>96.66666666666666</ele><time>2026-04-09T16:21:42.558Z</time></trkpt><trkpt lat="45.6484976" lon="11.422619"><ele>96.0</ele><time>2026-04-09T16:21:43.558Z</time></trkpt><trkpt lat="45.6484209" lon="11.4226676"><ele>95.33333333333333</ele><time>2026-04-09T16:21:44.558Z</time></trkpt><trkpt lat="45.6483417" lon="11.4227086"><ele>94.66666666666666</ele><time>2026-04-09T16:21:45.558Z</time></trkpt><trkpt lat="45.6482475" lon="11.4228007"><ele>94.0</ele><time>2026-04-09T16:21:47.557Z</time></trkpt><trkpt lat="45.6481896" lon="11.4228406"><ele>94.0</ele><time>2026-04-09T16:21:48.558Z</time></trkpt><trkpt lat="45.6480896" lon="11.4229434"><ele>94.0</ele><time>2026-04-09T16:21:50.557Z</time></trkpt><trkpt lat="45.6479824" lon="11.4230226"><ele>94.0</ele><time>2026-04-09T16:21:52.558Z</time></trkpt><trkpt lat="45.6479011" lon="11.4231649"><ele>94.0</ele><time>2026-04-09T16:21:54.557Z</time></trkpt><trkpt lat="45.6478327" lon="11.4232372"><ele>94.0</ele><time>2026-04-09T16:21:55.558Z</time></trkpt><trkpt lat="45.6478058" lon="11.4234201"><ele>94.0</ele><time>2026-04-09T16:21:57.558Z</time></trkpt><trkpt lat="45.6477816" lon="11.4235141"><ele>94.0</ele><time>2026-04-09T16:21:58.558Z</time></trkpt><trkpt lat="45.6477341" lon="11.4235987"><ele>94.0</ele><time>2026-04-09T16:21:59.558Z</time></trkpt><trkpt lat="45.6476996" lon="11.4236821"><ele>94.0</ele><time>2026-04-09T16:22:00.558Z</time></trkpt><trkpt lat="45.6476266" lon="11.4237406"><ele>94.0</ele><time>2026-04-09T16:22:01.558Z</time></trkpt><trkpt lat="45.6475397" lon="11.4238484"><ele>94.2</ele><time>2026-04-09T16:22:03.558Z</time></trkpt><trkpt lat="45.6474533" lon="11.4239273"><ele>94.4</ele><time>2026-04-09T16:22:05.558Z</time></trkpt><trkpt lat="45.6473772" lon="11.4239926"><ele>94.6</ele><time>2026-04-09T16:22:07.558Z</time></trkpt><trkpt lat="45.6474122" lon="11.4240782"><ele>94.8</ele><time>2026-04-09T16:22:09.559Z</time></trkpt><trkpt lat="45.6473019" lon="11.4242067"><ele>95.0</ele><time>2026-04-09T16:22:11.558Z</time></trkpt><trkpt lat="45.6472093" lon="11.4243027"><ele>95.0</ele><time>2026-04-09T16:22:13.558Z</time></trkpt><trkpt lat="45.647056" lon="11.4243468"><ele>95.0</ele><time>2026-04-09T16:22:14.558Z</time></trkpt><trkpt lat="45.6469723" lon="11.4243803"><ele>95.0</ele><time>2026-04-09T16:22:15.558Z</time></trkpt><trkpt lat="45.6468783" lon="11.4244626"><ele>95.0</ele><time>2026-04-09T16:22:17.558Z</time></trkpt><trkpt lat="45.6467778" lon="11.4245844"><ele>94.83333333333334</ele><time>2026-04-09T16:22:19.558Z</time></trkpt><trkpt lat="45.6467231" lon="11.4246371"><ele>94.66666666666667</ele><time>2026-04-09T16:22:20.557Z</time></trkpt><trkpt lat="45.6466663" lon="11.4246877"><ele>94.5</ele><time>2026-04-09T16:22:21.558Z</time></trkpt><trkpt lat="45.6466001" lon="11.4247648"><ele>94.33333333333333</ele><time>2026-04-09T16:22:22.559Z</time></trkpt><trkpt lat="45.6465408" lon="11.4248288"><ele>94.16666666666666</ele><time>2026-04-09T16:22:23.558Z</time></trkpt><trkpt lat="45.6464128" lon="11.4248893"><ele>94.0</ele><time>2026-04-09T16:22:25.557Z</time></trkpt><trkpt lat="45.6463236" lon="11.424957"><ele>94.0</ele><time>2026-04-09T16:22:27.558Z</time></trkpt><trkpt lat="45.6462503" lon="11.4250597"><ele>94.0</ele><time>2026-04-09T16:22:29.559Z</time></trkpt><trkpt lat="45.64616" lon="11.4251622"><ele>94.0</ele><time>2026-04-09T16:22:31.558Z</time></trkpt><trkpt lat="45.6460982" lon="11.42522"><ele>94.0</ele><time>2026-04-09T16:22:32.557Z</time></trkpt><trkpt lat="45.6460375" lon="11.4252775"><ele>94.0</ele><time>2026-04-09T16:22:33.558Z</time></trkpt><trkpt lat="45.6459824" lon="11.4254166"><ele>94.4</ele><time>2026-04-09T16:22:34.559Z</time></trkpt><trkpt lat="45.6458694" lon="11.4254834"><ele>94.80000000000001</ele><time>2026-04-09T16:22:36.557Z</time></trkpt><trkpt lat="45.6457858" lon="11.4255388"><ele>95.19999999999999</ele><time>2026-04-09T16:22:38.557Z</time></trkpt><trkpt lat="45.6456844" lon="11.4256052"><ele>95.6</ele><time>2026-04-09T16:22:40.557Z</time></trkpt><trkpt lat="45.6456256" lon="11.4256849"><ele>96.0</ele><time>2026-04-09T16:22:41.558Z</time></trkpt><trkpt lat="45.645565" lon="11.4257204"><ele>96.0</ele><time>2026-04-09T16:22:42.557Z</time></trkpt><trkpt lat="45.6454596" lon="11.4257979"><ele>96.0</ele><time>2026-04-09T16:22:44.558Z</time></trkpt><trkpt lat="45.645399" lon="11.4258922"><ele>96.0</ele><time>2026-04-09T16:22:45.559Z</time></trkpt><trkpt lat="45.6453371" lon="11.4259258"><ele>96.0</ele><time>2026-04-09T16:22:46.557Z</time></trkpt><trkpt lat="45.6452839" lon="11.4259992"><ele>96.0</ele><time>2026-04-09T16:22:47.558Z</time></trkpt><trkpt lat="45.6452194" lon="11.4260519"><ele>96.0</ele><time>2026-04-09T16:22:48.557Z</time></trkpt><trkpt lat="45.6451616" lon="11.426099"><ele>95.5</ele><time>2026-04-09T16:22:49.558Z</time></trkpt><trkpt lat="45.6450815" lon="11.4261706"><ele>95.0</ele><time>2026-04-09T16:22:50.558Z</time></trkpt><trkpt lat="45.6450239" lon="11.4262386"><ele>94.5</ele><time>2026-04-09T16:22:51.559Z</time></trkpt><trkpt lat="45.6449319" lon="11.4263373"><ele>94.0</ele><time>2026-04-09T16:22:53.559Z</time></trkpt><trkpt lat="45.644865" lon="11.4263499"><ele>93.5</ele><time>2026-04-09T16:22:55.558Z</time></trkpt><trkpt lat="45.6447819" lon="11.4263911"><ele>93.0</ele><time>2026-04-09T16:22:57.558Z</time></trkpt><trkpt lat="45.6446465" lon="11.4264469"><ele>93.0</ele><time>2026-04-09T16:22:59.558Z</time></trkpt><trkpt lat="45.644595" lon="11.426508"><ele>93.0</ele><time>2026-04-09T16:23:00.558Z</time></trkpt><trkpt lat="45.6445086" lon="11.4265652"><ele>93.0</ele><time>2026-04-09T16:23:01.558Z</time></trkpt><trkpt lat="45.6443886" lon="11.4266287"><ele>93.0</ele><time>2026-04-09T16:23:03.557Z</time></trkpt><trkpt lat="45.6443093" lon="11.4265984"><ele>93.0</ele><time>2026-04-09T16:23:05.558Z</time></trkpt><trkpt lat="45.6443082" lon="11.4267081"><ele>93.0</ele><time>2026-04-09T16:23:08.557Z</time></trkpt><trkpt lat="45.6442469" lon="11.4267572"><ele>92.60000000000001</ele><time>2026-04-09T16:23:10.559Z</time></trkpt><trkpt lat="45.6441656" lon="11.4267697"><ele>92.2</ele><time>2026-04-09T16:23:11.558Z</time></trkpt><trkpt lat="45.644049" lon="11.4268321"><ele>91.8</ele><time>2026-04-09T16:23:13.559Z</time></trkpt><trkpt lat="45.6439614" lon="11.4269037"><ele>91.4</ele><time>2026-04-09T16:23:14.558Z</time></trkpt><trkpt lat="45.6438612" lon="11.4269878"><ele>91.0</ele><time>2026-04-09T16:23:15.558Z</time></trkpt><trkpt lat="45.6437476" lon="11.4270681"><ele>91.0</ele><time>2026-04-09T16:23:16.558Z</time></trkpt><trkpt lat="45.6436786" lon="11.4271245"><ele>91.0</ele><time>2026-04-09T16:23:17.557Z</time></trkpt><trkpt lat="45.643618" lon="11.4271987"><ele>91.0</ele><time>2026-04-09T16:23:18.557Z</time></trkpt><trkpt lat="45.6435584" lon="11.4272889"><ele>91.0</ele><time>2026-04-09T16:23:19.557Z</time></trkpt><trkpt lat="45.643506" lon="11.427377"><ele>91.0</ele><time>2026-04-09T16:23:20.558Z</time></trkpt><trkpt lat="45.6434553" lon="11.4274401"><ele>91.0</ele><time>2026-04-09T16:23:21.557Z</time></trkpt><trkpt lat="45.6433909" lon="11.4274866"><ele>90.75</ele><time>2026-04-09T16:23:22.558Z</time></trkpt><trkpt lat="45.643315" lon="11.4275468"><ele>90.5</ele><time>2026-04-09T16:23:23.558Z</time></trkpt><trkpt lat="45.6432253" lon="11.4276463"><ele>90.25</ele><time>2026-04-09T16:23:25.558Z</time></trkpt><trkpt lat="45.6430976" lon="11.4277578"><ele>90.0</ele><time>2026-04-09T16:23:27.558Z</time></trkpt><trkpt lat="45.6430047" lon="11.4278532"><ele>90.0</ele><time>2026-04-09T16:23:29.558Z</time></trkpt><trkpt lat="45.6429051" lon="11.427939"><ele>90.0</ele><time>2026-04-09T16:23:31.557Z</time></trkpt><trkpt lat="45.6428385" lon="11.4280377"><ele>90.0</ele><time>2026-04-09T16:23:33.558Z</time></trkpt><trkpt lat="45.6427534" lon="11.4281032"><ele>90.0</ele><time>2026-04-09T16:23:35.558Z</time></trkpt><trkpt lat="45.6426898" lon="11.428146"><ele>90.0</ele><time>2026-04-09T16:23:36.558Z</time></trkpt><trkpt lat="45.6426302" lon="11.4282037"><ele>90.16666666666667</ele><time>2026-04-09T16:23:37.557Z</time></trkpt><trkpt lat="45.6425862" lon="11.4282746"><ele>90.33333333333333</ele><time>2026-04-09T16:23:38.558Z</time></trkpt><trkpt lat="45.6425595" lon="11.4283903"><ele>90.5</ele><time>2026-04-09T16:23:39.558Z</time></trkpt><trkpt lat="45.6424559" lon="11.4283479"><ele>90.66666666666666</ele><time>2026-04-09T16:23:41.558Z</time></trkpt><trkpt lat="45.6423666" lon="11.428306"><ele>90.83333333333333</ele><time>2026-04-09T16:23:43.557Z</time></trkpt><trkpt lat="45.6422833" lon="11.428277"><ele>91.0</ele><time>2026-04-09T16:23:45.558Z</time></trkpt><trkpt lat="45.642181" lon="11.4283002"><ele>91.0</ele><time>2026-04-09T16:23:47.557Z</time></trkpt><trkpt lat="45.6421161" lon="11.4283524"><ele>91.0</ele><time>2026-04-09T16:23:49.558Z</time></trkpt><trkpt lat="45.6420576" lon="11.4283149"><ele>91.0</ele><time>2026-04-09T16:23:52.558Z</time></trkpt><trkpt lat="45.6420174" lon="11.4282261"><ele>91.0</ele><time>2026-04-09T16:23:54.558Z</time></trkpt><trkpt lat="45.641932" lon="11.4282052"><ele>91.0</ele><time>2026-04-09T16:23:56.558Z</time></trkpt><trkpt lat="45.6418521" lon="11.4282633"><ele>91.0</ele><time>2026-04-09T16:23:58.557Z</time></trkpt><trkpt lat="45.6417847" lon="11.4283345"><ele>90.8</ele><time>2026-04-09T16:24:00.558Z</time></trkpt><trkpt lat="45.6417295" lon="11.4283959"><ele>90.6</ele><time>2026-04-09T16:24:02.557Z</time></trkpt><trkpt lat="45.6416705" lon="11.4284495"><ele>90.4</ele><time>2026-04-09T16:24:04.557Z</time></trkpt><trkpt lat="45.6416217" lon="11.4285142"><ele>90.2</ele><time>2026-04-09T16:24:06.558Z</time></trkpt><trkpt lat="45.6415547" lon="11.4285824"><ele>90.0</ele><time>2026-04-09T16:24:09.558Z</time></trkpt><trkpt lat="45.6413622" lon="11.4286757"><ele>90.0</ele><time>2026-04-09T16:24:12.557Z</time></trkpt><trkpt lat="45.6412825" lon="11.4287235"><ele>90.0</ele><time>2026-04-09T16:24:14.558Z</time></trkpt><trkpt lat="45.6411991" lon="11.4286951"><ele>90.0</ele><time>2026-04-09T16:24:17.558Z</time></trkpt><trkpt lat="45.6411597" lon="11.4286234"><ele>90.0</ele><time>2026-04-09T16:24:19.558Z</time></trkpt><trkpt lat="45.6411209" lon="11.4285388"><ele>90.0</ele><time>2026-04-09T16:24:21.557Z</time></trkpt><trkpt lat="45.6410816" lon="11.428442"><ele>90.0</ele><time>2026-04-09T16:24:23.558Z</time></trkpt><trkpt lat="45.6410399" lon="11.4283503"><ele>89.8</ele><time>2026-04-09T16:24:25.557Z</time></trkpt><trkpt lat="45.6410064" lon="11.4282307"><ele>89.6</ele><time>2026-04-09T16:24:27.557Z</time></trkpt><trkpt lat="45.6409706" lon="11.4280898"><ele>89.4</ele><time>2026-04-09T16:24:29.558Z</time></trkpt><trkpt lat="45.6409226" lon="11.4279403"><ele>89.2</ele><time>2026-04-09T16:24:31.557Z</time></trkpt><trkpt lat="45.6408677" lon="11.4277927"><ele>89.0</ele><time>2026-04-09T16:24:33.558Z</time></trkpt><trkpt lat="45.6408227" lon="11.4276478"><ele>88.6</ele><time>2026-04-09T16:24:35.558Z</time></trkpt><trkpt lat="45.6407873" lon="11.4275113"><ele>88.2</ele><time>2026-04-09T16:24:37.558Z</time></trkpt><trkpt lat="45.6407584" lon="11.4274124"><ele>87.8</ele><time>2026-04-09T16:24:39.558Z</time></trkpt><trkpt lat="45.6407107" lon="11.4273033"><ele>87.39999999999999</ele><time>2026-04-09T16:24:41.558Z</time></trkpt><trkpt lat="45.6406367" lon="11.4271456"><ele>87.0</ele><time>2026-04-09T16:24:43.557Z</time></trkpt><trkpt lat="45.640594" lon="11.4270509"><ele>87.0</ele><time>2026-04-09T16:24:44.559Z</time></trkpt><trkpt lat="45.6405572" lon="11.4269547"><ele>87.0</ele><time>2026-04-09T16:24:45.558Z</time></trkpt><trkpt lat="45.6405259" lon="11.4268645"><ele>87.0</ele><time>2026-04-09T16:24:46.558Z</time></trkpt><trkpt lat="45.640496" lon="11.4267805"><ele>87.0</ele><time>2026-04-09T16:24:47.557Z</time></trkpt><trkpt lat="45.6404361" lon="11.4266247"><ele>87.0</ele><time>2026-04-09T16:24:49.558Z</time></trkpt><trkpt lat="45.6403953" lon="11.4265444"><ele>87.0</ele><time>2026-04-09T16:24:50.558Z</time></trkpt><trkpt lat="45.6403238" lon="11.4264195"><ele>87.5</ele><time>2026-04-09T16:24:52.558Z</time></trkpt><trkpt lat="45.6402587" lon="11.4262955"><ele>88.0</ele><time>2026-04-09T16:24:54.558Z</time></trkpt><trkpt lat="45.640203" lon="11.4261644"><ele>88.5</ele><time>2026-04-09T16:24:56.559Z</time></trkpt><trkpt lat="45.6401669" lon="11.4260821"><ele>89.0</ele><time>2026-04-09T16:24:57.557Z</time></trkpt><trkpt lat="45.6401256" lon="11.4259982"><ele>89.5</ele><time>2026-04-09T16:24:58.558Z</time></trkpt><trkpt lat="45.6400842" lon="11.4259152"><ele>90.0</ele><time>2026-04-09T16:24:59.558Z</time></trkpt><trkpt lat="45.6400419" lon="11.4258386"><ele>90.0</ele><time>2026-04-09T16:25:00.557Z</time></trkpt><trkpt lat="45.6399985" lon="11.4257648"><ele>90.0</ele><time>2026-04-09T16:25:01.558Z</time></trkpt><trkpt lat="45.6399063" lon="11.4256656"><ele>90.0</ele><time>2026-04-09T16:25:02.557Z</time></trkpt><trkpt lat="45.6398268" lon="11.4255528"><ele>90.0</ele><time>2026-04-09T16:25:03.558Z</time></trkpt><trkpt lat="45.6397633" lon="11.425411"><ele>90.0</ele><time>2026-04-09T16:25:05.558Z</time></trkpt><trkpt lat="45.639704" lon="11.4252545"><ele>89.6</ele><time>2026-04-09T16:25:07.558Z</time></trkpt><trkpt lat="45.6396578" lon="11.4251206"><ele>89.2</ele><time>2026-04-09T16:25:09.558Z</time></trkpt><trkpt lat="45.6395954" lon="11.424988"><ele>88.80000000000001</ele><time>2026-04-09T16:25:11.557Z</time></trkpt><trkpt lat="45.6395922" lon="11.4248858"><ele>88.4</ele><time>2026-04-09T16:25:13.557Z</time></trkpt><trkpt lat="45.639525" lon="11.4247868"><ele>88.0</ele><time>2026-04-09T16:25:15.557Z</time></trkpt><trkpt lat="45.639495" lon="11.4246858"><ele>88.5</ele><time>2026-04-09T16:25:18.557Z</time></trkpt><trkpt lat="45.6394378" lon="11.4245882"><ele>89.0</ele><time>2026-04-09T16:25:20.557Z</time></trkpt><trkpt lat="45.6393901" lon="11.4244932"><ele>89.5</ele><time>2026-04-09T16:25:22.557Z</time></trkpt><trkpt lat="45.6393693" lon="11.4243901"><ele>90.0</ele><time>2026-04-09T16:25:25.558Z</time></trkpt><trkpt lat="45.6393987" lon="11.4243027"><ele>90.5</ele><time>2026-04-09T16:25:29.558Z</time></trkpt><trkpt lat="45.6394534" lon="11.4242331"><ele>91.0</ele><time>2026-04-09T16:25:32.558Z</time></trkpt><trkpt lat="45.6395145" lon="11.4241321"><ele>91.0</ele><time>2026-04-09T16:25:36.557Z</time></trkpt><trkpt lat="45.6395923" lon="11.424054"><ele>91.0</ele><time>2026-04-09T16:25:38.558Z</time></trkpt><trkpt lat="45.639681" lon="11.4239771"><ele>91.0</ele><time>2026-04-09T16:25:40.557Z</time></trkpt><trkpt lat="45.6397811" lon="11.4239021"><ele>91.0</ele><time>2026-04-09T16:25:42.557Z</time></trkpt><trkpt lat="45.6398695" lon="11.4238422"><ele>91.0</ele><time>2026-04-09T16:25:44.558Z</time></trkpt><trkpt lat="45.6399622" lon="11.4237804"><ele>91.4</ele><time>2026-04-09T16:25:46.558Z</time></trkpt><trkpt lat="45.6400438" lon="11.4237182"><ele>91.8</ele><time>2026-04-09T16:25:48.558Z</time></trkpt><trkpt lat="45.6401012" lon="11.4236472"><ele>92.2</ele><time>2026-04-09T16:25:50.558Z</time></trkpt><trkpt lat="45.6401313" lon="11.4234825"><ele>92.60000000000001</ele><time>2026-04-09T16:25:52.558Z</time></trkpt><trkpt lat="45.6401283" lon="11.423391"><ele>93.0</ele><time>2026-04-09T16:25:53.558Z</time></trkpt><trkpt lat="45.6401026" lon="11.4232235"><ele>93.0</ele><time>2026-04-09T16:25:55.558Z</time></trkpt><trkpt lat="45.6400794" lon="11.4230668"><ele>93.0</ele><time>2026-04-09T16:25:57.558Z</time></trkpt><trkpt lat="45.6400613" lon="11.4229174"><ele>93.0</ele><time>2026-04-09T16:25:59.558Z</time></trkpt><trkpt lat="45.64004" lon="11.4227824"><ele>93.0</ele><time>2026-04-09T16:26:01.558Z</time></trkpt><trkpt lat="45.6400203" lon="11.4226526"><ele>93.0</ele><time>2026-04-09T16:26:03.558Z</time></trkpt><trkpt lat="45.6400111" lon="11.4225187"><ele>93.16666666666667</ele><time>2026-04-09T16:26:05.558Z</time></trkpt><trkpt lat="45.6400086" lon="11.4224005"><ele>93.33333333333333</ele><time>2026-04-09T16:26:07.558Z</time></trkpt><trkpt lat="45.6400144" lon="11.4222881"><ele>93.5</ele><time>2026-04-09T16:26:09.557Z</time></trkpt><trkpt lat="45.6400127" lon="11.4221957"><ele>93.66666666666666</ele><time>2026-04-09T16:26:11.557Z</time></trkpt><trkpt lat="45.6399847" lon="11.4220907"><ele>93.83333333333333</ele><time>2026-04-09T16:26:13.557Z</time></trkpt><trkpt lat="45.6399629" lon="11.4219589"><ele>94.0</ele><time>2026-04-09T16:26:15.558Z</time></trkpt><trkpt lat="45.6399301" lon="11.4218392"><ele>94.2</ele><time>2026-04-09T16:26:17.559Z</time></trkpt><trkpt lat="45.6398659" lon="11.4217352"><ele>94.4</ele><time>2026-04-09T16:26:19.558Z</time></trkpt><trkpt lat="45.6398019" lon="11.421647"><ele>94.6</ele><time>2026-04-09T16:26:21.558Z</time></trkpt><trkpt lat="45.6397385" lon="11.4215552"><ele>94.8</ele><time>2026-04-09T16:26:23.557Z</time></trkpt><trkpt lat="45.6396807" lon="11.4214412"><ele>95.0</ele><time>2026-04-09T16:26:25.557Z</time></trkpt><trkpt lat="45.6396101" lon="11.4213254"><ele>95.14285714285714</ele><time>2026-04-09T16:26:27.557Z</time></trkpt><trkpt lat="45.6395486" lon="11.4212467"><ele>95.28571428571429</ele><time>2026-04-09T16:26:29.558Z</time></trkpt><trkpt lat="45.6395012" lon="11.4211607"><ele>95.42857142857142</ele><time>2026-04-09T16:26:31.558Z</time></trkpt><trkpt lat="45.6394542" lon="11.4210726"><ele>95.57142857142857</ele><time>2026-04-09T16:26:33.557Z</time></trkpt><trkpt lat="45.6394065" lon="11.4209987"><ele>95.71428571428571</ele><time>2026-04-09T16:26:35.558Z</time></trkpt><trkpt lat="45.6393691" lon="11.4209186"><ele>95.85714285714285</ele><time>2026-04-09T16:26:37.558Z</time></trkpt><trkpt lat="45.639339" lon="11.4208291"><ele>96.0</ele><time>2026-04-09T16:26:39.558Z</time></trkpt><trkpt lat="45.63931" lon="11.4207217"><ele>96.14285714285714</ele><time>2026-04-09T16:26:42.558Z</time></trkpt><trkpt lat="45.6392726" lon="11.4206181"><ele>96.28571428571428</ele><time>2026-04-09T16:26:45.558Z</time></trkpt><trkpt lat="45.639241" lon="11.4205066"><ele>96.42857142857142</ele><time>2026-04-09T16:26:48.558Z</time></trkpt><trkpt lat="45.6392269" lon="11.4204132"><ele>96.57142857142857</ele><time>2026-04-09T16:26:52.558Z</time></trkpt><trkpt lat="45.6391993" lon="11.4203132"><ele>96.71428571428572</ele><time>2026-04-09T16:26:56.558Z</time></trkpt><trkpt lat="45.6391732" lon="11.4202176"><ele>96.85714285714285</ele><time>2026-04-09T16:27:01.557Z</time></trkpt><trkpt lat="45.6391637" lon="11.4201214"><ele>97.0</ele><time>2026-04-09T16:27:06.558Z</time></trkpt><trkpt lat="45.639122" lon="11.4199859"><ele>97.71428571428571</ele><time>2026-04-09T16:27:19.557Z</time></trkpt><trkpt lat="45.6390947" lon="11.419903"><ele>98.42857142857143</ele><time>2026-04-09T16:27:47.558Z</time></trkpt><trkpt lat="45.6391286" lon="11.4198035"><ele>99.14285714285714</ele><time>2026-04-09T16:27:50.558Z</time></trkpt><trkpt lat="45.6390796" lon="11.4197464"><ele>99.85714285714286</ele><time>2026-04-09T16:27:56.557Z</time></trkpt><trkpt lat="45.6390198" lon="11.4198042"><ele>100.57142857142858</ele><time>2026-04-09T16:28:20.557Z</time></trkpt><trkpt lat="45.6389543" lon="11.4197989"><ele>101.28571428571429</ele><time>2026-04-09T16:28:23.558Z</time></trkpt><trkpt lat="45.6389028" lon="11.4198738"><ele>102.0</ele><time>2026-04-09T16:28:27.558Z</time></trkpt><trkpt lat="45.6389194" lon="11.4199997"><ele>102.0</ele><time>2026-04-09T16:28:29.559Z</time></trkpt><trkpt lat="45.6388646" lon="11.420056"><ele>102.0</ele><time>2026-04-09T16:28:34.557Z</time></trkpt><trkpt lat="45.6387748" lon="11.4200391"><ele>102.0</ele><time>2026-04-09T16:28:41.557Z</time></trkpt><trkpt lat="45.6387009" lon="11.420046"><ele>102.0</ele><time>2026-04-09T16:28:46.557Z</time></trkpt><trkpt lat="45.6386293" lon="11.4200677"><ele>102.0</ele><time>2026-04-09T16:28:50.558Z</time></trkpt><trkpt lat="45.6385646" lon="11.4200519"><ele>102.0</ele><time>2026-04-09T16:28:55.558Z</time></trkpt><trkpt lat="45.6384962" lon="11.4200303"><ele>102.0</ele><time>2026-04-09T16:29:00.558Z</time></trkpt><trkpt lat="45.638434" lon="11.4199817"><ele>102.57142857142857</ele><time>2026-04-09T16:29:06.558Z</time></trkpt><trkpt lat="45.6383648" lon="11.4199615"><ele>103.14285714285714</ele><time>2026-04-09T16:29:12.558Z</time></trkpt><trkpt lat="45.6382969" lon="11.4199241"><ele>103.71428571428572</ele><time>2026-04-09T16:29:17.558Z</time></trkpt><trkpt lat="45.6382328" lon="11.4198889"><ele>104.28571428571428</ele><time>2026-04-09T16:29:21.557Z</time></trkpt><trkpt lat="45.6381667" lon="11.4198514"><ele>104.85714285714285</ele><time>2026-04-09T16:29:25.558Z</time></trkpt><trkpt lat="45.638132" lon="11.4197639"><ele>105.42857142857143</ele><time>2026-04-09T16:29:30.558Z</time></trkpt><trkpt lat="45.6380679" lon="11.4197202"><ele>106.0</ele><time>2026-04-09T16:29:36.558Z</time></trkpt><trkpt lat="45.6380061" lon="11.4197438"><ele>106.0</ele><time>2026-04-09T16:29:41.557Z</time></trkpt><trkpt lat="45.6379782" lon="11.4196525"><ele>106.0</ele><time>2026-04-09T16:29:47.558Z</time></trkpt><trkpt lat="45.6379948" lon="11.4195536"><ele>106.0</ele><time>2026-04-09T16:29:52.558Z</time></trkpt><trkpt lat="45.6379933" lon="11.4194614"><ele>106.0</ele><time>2026-04-09T16:29:57.558Z</time></trkpt><trkpt lat="45.6380266" lon="11.4193718"><ele>106.0</ele><time>2026-04-09T16:30:04.558Z</time></trkpt><trkpt lat="45.6380488" lon="11.419276"><ele>106.0</ele><time>2026-04-09T16:30:12.558Z</time></trkpt><trkpt lat="45.6380125" lon="11.4191787"><ele>106.0</ele><time>2026-04-09T16:30:18.557Z</time></trkpt><trkpt lat="45.6380167" lon="11.4190851"><ele>107.57142857142858</ele><time>2026-04-09T16:30:23.557Z</time></trkpt><trkpt lat="45.6379724" lon="11.4190138"><ele>109.14285714285714</ele><time>2026-04-09T16:30:29.559Z</time></trkpt><trkpt lat="45.6379302" lon="11.4189323"><ele>110.71428571428572</ele><time>2026-04-09T16:30:35.558Z</time></trkpt><trkpt lat="45.6379127" lon="11.4188403"><ele>112.28571428571429</ele><time>2026-04-09T16:30:40.558Z</time></trkpt><trkpt lat="45.6378925" lon="11.4187448"><ele>113.85714285714286</ele><time>2026-04-09T16:30:45.558Z</time></trkpt><trkpt lat="45.637852" lon="11.4186646"><ele>115.42857142857143</ele><time>2026-04-09T16:30:49.557Z</time></trkpt><trkpt lat="45.6378106" lon="11.4185946"><ele>117.0</ele><time>2026-04-09T16:30:53.558Z</time></trkpt><trkpt lat="45.6377447" lon="11.4185322"><ele>118.5</ele><time>2026-04-09T16:30:57.557Z</time></trkpt><trkpt lat="45.6376781" lon="11.4185086"><ele>120.0</ele><time>2026-04-09T16:31:02.558Z</time></trkpt><trkpt lat="45.6376162" lon="11.4184778"><ele>121.5</ele><time>2026-04-09T16:31:05.557Z</time></trkpt><trkpt lat="45.6375383" lon="11.4184481"><ele>123.0</ele><time>2026-04-09T16:31:08.558Z</time></trkpt><trkpt lat="45.6374595" lon="11.418417"><ele>124.5</ele><time>2026-04-09T16:31:10.558Z</time></trkpt><trkpt lat="45.6373822" lon="11.4183597"><ele>126.0</ele><time>2026-04-09T16:31:12.557Z</time></trkpt><trkpt lat="45.6371685" lon="11.4182458"><ele>126.0</ele><time>2026-04-09T16:31:14.557Z</time></trkpt><trkpt lat="45.6370644" lon="11.418246"><ele>126.0</ele><time>2026-04-09T16:31:21.558Z</time></trkpt><trkpt lat="45.6369878" lon="11.418211"><ele>126.0</ele><time>2026-04-09T16:31:24.558Z</time></trkpt><trkpt lat="45.6369161" lon="11.4182"><ele>126.0</ele><time>2026-04-09T16:31:28.557Z</time></trkpt><trkpt lat="45.6368377" lon="11.4182025"><ele>126.0</ele><time>2026-04-09T16:31:32.558Z</time></trkpt><trkpt lat="45.6367729" lon="11.4182018"><ele>126.0</ele><time>2026-04-09T16:31:35.558Z</time></trkpt><trkpt lat="45.6366906" lon="11.4182153"><ele>126.33333333333333</ele><time>2026-04-09T16:31:39.558Z</time></trkpt><trkpt lat="45.6366082" lon="11.4182296"><ele>126.66666666666666</ele><time>2026-04-09T16:31:43.558Z</time></trkpt><trkpt lat="45.6365275" lon="11.4182324"><ele>127.0</ele><time>2026-04-09T16:31:46.558Z</time></trkpt><trkpt lat="45.6364523" lon="11.4182355"><ele>127.33333333333333</ele><time>2026-04-09T16:31:49.557Z</time></trkpt><trkpt lat="45.6363767" lon="11.4182403"><ele>127.66666666666666</ele><time>2026-04-09T16:31:53.557Z</time></trkpt><trkpt lat="45.6363098" lon="11.4182342"><ele>128.0</ele><time>2026-04-09T16:31:57.558Z</time></trkpt><trkpt lat="45.636236" lon="11.4182424"><ele>128.0</ele><time>2026-04-09T16:32:01.558Z</time></trkpt><trkpt lat="45.6361561" lon="11.4182492"><ele>127.99999999999999</ele><time>2026-04-09T16:32:05.558Z</time></trkpt><trkpt lat="45.6360817" lon="11.4182483"><ele>128.0</ele><time>2026-04-09T16:32:09.558Z</time></trkpt><trkpt lat="45.6360102" lon="11.4182275"><ele>128.0</ele><time>2026-04-09T16:32:13.558Z</time></trkpt><trkpt lat="45.6359467" lon="11.4182216"><ele>127.99999999999999</ele><time>2026-04-09T16:32:16.558Z</time></trkpt><trkpt lat="45.6358781" lon="11.4182211"><ele>128.0</ele><time>2026-04-09T16:32:19.558Z</time></trkpt><trkpt lat="45.6357931" lon="11.4182312"><ele>128.0</ele><time>2026-04-09T16:32:22.558Z</time></trkpt><trkpt lat="45.6357253" lon="11.4182194"><ele>128.0</ele><time>2026-04-09T16:32:25.558Z</time></trkpt><trkpt lat="45.6356584" lon="11.4182098"><ele>127.99999999999999</ele><time>2026-04-09T16:32:29.558Z</time></trkpt><trkpt lat="45.635596" lon="11.4181879"><ele>128.0</ele><time>2026-04-09T16:32:32.557Z</time></trkpt><trkpt lat="45.635535" lon="11.418164"><ele>128.0</ele><time>2026-04-09T16:32:35.557Z</time></trkpt><trkpt lat="45.6354716" lon="11.4181211"><ele>127.99999999999999</ele><time>2026-04-09T16:32:39.558Z</time></trkpt><trkpt lat="45.6354141" lon="11.4180761"><ele>128.0</ele><time>2026-04-09T16:32:43.558Z</time></trkpt><trkpt lat="45.6353481" lon="11.4180494"><ele>128.0</ele><time>2026-04-09T16:32:47.557Z</time></trkpt><trkpt lat="45.6352888" lon="11.4179938"><ele>129.42857142857142</ele><time>2026-04-09T16:32:51.557Z</time></trkpt><trkpt lat="45.6352493" lon="11.4179191"><ele>130.85714285714283</ele><time>2026-04-09T16:32:56.557Z</time></trkpt><trkpt lat="45.635197" lon="11.4178496"><ele>132.28571428571428</ele><time>2026-04-09T16:33:01.557Z</time></trkpt><trkpt lat="45.6351484" lon="11.4177741"><ele>133.71428571428572</ele><time>2026-04-09T16:33:05.557Z</time></trkpt><trkpt lat="45.6350971" lon="11.4177172"><ele>135.14285714285717</ele><time>2026-04-09T16:33:08.558Z</time></trkpt><trkpt lat="45.6350561" lon="11.4176424"><ele>136.57142857142858</ele><time>2026-04-09T16:33:12.558Z</time></trkpt><trkpt lat="45.6350112" lon="11.4175636"><ele>138.0</ele><time>2026-04-09T16:33:16.557Z</time></trkpt><trkpt lat="45.634968" lon="11.4174839"><ele>138.0</ele><time>2026-04-09T16:33:20.558Z</time></trkpt><trkpt lat="45.6348973" lon="11.417451"><ele>138.0</ele><time>2026-04-09T16:33:25.558Z</time></trkpt><trkpt lat="45.6348387" lon="11.4173744"><ele>138.0</ele><time>2026-04-09T16:33:29.558Z</time></trkpt><trkpt lat="45.6347741" lon="11.4173475"><ele>138.0</ele><time>2026-04-09T16:33:33.558Z</time></trkpt><trkpt lat="45.6346907" lon="11.4173594"><ele>138.0</ele><time>2026-04-09T16:33:37.557Z</time></trkpt><trkpt lat="45.6346265" lon="11.4173525"><ele>138.0</ele><time>2026-04-09T16:33:40.558Z</time></trkpt><trkpt lat="45.6345631" lon="11.4173429"><ele>138.0</ele><time>2026-04-09T16:33:43.557Z</time></trkpt><trkpt lat="45.6344827" lon="11.4173434"><ele>137.42857142857144</ele><time>2026-04-09T16:33:47.558Z</time></trkpt><trkpt lat="45.634415" lon="11.4173426"><ele>136.85714285714286</ele><time>2026-04-09T16:33:51.557Z</time></trkpt><trkpt lat="45.6343603" lon="11.4172741"><ele>136.28571428571428</ele><time>2026-04-09T16:33:58.558Z</time></trkpt><trkpt lat="45.6343475" lon="11.4171793"><ele>135.71428571428572</ele><time>2026-04-09T16:34:04.558Z</time></trkpt><trkpt lat="45.6343551" lon="11.4170778"><ele>135.14285714285714</ele><time>2026-04-09T16:34:12.558Z</time></trkpt><trkpt lat="45.6343569" lon="11.4169733"><ele>134.57142857142858</ele><time>2026-04-09T16:34:17.559Z</time></trkpt><trkpt lat="45.6343481" lon="11.4168695"><ele>134.0</ele><time>2026-04-09T16:34:23.558Z</time></trkpt><trkpt lat="45.6343344" lon="11.4167721"><ele>135.42857142857144</ele><time>2026-04-09T16:34:28.558Z</time></trkpt><trkpt lat="45.6343205" lon="11.4166635"><ele>136.85714285714286</ele><time>2026-04-09T16:34:33.558Z</time></trkpt><trkpt lat="45.6342923" lon="11.4165718"><ele>138.28571428571428</ele><time>2026-04-09T16:34:38.557Z</time></trkpt><trkpt lat="45.6342862" lon="11.4164749"><ele>139.71428571428572</ele><time>2026-04-09T16:34:42.558Z</time></trkpt><trkpt lat="45.6342868" lon="11.4163786"><ele>141.14285714285714</ele><time>2026-04-09T16:34:47.557Z</time></trkpt><trkpt lat="45.6342957" lon="11.4162839"><ele>142.57142857142858</ele><time>2026-04-09T16:34:52.558Z</time></trkpt><trkpt lat="45.6343167" lon="11.416188"><ele>144.0</ele><time>2026-04-09T16:34:57.557Z</time></trkpt><trkpt lat="45.6343441" lon="11.4160962"><ele>145.5</ele><time>2026-04-09T16:35:02.557Z</time></trkpt><trkpt lat="45.6343807" lon="11.4160116"><ele>147.0</ele><time>2026-04-09T16:35:07.558Z</time></trkpt><trkpt lat="45.6344232" lon="11.4159321"><ele>148.5</ele><time>2026-04-09T16:35:12.558Z</time></trkpt><trkpt lat="45.6344026" lon="11.4158375"><ele>150.0</ele><time>2026-04-09T16:35:16.558Z</time></trkpt><trkpt lat="45.6344153" lon="11.4157068"><ele>151.5</ele><time>2026-04-09T16:35:19.557Z</time></trkpt><trkpt lat="45.6344434" lon="11.4155999"><ele>153.0</ele><time>2026-04-09T16:35:22.558Z</time></trkpt><trkpt lat="45.6344585" lon="11.4155024"><ele>153.0</ele><time>2026-04-09T16:35:28.558Z</time></trkpt><trkpt lat="45.6344314" lon="11.4154198"><ele>153.0</ele><time>2026-04-09T16:35:35.558Z</time></trkpt></trkseg></trk></gpx>